Site Date DSCMET_AIRTEMP_MEAN_150_0_01 DSCMET_AIRTEMP_MEAN_1000_0_02 DSCMET_AIRTEMP_MEAN_2000_0_03 DSCMET_AIRTEMP_MEAN_3000_0_04 DSCMET_AIRTEMP_MEAN_4000_0_05 DSCMET_RELHUM_MEAN_150_0_01 DSCMET_DEWPT_MEAN_150_0_01 DSCMET_VPD_MEAN_150_0_01 DSCMET_LWV_MEAN_150_0_01 DSCMET_LWV_MEAN_1000_0_02 DSCMET_LWV_MEAN_2000_0_03 DSCMET_AIRTEMP_MEAN_5000_0_06 DSCMET_RELHUM_MEAN_5000_0_06 DSCMET_DEWPT_MEAN_5000_0_06 DSCMET_VPD_MEAN_5000_0_06 DSCMET_LW_MEAN_3000_0_04 DSCMET_LW_MEAN_4000_0_05 DSCMET_LW_MEAN_5000_0_06 DSCMET_WSPD_SNC_MEAN_150_0_01 DSCMET_WDIR_SNC_MEAN_150_0_01 DSCMET_WSPD_SNC_MEAN_5000_0_02 DSCMET_WDIR_SNC_MEAN_5000_0_02 PRIMET_LW_OUT_MEAN_600_0_02 PRIMET_LW_IN_MEAN_600_0_02 PRIMET_SW_OUT_MEAN_600_0_02 PRIMET_SW_IN_MEAN_600_0_02
DSCMET_COMPS 2017-10-01 00:00:00   9.360 9.210 9.180 9.190 -32.600 -60.630   274.100 408.900 441.900 9.160 98.900 8.996 0.128 416.800 461.700 399.800 0.0950 84.000 0.286 7.616 365.70 361.50 0.57 -0.56
DSCMET_COMPS 2017-09-30 23:55:00   9.340 9.220 9.190 9.150 -32.600 -60.630   274.100 411.800 441.600 9.110 98.800 8.931 0.139 416.500 462.200 403.800 0.1810 337.200 0.320 325.200 365.70 361.50 0.60 -0.57
DSCMET_COMPS 2017-09-30 23:50:00   9.420 9.310 9.250 9.170 -32.610 -60.620   274.100 411.400 442.800 9.140 98.700 8.946 0.151 415.300 463.100 414.000 0.1810 52.450 0.391 162.600 365.70 361.50 0.58 -0.61
DSCMET_COMPS 2017-09-30 23:45:00   9.400 9.300 9.230 9.160 -32.640 -60.620   272.500 413.400 445.200 9.120 98.700 8.926 0.150 415.400 465.400 430.300 0.0360 287.400 0.125 158.500 365.80 361.60 0.60 -0.63
DSCMET_COMPS 2017-09-30 23:40:00   9.330 9.220 9.190 9.140 -32.720 -60.590   270.600 414.300 444.600 9.120 98.700 8.926 0.150 411.600 464.600 502.500 0.0990 72.430 0.656 63.160 365.90 361.70 0.64 -0.63
DSCMET_COMPS 2017-09-30 23:35:00   9.340 9.220 9.190 9.160 -32.840 -60.560   269.500 406.100 434.900 9.120 98.800 8.941 0.139 399.200 459.200 533.100 0.0920 70.160 0.574 60.500 365.90 361.70 0.64 -0.50
DSCMET_COMPS 2017-09-30 23:30:00   9.410 9.290 9.220 9.180 -32.870 -60.550   269.400 403.600 427.100 9.110 98.800 8.931 0.139 390.300 450.000 435.400 0.1680 34.990 0.494 62.170 366.10 361.50 0.65 -0.45
DSCMET_COMPS 2017-09-30 23:25:00   9.360 9.220 9.180 9.160 -32.850 -60.550   269.300 403.300 426.300 9.100 98.800 8.921 0.139 390.300 449.800 392.600 0.1620 226.300 0.417 113.300 366.00 361.50 0.62 -0.44
DSCMET_COMPS 2017-09-30 23:20:00   9.360 9.220 9.190 9.140 -32.890 -60.540   269.300 403.000 427.400 9.110 98.700 8.916 0.150 390.500 449.700 417.500 0.1430 43.840 0.305 93.700 365.90 361.50 0.60 -0.43
DSCMET_COMPS 2017-09-30 23:15:00   9.310 9.180 9.180 9.160 -32.940 -60.530   269.000 400.400 425.300 9.140 98.700 8.946 0.151 389.600 449.000 447.400   0.000 0.673 69.560 365.90 361.30 0.66 -0.53
DSCMET_COMPS 2017-09-30 23:10:00   9.320 9.180 9.170 9.140 -32.940 -60.530   268.700 398.400 419.300 9.090 98.600 8.881 0.162 415.500 441.800 383.200 0.1870 317.000 0.590 47.140 365.90 361.30 0.67 -0.52
DSCMET_COMPS 2017-09-30 23:05:00   9.350 9.230 9.200 9.160 -32.940 -60.530   269.100 398.900 419.900 9.130 98.500 8.906 0.174 425.900 442.100 392.800 0.2030 65.740 0.448 137.500 365.90 361.20 0.62 -0.60
DSCMET_COMPS 2017-09-30 23:00:00   9.330 9.200 9.200 9.170 -32.930 -60.530   269.300 399.500 420.600 9.130 98.500 8.906 0.174 426.700 442.000 394.000 0.1090 83.600 0.335 101.700 365.90 361.30 0.64 -0.54
DSCMET_COMPS 2017-09-30 22:55:00   9.310 9.190 9.210 9.250 -32.940 -60.530   269.200 400.600 421.200 9.150 98.700 8.956 0.151 427.400 442.300 366.200 0.1510 82.800 0.610 44.350 365.90 361.40 0.57 -0.58
DSCMET_COMPS 2017-09-30 22:50:00   9.330 9.190 9.170 9.140 -32.890 -60.550   269.300 401.200 422.300 9.090 98.800 8.911 0.139 428.000 443.200 370.800 0.1640 48.040 0.936 47.150 365.90 361.40 0.63 -0.56
DSCMET_COMPS 2017-09-30 22:45:00   9.370 9.230 9.190 9.130 -32.870 -60.550   269.300 401.900 423.000 9.090 98.800 8.911 0.139 428.300 443.600 370.700 0.1430 50.510 0.419 73.320 365.80 361.30 0.75 -0.46
DSCMET_COMPS 2017-09-30 22:40:00   9.340 9.220 9.190 9.130 -32.870 -60.550   269.300 401.400 425.000 9.090 98.700 8.896 0.150 428.500 443.800 373.000 0.1120 98.700 0.663 66.070 365.70 361.20 0.68 -0.56
DSCMET_COMPS 2017-09-30 22:35:00   9.320 9.210 9.170 9.130 -32.870 -60.550   269.300 402.700 425.600 9.090 98.700 8.896 0.150 428.800 444.400 373.900 0.1470 13.320 0.689 50.050 365.70 361.20 0.61 -0.63
DSCMET_COMPS 2017-09-30 22:30:00   9.360 9.230 9.210 9.140 -32.810 -60.570   269.600 403.900 425.600 9.110 98.700 8.916 0.150 429.200 444.900 384.200 0.1540 11.970 0.259 116.600 365.80 361.20 0.65 -0.50
DSCMET_COMPS 2017-09-30 22:25:00   9.330 9.190 9.190 9.150 -32.790 -60.580   269.300 404.300 427.200 9.110 98.700 8.916 0.150 429.500 445.200 370.300 0.1260 147.700 0.740 48.670 365.80 361.20 0.72 -0.52
DSCMET_COMPS 2017-09-30 22:20:00   9.330 9.220 9.210 9.140 -32.720 -60.600   269.300 403.100 428.200 9.080 98.700 8.886 0.150 427.000 440.800 339.200 0.2120 5.088 0.411 54.680 365.70 361.10 0.67 -0.58
DSCMET_COMPS 2017-09-30 22:15:00   9.370 9.220 9.190 9.130 -32.660 -60.620   269.400 403.200 432.100 9.100 98.700 8.906 0.150 426.700 440.900 328.400 0.1150 106.800 0.189 122.400 365.60 361.10 0.68 -0.68
DSCMET_COMPS 2017-09-30 22:10:00   9.360 9.190 9.170 9.150 -32.660 -60.620   270.000 403.400 432.200 9.090 98.600 8.881 0.162 427.100 441.100 329.400 0.1880 70.340 0.248 7.877 365.60 361.10 0.64 -0.66
DSCMET_COMPS 2017-09-30 22:05:00   9.380 9.250 9.190 9.160 -32.610 -60.640   270.200 404.000 430.400 9.120 98.600 8.911 0.162 427.800 441.500 330.300   0.000 0.469 157.700 365.60 361.20 0.65 -0.67
DSCMET_COMPS 2017-09-30 22:00:00   9.390 9.250 9.200 9.180 -32.530 -60.660   270.700 404.300 431.300 9.120 98.600 8.911 0.162 428.300 441.900 331.300 0.1050 227.300 0.178 239.000 365.70 361.10 0.75 -0.61
DSCMET_COMPS 2017-09-30 21:55:00   9.350 9.180 9.180 9.160 -32.460 -60.680   270.800 404.800 432.500 9.130 98.600 8.921 0.162 429.000 442.200 332.800 0.1530 55.990 0.810 42.340 365.60 361.10 0.66 -0.61
DSCMET_COMPS 2017-09-30 21:50:00   9.390 9.210 9.190 9.140 -32.400 -60.710   271.400 405.600 433.400 9.120 98.600 8.911 0.162 428.600 442.800 333.800 0.1580 1.776 0.287 53.660 365.40 361.00 0.73 -0.85
DSCMET_COMPS 2017-09-30 21:45:00   9.400 9.250 9.220 9.180 -32.330 -60.730   271.600 406.300 434.400 9.170 98.700 8.976 0.151 428.700 442.400 335.400 0.2580 100.300 0.477 145.200 365.60 360.90 0.67 -0.69
DSCMET_COMPS 2017-09-30 21:40:00   9.400 9.240 9.220 9.210 -32.280 -60.750   272.100 407.300 435.700 9.170 98.800 8.991 0.139 429.500 443.200 339.000 0.2030 290.900 0.633 320.300 365.70 361.10 0.68 -0.68
DSCMET_COMPS 2017-09-30 21:35:00   9.340 9.280 9.250 9.160 -32.210 -60.780   272.400 408.200 437.100 9.120 98.900 8.956 0.127 430.400 444.000 341.500 0.1020 24.960 0.642 52.350 365.60 361.10 0.74 -0.81
DSCMET_COMPS 2017-09-30 21:30:00   9.470 9.380 9.270 9.190 -32.170 -60.790   272.700 408.900 438.300 9.120 98.900 8.956 0.127 430.200 444.600 344.300 0.1590 347.000 0.044 123.200 365.60 361.10 0.68 -0.74
DSCMET_COMPS 2017-09-30 21:25:00   9.460 9.280 9.230 9.200 -32.110 -60.820   273.200 410.100 438.500 9.140 98.900 8.976 0.127 430.800 445.000 347.500 0.1380 118.300 0.171 113.200 365.70 361.20 0.74 -0.82
DSCMET_COMPS 2017-09-30 21:20:00   9.430 9.290 9.230 9.180 -32.050 -60.840   273.600 410.800 440.400 9.130 98.900 8.966 0.127 431.500 449.900 350.900 0.2190 326.900 0.566 27.630 365.60 361.20 0.67 -1.09
DSCMET_COMPS 2017-09-30 21:15:00   9.460 9.330 9.300 9.240 -31.980 -60.870   274.100 411.200 442.000 9.150 99.000 9.001 0.116 432.400 457.000 356.400 0.2170 124.800 0.466 110.900 365.90 361.30 0.70 -1.00
DSCMET_COMPS 2017-09-30 21:10:00   9.470 9.340 9.290 9.230 -31.920 -60.890   274.700 412.500 443.000 9.150 99.000 9.001 0.116 433.900 457.600 368.700 0.1450 9.350 0.895 35.840 366.20 361.60 0.71 -0.87
DSCMET_COMPS 2017-09-30 21:05:00   9.480 9.360 9.320 9.240 -31.840 -60.930   274.800 413.300 444.500 9.170 99.000 9.021 0.116 435.000 457.500 386.300 0.1170 93.700 0.600 64.620 366.20 361.60 0.73 -0.88
DSCMET_COMPS 2017-09-30 21:00:00   9.530 9.420 9.380 9.300 -31.790 -60.960   274.800 413.500 446.600 9.170 99.000 9.021 0.116 434.400 457.900 394.000   0.000 0.283 74.200 366.30 361.80 0.70 -0.84
DSCMET_COMPS 2017-09-30 20:55:00   9.570 9.470 9.360 9.290 -31.720 -60.990   275.300 413.800 449.700 9.190 99.000 9.041 0.116 434.400 457.900 397.600 0.1070 65.800 0.224 53.600 366.30 361.90 0.71 -0.97
DSCMET_COMPS 2017-09-30 20:50:00   9.570 9.450 9.380 9.320 -31.650 -61.020   275.400 414.900 458.800 9.190 99.000 9.041 0.116 435.400 457.800 401.400 0.1180 132.400 0.114 69.190 366.20 361.90 0.72 -1.28
DSCMET_COMPS 2017-09-30 20:45:00   9.580 9.460 9.380 9.300 -31.580 -61.050   275.900 414.700 460.200 9.200 99.000 9.051 0.116 435.600 458.000 385.200 0.0930 81.300 0.446 70.270 366.80 362.00 0.83 -0.80
DSCMET_COMPS 2017-09-30 20:40:00   9.560 9.400 9.370 9.310 -31.510 -61.080   276.400 415.300 459.900 9.210 99.000 9.061 0.116 435.800 458.300 345.100 0.1670 101.800 0.273 78.820 367.30 362.10 0.85 -0.44
DSCMET_COMPS 2017-09-30 20:35:00   9.530 9.400 9.380 9.330 -31.450 -61.110   276.900 416.400 460.400 9.260 99.000 9.111 0.117 436.600 458.300 341.400 0.1820 72.940 0.890 46.750 367.20 362.00 0.69 -0.46
DSCMET_COMPS 2017-09-30 20:30:00   9.560 9.450 9.430 9.370 -31.430 -61.140   277.500 417.700 461.100 9.260 98.900 9.096 0.129 437.200 458.700 341.000 0.1800 34.590 0.263 56.970 367.30 362.00 0.71 -0.44
DSCMET_COMPS 2017-09-30 20:25:00   9.610 9.500 9.450 9.350 -31.370 -61.170   278.000 419.400 462.200 9.290 98.900 9.126 0.129 437.600 458.700 338.300 0.1520 51.480 0.139 90.500 367.00 361.90 0.71 -0.44
DSCMET_COMPS 2017-09-30 20:20:00   9.620 9.460 9.440 9.360 -31.280 -61.220   278.400 422.700 464.300 9.290 98.900 9.126 0.129 438.400 458.900 336.300 0.0680 259.400 0.196 237.100 366.80 361.80 0.72 -0.58
DSCMET_COMPS 2017-09-30 20:15:00   9.600 9.420 9.430 9.340 -31.190 -61.270   278.800 427.500 472.200 9.260 98.900 9.096 0.129 438.900 459.500 337.500 0.1270 53.070 0.124 40.890 366.40 361.70 0.69 -0.83
DSCMET_COMPS 2017-09-30 20:10:00   9.620 9.480 9.480 9.440 -31.160 -61.290   279.200 427.200 473.700 9.290 98.900 9.126 0.129 440.100 459.000 337.700 0.1420 306.600 0.275 303.200 366.40 361.80 0.71 -0.95
DSCMET_COMPS 2017-09-30 20:05:00   9.710 9.600 9.560 9.460 -31.110 -61.320   279.900 427.900 474.600 9.270 98.800 9.091 0.140 440.900 459.000 338.000 0.0940 269.900 0.175 297.700 366.70 361.90 0.74 -0.84
DSCMET_COMPS 2017-09-30 20:00:00   9.710 9.580 9.530 9.460 -31.070 -61.360   280.400 429.700 475.300 9.290 98.800 9.111 0.140 441.600 459.300 338.500 0.0150 89.400 0.118 54.010 367.20 361.80 0.79 -0.48
DSCMET_COMPS 2017-09-30 19:55:00   9.660 9.540 9.490 9.430 -30.990 -61.400   280.900 435.900 476.500 9.300 98.800 9.121 0.141 442.800 459.800 348.300 0.1780 120.300 0.305 98.100 367.10 361.80 0.77 -0.52
DSCMET_COMPS 2017-09-30 19:50:00   9.640 9.520 9.470 9.390 -30.890 -61.460   281.600 436.600 479.100 9.310 98.800 9.131 0.141 443.600 460.400 351.100   0.000 0.908 60.560 367.00 361.70 0.78 -0.49
DSCMET_COMPS 2017-09-30 19:45:00   9.640 9.500 9.460 9.420 -30.780 -61.510   282.000 437.400 480.600 9.340 98.800 9.161 0.141 444.500 460.800 343.500 0.1500 21.490 0.482 63.630 366.60 361.50 0.83 -0.82
DSCMET_COMPS 2017-09-30 19:40:00   9.610 9.440 9.410 9.410 -30.670 -61.560   282.200 437.300 481.100 9.320 98.800 9.141 0.141 446.100 461.200 354.700 0.1680 66.070 0.477 44.710 366.70 361.70 0.86 -1.11
DSCMET_COMPS 2017-09-30 19:35:00   9.620 9.430 9.440 9.400 -30.540 -61.630   282.800 437.500 481.800 9.330 98.700 9.136 0.153 446.400 461.700 338.400 0.1570 319.600 0.170 296.600 367.10 361.70 0.76 -0.69
DSCMET_COMPS 2017-09-30 19:30:00   9.670 9.540 9.520 9.430 -30.430 -61.700   283.500 440.600 483.500 9.350 98.700 9.156 0.153 446.300 462.300 340.600 0.1360 268.500 1.423 2.552 367.10 361.70 0.75 -0.51
DSCMET_COMPS 2017-09-30 19:25:00   9.600 9.480 9.450 9.390 -30.290 -61.780   284.000 441.700 485.800 9.380 98.600 9.171 0.165 447.300 463.200 343.100 0.1540 117.600 0.401 142.200 366.80 361.60 0.76 -0.52
DSCMET_COMPS 2017-09-30 19:20:00   9.590 9.480 9.460 9.390 -30.120 -61.870   284.800 441.600 493.900 9.360 98.600 9.151 0.165 449.100 464.300 345.000 0.1620 335.400 0.115 57.950 366.50 361.40 0.85 -0.94
DSCMET_COMPS 2017-09-30 19:15:00   9.660 9.490 9.460 9.420 -29.980 -61.940   285.300 441.700 492.700 9.390 98.500 9.166 0.177 450.800 465.300 349.000 0.1310 63.870 0.079 72.360 366.60 361.60 0.83 -1.09
DSCMET_COMPS 2017-09-30 19:10:00   9.650 9.490 9.480 9.440 -29.830 -62.030   285.600 443.200 493.300 9.400 98.400 9.161 0.189 452.100 466.300 356.600 0.1200 307.000 0.145 292.000 367.00 361.80 0.83 -1.08
DSCMET_COMPS 2017-09-30 19:05:00   9.640 9.510 9.510 9.440 -29.650 -62.120   285.800 445.600 495.500 9.420 98.300 9.166 0.201 451.800 467.400 362.700 0.0760 324.300 1.692 89.000 367.40 361.90 0.80 -1.00
DSCMET_COMPS 2017-09-30 19:00:00   9.690 9.560 9.520 9.450 -29.490 -62.220   286.600 446.700 496.300 9.430 98.100 9.145 0.225 452.900 468.100 365.100 0.2060 7.126 0.265 27.100 367.70 362.10 0.83 -0.85
DSCMET_COMPS 2017-09-30 18:55:00   9.770 9.640 9.580 9.460 -29.280 -62.330   287.100 448.200 497.700 9.460 98.000 9.160 0.237 455.000 469.600 370.800 0.1310 313.500 0.331 109.100 367.60 362.20 0.82 -0.88
DSCMET_COMPS 2017-09-30 18:50:00   9.710 9.550 9.530 9.450 -29.050 -62.470   287.700 451.800 507.100 9.420 98.300 9.166 0.201 455.800 470.100 384.200 0.0840 89.000 0.129 134.600 367.70 362.40 0.77 -0.92
DSCMET_COMPS 2017-09-30 18:45:00   9.780 9.580 9.540 9.480 -28.860 -62.560   288.300 449.700 510.200 9.420 98.300 9.166 0.201 456.800 471.200 388.400   0.000 0.349 310.400 367.90 362.40 0.88 -0.90
DSCMET_COMPS 2017-09-30 18:40:00   9.730 9.590 9.560 9.490 -28.670 -62.660   288.700 445.100 512.100 9.420 98.400 9.181 0.189 459.200 471.800 363.600 0.0670 123.300 0.129 120.200 368.10 362.40 0.93 -0.88
DSCMET_COMPS 2017-09-30 18:35:00   9.720 9.560 9.560 9.510 -28.430 -62.790   289.400 444.400 513.100 9.450 98.300 9.196 0.201 459.100 472.500 374.700 0.1380 328.800 0.216 325.000 368.10 362.40 0.91 -0.94
DSCMET_COMPS 2017-09-30 18:30:00   9.790 9.650 9.590 9.520 -28.210 -62.910   288.700 446.600 515.300 9.530 98.200 9.260 0.214 461.600 474.500 401.200 0.1690 323.100 0.278 286.400 368.30 362.50 0.85 -0.90
DSCMET_COMPS 2017-09-30 18:25:00   9.790 9.620 9.560 9.500 -27.960 -63.030   289.400 447.100 516.100 9.490 97.900 9.175 0.249 466.300 479.000 391.500 0.1270 133.400 0.364 258.400 368.30 362.60 0.86 -1.06
DSCMET_COMPS 2017-09-30 18:20:00   9.870 9.740 9.650 9.560 -27.660 -63.180   288.300 446.600 518.900 9.540 97.500 9.164 0.298 478.000 482.200 397.600 0.2530 318.000 0.640 314.600 368.60 362.80 0.86 -1.10
DSCMET_COMPS 2017-09-30 18:15:00   9.820 9.690 9.650 9.560 -27.430 -63.310   286.800 446.800 521.900 9.640 95.900 9.019 0.491 491.000 496.400 406.300 0.1820 147.100 0.764 123.300 368.60 363.00 0.84 -1.23
DSCMET_COMPS 2017-09-30 18:10:00   9.820 9.680 9.650 9.560 -27.120 -63.450   287.000 444.300 530.900 9.620 95.300 8.906 0.563 506.600 509.400 458.100 0.0880 66.970 1.184 49.280 368.90 363.30 0.85 -1.27
DSCMET_COMPS 2017-09-30 18:05:00   9.850 9.720 9.700 9.630 -26.960 -63.460   283.900 434.000 529.800 9.680 94.700 8.872 0.637 504.300 521.700 463.600 0.0780 65.280 1.258 47.370 369.00 363.70 0.89 -1.15
DSCMET_COMPS 2017-09-30 18:00:00   9.910 9.790 9.740 9.620 -26.840 -63.430   283.600 418.300 517.200 9.620 96.100 9.030 0.467 509.900 515.200 499.500 0.1610 354.300 1.600 47.970 369.60 364.10 0.93 -0.81
DSCMET_COMPS 2017-09-30 17:55:00   9.940 9.830 9.800 9.680 -26.680 -63.430   283.500 404.500 500.700 9.690 95.700 9.037 0.517 511.200 508.400 469.200 0.1660 54.470 1.490 52.480 370.10 364.60 0.89 -0.84
DSCMET_COMPS 2017-09-30 17:50:00   10.060 9.910 9.880 9.740 -26.510 -63.450   282.200 397.600 489.100 9.790 94.300 8.919 0.690 507.100 507.400 490.700 0.1650 46.400 1.420 55.660 370.50 365.30 0.79 -0.73
DSCMET_COMPS 2017-09-30 17:45:00   10.060 9.950 9.930 9.800 -26.320 -63.500   280.200 390.000 473.900 9.810 94.600 8.986 0.655 487.100 487.300 407.900 0.1800 33.310 1.649 47.510 370.90 366.00 0.71 -0.82
DSCMET_COMPS 2017-09-30 17:40:00   10.100 9.980 9.980 9.870 -26.100 -63.600   280.100 390.800 473.800 9.910 94.800 9.116 0.635 491.600 491.700 441.400 0.3130 19.630 1.707 48.830 371.30 367.00 0.65 -1.01
DSCMET_COMPS 2017-09-30 17:35:00   10.220 10.090 10.110 9.990 -25.970 -63.620   279.600 390.200 470.000 10.040 92.200 8.834 0.960 498.500 501.600 467.000   0.000 2.027 48.990 372.20 368.40 0.72 -1.09
DSCMET_COMPS 2017-09-30 17:30:00   10.330 10.210 10.230 10.120 -25.970 -63.540   279.100 383.400 457.500 10.170 90.500 8.687 1.180 479.600 516.100 506.300 0.2540 342.100 1.414 38.020 373.30 369.70 0.81 -0.79
DSCMET_COMPS 2017-09-30 17:25:00   10.490 10.420 10.390 10.190 -26.020 -63.440   279.000 377.100 429.900 10.180 92.400 9.004 0.944 452.000 496.400 438.700 0.3140 356.700 1.494 39.630 374.80 371.10 0.81 1.12
DSCMET_COMPS 2017-09-30 17:20:00   10.760 10.750 10.670 10.360 -26.030 -63.390   279.500 377.700 422.400 10.370 92.800 9.257 0.906 447.500 507.000 459.200 0.3320 341.000 1.633 51.130 376.10 372.80 1.14 4.13
DSCMET_COMPS 2017-09-30 17:15:00   11.130 11.080 11.010 10.730 -26.220 -63.190   278.200 371.400 407.500 10.760 91.000 9.352 1.163 432.700 546.800 523.100 0.3900 358.000 1.446 51.440 377.10 374.70 1.06 1.71
DSCMET_COMPS 2017-09-30 17:10:00   11.770 11.720 11.630 11.270 -26.640 -62.830   270.800 340.100 372.300 11.560 81.700 8.542 2.493 383.300 523.400 599.100 0.2710 47.770 1.443 45.020 379.10 374.80 0.78 -0.00
DSCMET_COMPS 2017-09-30 17:05:00   12.220 12.300 12.300 12.280 -27.120 -62.450   266.600 282.000 281.600 12.370 73.650 7.803 3.787 291.700 369.500 387.900 0.3500 12.210 0.962 6.227 381.30 367.80 0.36 2.57
DSCMET_COMPS 2017-09-30 17:00:00   12.390 12.520 12.460 12.400 -27.200 -62.390   264.600 264.600 263.200 12.400 79.330 8.926 2.976 264.500 265.500 265.900 0.1410 107.800 0.441 18.840 382.10 366.50 0.33 4.20
DSCMET_COMPS 2017-09-30 16:55:00   12.440 12.550 12.550 12.440 -27.240 -62.360   264.600 264.600 263.200 12.390 79.200 8.892 2.993 264.200 264.500 264.000 0.1380 93.700 0.279 355.200 383.20 365.00 0.88 8.77
DSCMET_COMPS 2017-09-30 16:50:00   12.560 12.710 12.640 12.520 -27.240 -62.360   264.600 264.600 263.200 12.550 77.980 8.818 3.202 264.200 264.500 263.900 0.1090 103.600 0.307 308.700 385.00 363.10 4.21 33.34
DSCMET_COMPS 2017-09-30 16:45:00   12.740 12.760 12.690 12.580 -27.240 -62.360   264.500 264.600 263.000 12.600 77.010 8.681 3.354 264.200 264.500 263.900 0.1280 251.500 0.697 269.600 385.60 362.30 5.12 41.33
DSCMET_COMPS 2017-09-30 16:40:00   12.820 12.780 12.670 12.610 -27.220 -62.370   264.100 264.600 262.900 12.690 75.710 8.517 3.565 264.200 264.500 263.900 0.2950 322.000 0.802 258.800 386.40 361.60 7.55 57.06
DSCMET_COMPS 2017-09-30 16:35:00   12.830 12.760 12.630 12.650 -27.170 -62.400   263.900 264.600 262.700 12.690 75.120 8.402 3.651 264.000 264.500 263.900 0.3950 328.500 0.901 253.900 387.10 362.30 9.48 72.33
DSCMET_COMPS 2017-09-30 16:30:00   12.830 12.750 12.660 12.610 -27.120 -62.420   263.900 264.500 262.600 12.660 75.020 8.353 3.659 263.900 264.500 263.900 0.3530 331.100 0.983 250.000 385.30 362.30 6.59 54.50
DSCMET_COMPS 2017-09-30 16:25:00   12.930 12.820 12.750 12.690 -27.080 -62.430   263.900 264.100 262.600 12.740 74.030 8.235 3.824 263.900 264.500 263.900   0.000 0.880 250.100 384.60 361.50 3.81 35.30
DSCMET_COMPS 2017-09-30 16:20:00   12.970 12.930 12.880 12.760 -27.030 -62.440   263.900 264.000 262.600 12.770 73.390 8.136 3.926 263.900 264.500 263.800 0.4140 315.200 1.115 244.000 385.70 361.50 3.53 34.85
DSCMET_COMPS 2017-09-30 16:15:00   13.060 13.000 12.960 12.880 -26.960 -62.480   263.900 264.100 262.600 12.910 72.370 8.065 4.114 263.900 264.300 263.600 0.4370 319.700 0.999 256.200 386.70 360.90 4.92 47.20
DSCMET_COMPS 2017-09-30 16:10:00   12.970 13.000 12.970 12.970 -26.900 -62.500   264.500 264.500 262.600 12.980 70.840 7.819 4.361 263.900 264.300 263.600 0.3750 318.900 1.139 258.600 389.70 362.20 8.56 74.68
DSCMET_COMPS 2017-09-30 16:05:00   12.830 12.870 12.850 12.840 -26.840 -62.530   264.500 264.300 262.600 12.870 71.720 7.894 4.199 263.900 264.400 263.700 0.2980 311.800 0.872 255.300 392.50 362.20 16.02 127.40
DSCMET_COMPS 2017-09-30 16:00:00   12.890 12.820 12.750 12.760 -26.740 -62.560   264.200 264.200 262.600 12.860 71.370 7.813 4.249 263.900 264.500 263.700 0.2880 328.800 0.875 237.600 390.30 361.40 15.81 124.40
DSCMET_COMPS 2017-09-30 15:55:00   12.850 12.770 12.720 12.720 -26.620 -62.610   264.100 264.300 262.600 12.810 70.940 7.677 4.298 263.900 264.500 263.700 0.4220 339.200 0.975 261.300 390.50 364.60 15.41 119.50
DSCMET_COMPS 2017-09-30 15:50:00   12.800 12.720 12.650 12.670 -26.530 -62.650   264.300 264.500 262.600 12.730 70.950 7.602 4.274 263.900 264.500 263.700 0.5260 323.400 1.405 256.800 389.30 369.20 13.14 104.50
DSCMET_COMPS 2017-09-30 15:45:00   12.840 12.730 12.630 12.720 -26.420 -62.680   263.900 264.300 262.600 12.760 71.670 7.779 4.177 263.900 264.200 263.700 0.4340 333.800 0.836 273.400 387.90 371.90 9.80 79.38
DSCMET_COMPS 2017-09-30 15:40:00   12.870 12.800 12.730 12.720 -26.340 -62.710   263.900 264.400 262.600 12.760 70.690 7.577 4.321 263.900 264.200 263.500 0.4210 329.500 0.813 256.500 388.90 373.90 10.59 78.40
DSCMET_COMPS 2017-09-30 15:35:00   12.970 12.860 12.820 12.840 -26.240 -62.750   264.400 264.600 262.600 12.860 70.200 7.571 4.422 263.900 264.200 263.600 0.4850 346.300 0.662 255.100 389.70 375.10 8.76 70.52
DSCMET_COMPS 2017-09-30 15:30:00   12.980 12.900 12.890 12.890 -26.160 -62.780   264.600 264.600 263.100 12.930 69.940 7.584 4.481 264.000 264.500 263.800 0.5600 344.600 1.045 235.900 390.70 374.90 12.74 99.90
DSCMET_COMPS 2017-09-30 15:25:00   12.910 12.860 12.890 12.920 -26.110 -62.810   264.600 264.600 263.200 12.910 72.430 8.078 4.105 264.200 264.600 263.900 0.5560 329.600 1.031 261.400 390.40 373.20 15.93 126.20
DSCMET_COMPS 2017-09-30 15:20:00   12.810 12.800 12.860 12.930 -26.140 -62.800   264.600 264.600 263.200 12.850 75.830 8.695 3.584 264.200 264.600 263.900   0.000 0.865 264.000 390.70 375.10 13.60 114.80
DSCMET_COMPS 2017-09-30 15:15:00   12.620 12.690 12.760 12.870 -26.150 -62.790   264.600 264.600 263.200 12.850 77.040 8.929 3.405 264.200 264.700 263.800 0.3050 309.100 0.812 257.700 390.60 373.60 13.98 123.90
DSCMET_COMPS 2017-09-30 15:10:00   12.690 12.650 12.710 12.820 -26.150 -62.770   264.600 264.600 263.200 12.870 76.080 8.763 3.552 264.200 264.500 263.800 0.1830 303.300 0.586 247.100 394.30 372.70 28.17 238.80
DSCMET_COMPS 2017-09-30 15:05:00   12.720 12.660 12.670 12.740 -26.200 -62.760   264.600 264.600 263.200 12.720 76.220 8.645 3.497 264.200 264.600 263.800 0.2070 307.200 0.752 258.400 389.60 370.20 16.18 135.40
DSCMET_COMPS 2017-09-30 15:00:00   12.640 12.640 12.680 12.680 -26.220 -62.750   264.600 264.600 263.200 12.720 75.940 8.591 3.538 264.600 264.900 263.800 0.2990 323.100 0.596 282.700 390.20 373.00 11.83 100.90
DSCMET_COMPS 2017-09-30 14:55:00   12.670 12.670 12.670 12.640 -26.220 -62.750   264.600 264.600 263.500 12.810 77.060 8.894 3.393 264.800 264.800 263.800 0.2880 295.900 0.394 269.900 392.50 377.50 14.57 123.50
DSCMET_COMPS 2017-09-30 14:50:00   12.810 12.760 12.800 12.780 -26.160 -62.770   264.900 265.300 264.500 12.810 74.480 8.392 3.775 265.300 264.900 264.100 0.3620 329.500 0.615 262.400 393.50 378.40 15.76 132.90
DSCMET_COMPS 2017-09-30 14:45:00   12.970 12.920 12.950 12.910 -26.130 -62.780   264.700 265.200 263.300 12.900 72.220 8.025 4.133 264.800 265.100 264.000 0.5320 331.100 1.295 257.100 392.10 374.90 13.39 121.00
DSCMET_COMPS 2017-09-30 14:40:00   12.980 13.020 13.050 13.070 -26.100 -62.800   264.600 264.600 262.700 13.030 70.950 7.890 4.359 263.900 264.500 263.500 0.4700 335.600 1.126 234.100 393.80 364.80 9.79 100.40
DSCMET_COMPS 2017-09-30 14:35:00   13.030 13.050 13.100 13.180 -26.060 -62.820   264.600 264.600 262.900 13.180 70.770 7.996 4.429 264.200 264.500 263.500 0.3130 323.600 0.699 258.100 396.30 362.70 12.65 122.20
DSCMET_COMPS 2017-09-30 14:30:00   12.950 12.970 13.000 13.040 -25.990 -62.840   264.600 264.600 263.100 13.140 71.340 8.076 4.332 264.200 264.500 263.600 0.2450 5.768 0.452 229.600 397.50 353.20 16.49 155.60
DSCMET_COMPS 2017-09-30 14:25:00   12.870 12.870 12.950 12.940 -25.910 -62.880   264.600 264.600 263.100 13.040 71.760 8.066 4.240 264.000 264.500 263.500 0.3430 320.800 2.688 240.500 399.70 354.70 20.33 180.90
DSCMET_COMPS 2017-09-30 14:20:00   12.950 12.950 13.110 13.080 -25.800 -62.930   264.600 264.600 263.000 13.020 70.710 7.830 4.392 263.900 264.200 263.500 0.5890 311.100 0.889 258.100 399.40 354.50 14.61 143.10
DSCMET_COMPS 2017-09-30 14:15:00   13.080 13.210 13.380 13.470 -25.710 -62.970   264.600 264.600 263.200 13.280 69.410 7.807 4.666 264.100 264.200 263.400 0.6100 325.900 1.072 261.500 405.50 351.00 22.74 201.60
DSCMET_COMPS 2017-09-30 14:10:00   12.930 13.110 13.360 13.760 -25.580 -63.030   264.600 264.600 263.200 13.700 67.860 7.877 5.038 264.200 264.500 263.700   0.000 1.431 254.900 412.20 343.90 43.64 346.00
DSCMET_COMPS 2017-09-30 14:05:00   12.770 12.820 13.020 13.440 -25.410 -63.100   264.600 264.600 263.400 13.550 70.250 8.243 4.618 264.200 264.500 263.900 0.5140 327.500 0.925 264.100 415.10 355.20 71.46 499.80
DSCMET_COMPS 2017-09-30 14:00:00   12.570 12.550 12.560 12.920 -25.250 -63.180   264.800 265.300 264.200 12.880 74.080 8.380 3.852 264.400 264.400 263.800 0.5530 314.000 1.280 256.100 408.10 353.20 43.05 319.70
DSCMET_COMPS 2017-09-30 13:55:00   12.200 12.230 12.380 12.750 -25.090 -63.250   267.400 268.500 265.500 12.830 73.740 8.264 3.889 265.700 264.900 264.000 0.6260 323.800 1.521 261.900 411.80 358.40 63.44 442.50
DSCMET_COMPS 2017-09-30 13:50:00   12.310 12.180 12.410 12.520 -24.950 -63.320   269.500 272.200 267.300 12.550 78.760 8.965 3.089 268.600 268.500 267.200 0.5570 321.000 0.723 274.900 405.70 369.30 46.94 356.70
DSCMET_COMPS 2017-09-30 13:45:00   12.540 12.530 12.610 12.560 -24.830 -63.330   265.400 266.800 264.100 12.520 74.790 8.173 3.659 265.800 266.400 264.700 0.5970 325.300 1.122 239.900 397.90 371.90 35.24 278.00
DSCMET_COMPS 2017-09-30 13:40:00   12.580 12.610 12.720 12.670 -24.710 -63.380   264.600 264.600 263.600 12.580 74.380 8.150 3.733 264.100 264.500 263.600 0.4130 312.000 1.173 237.300 394.80 363.40 18.32 159.70
DSCMET_COMPS 2017-09-30 13:35:00   12.650 12.730 12.910 12.810 -24.620 -63.410   264.600 264.600 263.900 12.650 73.340 8.011 3.902 264.500 264.300 263.500 0.4730 329.600 0.993 252.100 396.10 363.50 18.66 159.80
DSCMET_COMPS 2017-09-30 13:30:00   12.770 12.860 13.030 13.050 -24.590 -63.400   264.600 264.600 262.900 12.920 72.270 8.055 4.131 263.900 264.200 263.500 0.5070 310.600 1.022 259.700 396.60 363.30 21.81 188.30
DSCMET_COMPS 2017-09-30 13:25:00   12.860 13.000 13.200 13.190 -24.590 -63.400   264.600 264.600 263.100 12.940 71.800 7.978 4.207 264.100 264.200 263.500 0.3890 319.900 0.838 245.500 398.60 365.30 23.20 198.70
DSCMET_COMPS 2017-09-30 13:20:00   12.890 13.080 13.270 13.220 -24.590 -63.390   264.600 264.600 263.100 13.130 70.940 7.984 4.389 264.500 264.300 263.500 0.3320 302.400 0.837 239.900 400.10 372.70 25.79 218.10
DSCMET_COMPS 2017-09-30 13:15:00   12.970 13.140 13.290 13.280 -24.590 -63.370   265.100 264.600 263.000 13.160 70.010 7.819 4.539 264.400 264.600 263.600 0.3730 314.500 0.994 256.300 400.30 380.10 27.34 233.90
DSCMET_COMPS 2017-09-30 13:10:00   12.990 13.130 13.230 13.110 -24.590 -63.360   264.600 264.600 263.100 13.090 68.020 7.330 4.818 263.900 264.200 263.500 0.3090 317.600 1.326 235.700 401.60 374.40 24.85 227.30
DSCMET_COMPS 2017-09-30 13:05:00   12.980 13.040 13.070 12.980 -24.590 -63.350   264.600 264.600 263.200 13.020 67.400 7.129 4.889 263.800 264.200 263.500   0.000 0.942 222.300 404.30 365.10 24.84 228.70
DSCMET_COMPS 2017-09-30 13:00:00   12.910 13.030 13.020 12.900 -24.570 -63.350   264.600 264.700 263.500 12.930 67.890 7.149 4.787 264.000 264.300 263.500   0.000 1.111 206.600 406.20 366.30 25.23 228.50
DSCMET_COMPS 2017-09-30 12:55:00   12.880 13.040 13.040 12.880 -24.530 -63.350   264.600 264.600 263.200 12.950 68.540 7.307 4.696 264.100 264.200 263.500 0.6070 142.900 1.192 198.700 407.60 366.30 27.16 245.90
DSCMET_COMPS 2017-09-30 12:50:00   12.780 13.050 13.080 13.020 -24.530 -63.340   264.600 264.600 263.200 13.110 68.770 7.509 4.711 263.900 264.400 263.500 0.4390 128.200 1.321 177.200 409.50 367.60 32.64 281.80
DSCMET_COMPS 2017-09-30 12:45:00   12.670 12.970 13.040 13.130 -24.530 -63.320   264.600 264.600 263.200 13.230 69.050 7.683 4.705 264.100 264.400 263.700 0.2430 125.600 0.747 171.100 408.50 367.20 34.79 304.40
DSCMET_COMPS 2017-09-30 12:40:00   12.730 12.970 13.060 13.030 -24.520 -63.300   264.700 264.600 263.200 13.070 68.400 7.392 4.754 264.200 264.300 263.900 0.2880 87.600 0.618 138.700 405.40 367.10 26.50 241.70
DSCMET_COMPS 2017-09-30 12:35:00   12.690 12.980 13.140 13.100 -24.530 -63.280   265.100 264.600 263.200 13.160 67.240 7.228 4.958 264.400 264.300 263.900 0.5080 140.500 0.888 164.800 406.60 367.60 26.36 243.50
DSCMET_COMPS 2017-09-30 12:30:00   12.790 13.090 13.150 13.150 -24.620 -63.220   264.600 264.600 263.200 13.290 67.770 7.467 4.919 264.200 264.500 264.300 0.3700 134.000 0.946 183.800 405.70 368.50 28.99 254.90
DSCMET_COMPS 2017-09-30 12:25:00   12.910 13.120 13.180 13.130 -24.730 -63.160   264.600 264.600 263.200 13.230 65.680 6.953 5.218 264.200 264.400 263.500 0.2470 85.000 0.955 195.500 404.40 374.80 24.84 223.60
DSCMET_COMPS 2017-09-30 12:20:00   12.970 13.140 13.170 13.140 -24.830 -63.090   264.700 265.600 263.600 13.270 67.130 7.309 5.010 264.400 265.700 264.000 0.2430 139.800 1.075 202.400 405.90 377.90 27.10 240.90
DSCMET_COMPS 2017-09-30 12:15:00   13.130 13.340 13.380 13.360 -24.990 -63.010   265.000 266.400 265.100 13.370 64.610 6.847 5.430 264.800 266.900 264.300 0.2850 109.700 1.632 211.900 407.50 380.20 30.23 266.10
DSCMET_COMPS 2017-09-30 12:10:00   13.030 13.290 13.390 13.470 -25.190 -62.910   265.100 264.700 263.400 13.490 66.820 7.451 5.131 264.200 264.600 264.000 0.4080 300.200 0.940 196.500 408.30 383.70 36.61 317.40
DSCMET_COMPS 2017-09-30 12:05:00   13.060 13.310 13.420 13.480 -25.390 -62.810   265.300 264.600 263.200 13.430 66.960 7.425 5.089 264.200 264.600 263.700 0.3170 122.600 0.855 255.600 405.50 385.20 27.35 250.30
DSCMET_COMPS 2017-09-30 12:00:00   12.910 13.230 13.320 13.340 -25.580 -62.710   265.300 264.600 263.200 13.460 66.740 7.405 5.133 264.200 264.500 263.800 0.1330 139.500 0.531 201.700 404.30 386.80 23.34 222.00
DSCMET_COMPS 2017-09-30 11:55:00   12.750 13.150 13.270 13.320 -25.760 -62.630   265.300 265.200 263.200 13.410 68.580 7.755 4.833 265.000 264.500 264.700   0.000 0.658 178.300 404.10 393.20 20.51 201.00
DSCMET_COMPS 2017-09-30 11:50:00   12.780 13.200 13.260 13.370 -25.960 -62.540   265.300 264.800 263.300 13.360 70.310 8.073 4.552 265.200 264.700 268.700 0.1820 104.100 0.340 73.390 406.50 393.70 25.03 233.50
DSCMET_COMPS 2017-09-30 11:45:00   12.800 13.120 13.220 13.300 -26.110 -62.470   265.300 264.600 263.200 13.300 68.560 7.646 4.802 264.200 264.500 263.900 0.2780 89.100 0.549 55.490 410.30 396.40 33.55 296.30
DSCMET_COMPS 2017-09-30 11:40:00   12.720 12.990 13.100 13.230 -26.290 -62.390   265.300 264.600 263.200 13.370 68.060 7.606 4.900 264.200 264.500 263.900 0.0730 107.300 0.264 231.100 411.50 398.60 39.22 340.60
DSCMET_COMPS 2017-09-30 11:35:00   12.550 12.860 12.940 13.060 -26.450 -62.320   265.200 264.900 263.900 13.230 67.670 7.388 4.915 264.300 264.500 264.300 0.2040 89.000 0.379 222.400 406.80 397.00 33.89 295.80
DSCMET_COMPS 2017-09-30 11:30:00   12.470 12.820 12.890 12.970 -26.620 -62.250   265.300 265.100 264.800 13.120 69.990 7.776 4.530 264.500 264.500 265.900 0.2270 89.900 0.140 80.300 404.20 395.60 32.03 285.70
DSCMET_COMPS 2017-09-30 11:25:00   12.450 12.780 12.890 12.950 -26.840 -62.160   265.100 264.600 263.400 12.900 69.380 7.437 4.556 264.200 264.500 264.000 0.1780 92.300 0.249 76.940 401.70 393.90 25.49 240.90
DSCMET_COMPS 2017-09-30 11:20:00   12.350 12.630 12.820 12.870 -27.050 -62.080   264.600 264.600 263.200 12.810 69.360 7.347 4.532 264.400 264.600 263.800 0.2130 88.900 0.343 16.870 400.30 392.90 23.16 218.00
DSCMET_COMPS 2017-09-30 11:15:00   12.260 12.540 12.780 12.830 -27.280 -62.000   264.600 264.700 263.200 12.790 69.070 7.267 4.569 265.000 264.700 265.800 0.1440 50.750 0.349 13.200 399.80 391.60 23.20 210.10
DSCMET_COMPS 2017-09-30 11:10:00   12.200 12.510 12.740 12.850 -27.560 -61.910   264.700 264.600 263.200 13.000 68.920 7.436 4.655 264.600 264.700 264.600 0.1980 35.020 0.273 3.968 399.50 391.00 22.96 211.60
DSCMET_COMPS 2017-09-30 11:05:00   12.200 12.490 12.730 12.850 -27.840 -61.820   265.000 264.900 263.400 13.080 67.920 7.299 4.830 264.400 264.700 263.700 0.0740 44.860 0.269 221.600 400.20 390.60 24.81 225.10
DSCMET_COMPS 2017-09-30 11:00:00   12.120 12.320 12.650 12.810 -28.140 -61.740   264.800 265.300 263.800 12.910 68.380 7.235 4.708 264.500 264.900 263.900 0.1080 56.530 0.133 262.200 400.00 390.80 24.98 227.50
DSCMET_COMPS 2017-09-30 10:55:00   11.940 12.160 12.440 12.760 -28.460 -61.650   265.000 265.300 263.900 12.860 70.120 7.554 4.434 264.500 265.000 264.300 0.1500 304.800 0.358 265.900 398.70 391.00 24.83 224.50
DSCMET_COMPS 2017-09-30 10:50:00   11.850 12.010 12.390 12.650 -28.810 -61.570   265.300 265.300 263.900 12.710 72.010 7.800 4.113 264.700 265.500 264.800 0.0640 5.566 0.245 317.400 398.90 389.80 26.42 242.00
DSCMET_COMPS 2017-09-30 10:45:00   11.710 11.920 12.290 12.620 -29.180 -61.480   265.300 265.300 263.900 12.660 68.000 6.915 4.687 264.800 265.200 264.400   0.000 0.492 276.600 397.30 388.80 24.93 230.80
DSCMET_COMPS 2017-09-30 10:40:00   11.710 11.890 12.180 12.490 -29.560 -61.410   265.300 265.300 263.900 12.610 67.010 6.654 4.816 264.900 265.200 264.700 0.0440 301.900 0.397 268.800 395.50 387.40 19.21 187.80
DSCMET_COMPS 2017-09-30 10:35:00   11.660 11.810 12.140 12.430 -29.950 -61.340   265.300 265.300 263.900 12.630 70.500 7.413 4.312 264.900 265.200 265.200 0.0510 84.000 0.333 258.900 395.10 389.00 17.16 170.60
DSCMET_COMPS 2017-09-30 10:30:00   11.640 11.830 12.100 12.390 -30.350 -61.280   265.300 265.300 263.900 12.550 71.040 7.448 4.211 264.900 265.200 265.400 0.0630 67.060 0.469 260.800 394.80 389.70 17.21 169.00
DSCMET_COMPS 2017-09-30 10:25:00   11.590 11.870 12.140 12.380 -30.750 -61.230   265.300 265.300 263.900 12.500 72.240 7.645 4.023 264.900 265.200 266.400 0.1070 43.250 0.266 276.800 396.00 389.70 17.12 172.50
DSCMET_COMPS 2017-09-30 10:20:00   11.440 11.700 12.020 12.300 -31.130 -61.200   265.300 265.300 264.200 12.510 72.820 7.771 3.942 264.900 265.200 267.400 0.0050 93.300 0.187 285.200 399.00 391.20 23.68 233.80
DSCMET_COMPS 2017-09-30 10:15:00   11.290 11.570 11.820 12.300 -31.510 -61.190   265.300 265.300 264.600 12.630 74.240 8.171 3.766 265.100 265.400 268.300 0.0860 300.200 0.239 282.400 399.80 392.00 24.09 239.80
DSCMET_COMPS 2017-09-30 10:10:00   11.270 11.580 11.680 12.220 -31.830 -61.190   265.300 265.300 264.600 12.930 78.190 9.226 3.251 265.200 265.600 269.600 0.0650 234.700 0.134 211.200 403.40 393.70 34.28 339.50
DSCMET_COMPS 2017-09-30 10:05:00   11.310 11.650 11.770 12.010 -32.140 -61.200   265.300 265.300 264.000 12.570 77.760 8.795 3.238 264.900 265.400 270.600 0.1890 143.500 0.094 238.600 401.20 392.90 40.26 380.40
DSCMET_COMPS 2017-09-30 10:00:00   11.330 11.670 11.810 12.000 -32.400 -61.220   265.300 265.300 264.100 12.470 72.720 7.713 3.946 264.900 265.500 271.700 0.0760 135.000 0.406 27.320 397.70 390.20 26.91 259.60
DSCMET_COMPS 2017-09-30 09:55:00   10.960 11.320 11.600 11.740 -32.660 -61.260   265.300 265.300 264.600 12.290 74.910 7.974 3.587 265.200 265.600 273.800 0.2810 113.100 0.663 158.400 401.10 392.00 34.15 341.20
DSCMET_COMPS 2017-09-30 09:50:00   10.720 11.040 11.360 11.600 -32.910 -61.300   265.300 265.300 264.600 12.280 78.370 8.629 3.090 265.300 265.900 278.000 0.2870 144.300 0.390 122.500 402.50 393.40 62.37 678.00
DSCMET_COMPS 2017-09-30 09:45:00   10.590 10.780 10.990 11.140 -33.160 -61.340   265.300 265.300 264.600 11.710 80.300 8.434 2.710 265.300 265.900 281.500 0.2790 143.800 0.605 156.900 393.80 387.50 50.57 601.20
DSCMET_COMPS 2017-09-30 09:40:00   10.520 10.630 10.810 10.990 -33.430 -61.400   265.300 265.300 264.600 11.540 82.700 8.703 2.354 265.300 265.900 284.500   0.000 0.204 29.050 389.40 380.30 25.12 272.70
DSCMET_COMPS 2017-09-30 09:35:00   10.440 10.400 10.520 10.730 -33.710 -61.460   265.300 265.400 264.600 11.020 83.300 8.301 2.195 265.300 266.000 286.400 0.0980 267.500 2.269 90.300 392.20 380.30 29.03 290.90
DSCMET_COMPS 2017-09-30 09:30:00   10.250 10.260 10.400 10.560 -33.970 -61.520   265.300 266.100 264.800 10.500 84.500 8.002 1.968 265.400 266.100 288.300 0.0720 66.340 0.785 47.390 390.90 378.00 29.53 284.20
DSCMET_COMPS 2017-09-30 09:25:00   10.060 10.140 10.320 10.450 -34.210 -61.610   265.300 266.600 265.700 10.360 88.000 8.461 1.509 265.800 266.300 288.400 0.0320 88.500 0.482 45.110 387.80 375.90 28.66 276.90
DSCMET_COMPS 2017-09-30 09:20:00   9.980 9.930 10.150 10.210 -34.470 -61.690   265.300 267.000 266.300 10.180 88.100 8.301 1.479 266.100 266.400 287.100 0.0340 279.300 0.240 39.690 381.00 373.40 19.53 184.80
DSCMET_COMPS 2017-09-30 09:15:00   9.890 9.840 10.040 10.110 -34.720 -61.790   265.300 267.700 267.100 10.050 88.800 8.289 1.380 266.400 267.200 283.600 0.1690 304.700 0.315 4.421 377.90 371.80 15.77 150.80
DSCMET_COMPS 2017-09-30 09:10:00   9.830 9.790 9.990 10.140 -34.970 -61.910   265.300 269.000 268.300 10.100 90.800 8.667 1.137 266.600 269.000 280.500 0.1210 298.500 0.172 309.000 376.10 370.70 14.56 138.30
DSCMET_COMPS 2017-09-30 09:05:00   9.840 9.840 9.950 10.070 -35.250 -62.020   265.300 269.900 269.500 10.110 89.700 8.497 1.274 266.900 270.900 280.200 0.1300 298.700 0.102 7.072 374.50 369.70 11.87 113.70
DSCMET_COMPS 2017-09-30 09:00:00   9.720 9.780 9.870 9.960 -35.500 -62.160   265.300 270.900 270.600 10.170 91.700 8.882 1.031 267.500 273.500 284.000 0.0320 332.900 0.076 145.700 374.00 369.40 10.31 99.10
DSCMET_COMPS 2017-09-30 08:55:00   9.650 9.730 9.830 9.900 -35.750 -62.300   265.300 271.500 272.200 10.130 91.700 8.842 1.028 268.300 276.700 292.300 0.1310 357.200 0.079 150.500 374.70 369.20 12.73 127.70
DSCMET_COMPS 2017-09-30 08:50:00   9.550 9.630 9.680 9.780 -35.990 -62.450   265.300 272.200 273.400 9.880 92.000 8.643 0.974 269.400 281.000 308.000 0.0860 244.300 0.168 219.900 374.90 369.30 18.75 188.80
DSCMET_COMPS 2017-09-30 08:45:00   9.530 9.510 9.530 9.540 -36.250 -62.630   265.300 272.900 274.400 9.510 94.300 8.641 0.677 270.400 284.300 325.100 0.1470 246.200 0.149 276.400 372.50 368.10 17.64 177.10
DSCMET_COMPS 2017-09-30 08:40:00   9.510 9.450 9.440 9.450 -36.500 -62.850   265.300 273.400 274.900 9.360 94.900 8.585 0.600 271.300 287.400 348.100 0.0460 268.400 0.116 316.300 369.90 366.00 8.89 99.90
DSCMET_COMPS 2017-09-30 08:35:00   9.420 9.400 9.400 9.480 -36.740 -63.040   265.300 273.800 275.500 9.440 95.900 8.820 0.485 271.800 290.100 360.900 0.0450 248.800 0.160 344.000 370.50 366.20 8.03 90.80
DSCMET_COMPS 2017-09-30 08:30:00   9.310 9.320 9.370 9.450 -36.960 -63.230   265.300 274.100 276.100 9.350 95.700 8.699 0.505 272.400 292.300 375.500   0.000 0.422 148.800 370.90 366.30 12.37 124.50
DSCMET_COMPS 2017-09-30 08:25:00   9.220 9.210 9.260 9.340 -37.190 -63.490   265.300 274.600 276.800 9.450 96.500 8.922 0.414 273.000 294.800 397.300 0.0640 107.900 0.261 158.200 371.10 366.30 16.51 163.00
DSCMET_COMPS 2017-09-30 08:20:00   9.120 9.110 9.120 9.120 -37.430 -63.740   265.300 274.800 277.300 9.030 95.300 8.319 0.541 273.500 298.100 412.600 0.1380 263.900 0.308 306.900 368.80 365.20 16.65 167.10
DSCMET_COMPS 2017-09-30 08:15:00   9.000 8.960 8.950 8.940 -37.640 -64.080   265.300 274.500 277.400 8.920 92.600 7.788 0.845 273.600 300.600 437.000 0.0880 131.700 0.586 51.080 366.70 363.60 9.24 97.90
DSCMET_COMPS 2017-09-30 08:10:00   8.940 8.890 8.890 8.860 -37.860 -64.460   265.300 273.000 276.300 8.790 94.300 7.926 0.645 273.000 300.300 519.300 0.0370 98.700 0.824 47.920 366.00 362.80 7.78 77.76
DSCMET_COMPS 2017-09-30 08:05:00   8.930 8.850 8.860 8.860 -38.080 -64.930   265.300 269.400 271.000 8.850 96.000 8.248 0.455 270.300 290.200 481.900 0.1210 64.420 0.608 51.970 365.40 362.20 6.71 68.18
DSCMET_COMPS 2017-09-30 08:00:00   8.900 8.850 8.840 8.840 -38.300 -65.290   265.300 268.700 270.100 8.850 96.600 8.340 0.386 269.400 290.700 468.300 0.1180 98.800 0.161 133.200 365.10 361.70 5.91 63.02
DSCMET_COMPS 2017-09-30 07:55:00   8.890 8.820 8.790 8.780 -38.510 -65.700   265.400 268.700 270.100 8.860 96.900 8.395 0.353 269.500 293.300 480.600 0.0740 86.000 0.072 59.510 364.70 361.50 10.77 101.20
DSCMET_COMPS 2017-09-30 07:50:00   8.820 8.760 8.680 8.660 -38.690 -66.150   265.700 268.700 270.100 8.700 95.800 8.068 0.472 269.500 295.600 497.000 0.0320 246.000 0.112 253.300 363.40 360.30 7.96 79.98
DSCMET_COMPS 2017-09-30 07:45:00   8.710 8.590 8.550 8.550 -38.910 -66.700   265.400 268.000 269.600 8.510 95.200 7.787 0.533 268.500 295.400 528.800 0.1320 139.300 0.384 56.360 362.80 359.50 5.97 58.14
DSCMET_COMPS 2017-09-30 07:40:00   8.680 8.600 8.580 8.580 -39.120 -67.320   265.300 266.000 266.300 8.550 95.600 7.888 0.490 266.800 294.800 482.100 0.1230 85.700 0.236 76.090 362.30 359.10 5.42 51.86
DSCMET_COMPS 2017-09-30 07:35:00   8.630 8.550 8.540 8.560 -39.310 -67.820   265.300 266.000 264.600 8.590 94.800 7.805 0.581 266.100 295.000 462.500 0.0660 98.200 0.108 134.800 362.40 358.90 5.53 51.80
DSCMET_COMPS 2017-09-30 07:30:00   8.560 8.450 8.420 8.440 -39.480 -68.420   265.300 266.000 264.600 8.460 93.900 7.536 0.675 266.000 296.700 465.500 0.0270 141.100 0.068 270.300 362.20 358.80 9.09 78.73
DSCMET_COMPS 2017-09-30 07:25:00   8.480 8.350 8.300 8.270 -39.660 -68.870   265.300 266.000 264.600 8.250 95.200 7.528 0.524 265.800 297.900 469.000   0.000 0.272 314.800 360.90 357.80 7.05 62.27
DSCMET_COMPS 2017-09-30 07:20:00   8.350 8.280 8.210 8.230 -39.790 -69.310   265.300 266.000 264.600 8.230 95.900 7.616 0.447 265.700 298.900 470.600   0.000 0.131 313.900 359.90 356.90 4.47 39.93
DSCMET_COMPS 2017-09-30 07:15:00   8.350 8.240 8.170 8.170 -39.920 -69.760   265.300 266.000 264.600 8.140 96.000 7.541 0.433 265.700 300.200 472.400 0.1030 59.200 0.310 151.000 359.20 356.30 4.06 35.05
DSCMET_COMPS 2017-09-30 07:10:00   8.290 8.180 8.110 8.090 -40.040 -70.270   265.300 266.000 264.600 8.140 96.500 7.617 0.379 265.700 300.800 474.400 0.0300 88.000 0.180 216.900 358.70 355.80 3.75 32.56
DSCMET_COMPS 2017-09-30 07:05:00   8.190 8.040 8.000 7.989 -40.140 -70.640   265.300 266.000 264.600 8.000 96.800 7.523 0.343 265.700 301.800 475.900 0.1610 301.100 0.097 53.620 358.10 355.20 2.87 24.40
DSCMET_COMPS 2017-09-30 07:00:00   8.130 8.010 7.963 7.937 -40.220 -71.030   265.300 266.000 264.600 7.998 96.800 7.521 0.343 265.700 303.100 477.100 0.1240 50.820 0.230 66.980 357.60 354.70 3.06 25.18
DSCMET_COMPS 2017-09-30 06:55:00   8.070 7.957 7.919 7.906 -40.320 -71.520   265.300 266.000 264.600 7.927 96.600 7.420 0.363 265.700 303.900 478.000 0.1560 72.970 0.150 21.010 357.10 354.40 2.53 19.58
DSCMET_COMPS 2017-09-30 06:50:00   8.090 7.960 7.899 7.841 -40.390 -71.510   265.300 266.000 264.600 7.861 97.300 7.460 0.287 265.700 305.600 478.800 0.2470 339.400 0.158 305.400 356.70 354.00 2.09 15.34
DSCMET_COMPS 2017-09-30 06:45:00   8.080 7.914 7.855 7.827 -40.470 -71.930   265.300 266.000 264.600 7.787 97.800 7.461 0.233 265.700 306.300 480.100 0.0650 64.150 0.129 127.000 356.20 353.50 1.58 10.52
DSCMET_COMPS 2017-09-30 06:40:00   7.991 7.907 7.868 7.840 -40.540 -72.170   265.100 265.900 264.600 7.747 97.900 7.436 0.221 265.700 306.700 480.800 0.1720 25.320 0.061 76.780 355.90 353.30 1.47 8.88
DSCMET_COMPS 2017-09-30 06:35:00   8.000 7.886 7.819 7.760 -40.550 -72.170   264.900 266.000 264.600 7.767 97.700 7.426 0.243 265.700 307.100 481.300 0.1060 74.300 0.177 75.100 355.70 353.00 1.57 9.46
DSCMET_COMPS 2017-09-30 06:30:00   7.967 7.851 7.773 7.747 -40.580 -72.160   265.200 265.700 264.600 7.728 97.800 7.403 0.232 265.700 307.600 482.000 0.1500 70.380 0.339 50.540 355.30 352.70 1.54 8.84
DSCMET_COMPS 2017-09-30 06:25:00   7.969 7.853 7.713 7.710 -40.610 -72.160   265.200 265.900 264.600 7.733 97.800 7.408 0.232 265.700 308.300 482.400 0.1830 308.200 0.149 303.800 355.00 352.40 1.18 5.57
DSCMET_COMPS 2017-09-30 06:20:00   7.888 7.776 7.664 7.620 -40.610 -71.600   265.000 265.900 264.600 7.641 97.900 7.331 0.220 265.700 309.100 482.600 0.1860 322.400 0.236 34.780 354.60 352.10 0.97 3.59
DSCMET_COMPS 2017-09-30 06:15:00   7.926 7.722 7.607 7.549 -40.550 -71.260   265.200 265.800 264.600 7.598 98.000 7.303 0.209 265.700 309.700 483.000   0.000 0.253 65.100 354.20 351.80 0.87 2.51
DSCMET_COMPS 2017-09-30 06:10:00   7.820 7.647 7.592 7.519 -40.540 -70.860   265.100 265.900 264.600 7.550 98.200 7.285 0.187 265.700 310.300 483.500 0.1760 317.400 0.169 40.090 354.00 351.50 0.97 1.78
DSCMET_COMPS 2017-09-30 06:05:00   7.781 7.646 7.592 7.514 -40.480 -70.300   264.800 265.900 264.600 7.516 98.300 7.265 0.176 265.700 310.700 484.000 0.1450 64.060 0.439 74.010 353.70 351.20 0.88 1.22
DSCMET_COMPS 2017-09-30 06:00:00   7.752 7.658 7.587 7.518 -40.400 -69.820   264.800 265.700 264.600 7.561 98.200 7.296 0.187 265.700 311.000 484.200 0.1650 74.880 0.233 81.700 353.30 350.90 0.83 0.65
DSCMET_COMPS 2017-09-30 05:55:00   7.754 7.647 7.549 7.529 -40.320 -69.190   265.100 266.000 264.600 7.557 98.100 7.277 0.198 265.700 311.300 484.200 0.1190 328.800 0.099 81.500 352.90 350.40 0.92 0.36
DSCMET_COMPS 2017-09-30 05:50:00   7.630 7.484 7.501 7.561 -40.210 -68.640   264.700 265.600 264.600 7.582 98.500 7.361 0.156 265.700 311.800 484.200 0.1850 45.080 0.846 36.230 352.30 349.80 1.03 0.40
DSCMET_COMPS 2017-09-30 05:45:00   7.618 7.479 7.422 7.382 -40.110 -68.000   264.600 265.600 264.600 7.405 98.700 7.214 0.134 265.700 312.600 484.200 0.2590 11.450 0.789 48.580 351.80 349.00 1.15 0.38
DSCMET_COMPS 2017-09-30 05:40:00   7.610 7.459 7.411 7.396 -40.000 -67.610   264.600 265.500 264.600 7.407 98.800 7.231 0.124 265.700 312.900 484.200 0.2100 87.500 0.246 88.800 351.00 348.60 0.90 0.45
DSCMET_COMPS 2017-09-30 05:35:00   7.597 7.434 7.388 7.349 -39.900 -67.260   264.600 265.700 264.600 7.427 98.900 7.265 0.113 265.700 313.200 484.000 0.2260 9.310 0.309 65.470 350.00 347.90 1.14 0.13
DSCMET_COMPS 2017-09-30 05:30:00   7.592 7.447 7.383 7.326 -39.830 -66.820   264.600 265.400 264.600 7.440 99.000 7.293 0.103 265.700 313.200 483.100 0.1020 82.700 0.256 77.040 349.20 347.00 1.05 0.12
DSCMET_COMPS 2017-09-30 05:25:00   7.542 7.391 7.383 7.366 -39.750 -66.440   264.700 265.300 264.600 7.445 99.000 7.298 0.103 265.700 313.400 481.700 0.1490 52.430 0.365 326.000 348.00 346.50 0.89 -0.14
DSCMET_COMPS 2017-09-30 05:20:00   7.533 7.438 7.369 7.309 -39.660 -66.070   264.700 265.300 264.600 7.329 99.000 7.182 0.102 265.700 313.500 481.000 0.2130 339.700 0.466 43.340 346.90 345.80 1.02 -1.42
DSCMET_COMPS 2017-09-30 05:15:00   7.615 7.517 7.419 7.284 -39.560 -65.700   264.600 265.300 264.600 7.329 98.900 7.168 0.113 265.700 313.200 479.000 0.1440 47.040 0.250 79.150 346.60 345.60 1.18 -2.17
DSCMET_COMPS 2017-09-30 05:10:00   7.645 7.549 7.509 7.363 -39.500 -65.440   264.700 265.300 264.600 7.367 98.800 7.191 0.123 265.700 312.900 476.100   0.000 0.209 65.790 346.70 345.90 1.04 -2.84
DSCMET_COMPS 2017-09-30 05:05:00   7.734 7.630 7.554 7.438 -39.460 -65.160   264.600 265.300 264.600 7.459 98.700 7.268 0.134 265.700 312.400 472.800 0.2290 16.820 1.469 135.400 347.40 346.40 0.86 -2.66
DSCMET_COMPS 2017-09-30 05:00:00   7.852 7.747 7.657 7.500 -39.360 -64.860   264.700 265.700 264.600 7.504 98.500 7.283 0.156 265.700 311.800 468.800 0.1000 72.240 0.574 134.500 348.20 347.10 1.00 -2.66
DSCMET_COMPS 2017-09-30 04:55:00   7.882 7.813 7.608 7.523 -39.260 -64.550   264.700 265.700 264.600 7.595 98.500 7.374 0.157 265.700 311.500 465.700 0.0930 94.500 0.291 80.400 349.20 347.90 1.13 -2.77
DSCMET_COMPS 2017-09-30 04:50:00   7.833 7.688 7.630 7.572 -39.150 -64.310   264.700 265.600 264.600 7.639 98.600 7.433 0.147 265.700 311.500 463.500 0.1480 34.580 1.295 55.570 350.40 348.40 1.11 -2.47
DSCMET_COMPS 2017-09-30 04:45:00   7.825 7.690 7.630 7.566 -39.010 -64.020   264.700 265.700 264.600 7.563 98.600 7.357 0.146 265.700 311.800 462.400 0.1720 44.660 0.799 60.410 351.60 349.10 1.15 -1.50
DSCMET_COMPS 2017-09-30 04:40:00   7.819 7.688 7.620 7.568 -38.840 -63.640   264.700 265.700 264.600 7.593 98.600 7.387 0.146 265.700 311.900 461.700 0.1270 76.700 0.100 84.400 352.20 349.50 0.98 -0.41
DSCMET_COMPS 2017-09-30 04:35:00   7.798 7.705 7.621 7.565 -38.660 -63.330   264.800 265.600 264.600 7.618 98.700 7.427 0.136 265.700 312.200 461.300 0.1860 67.010 0.332 69.260 352.10 349.40 1.19 0.13
DSCMET_COMPS 2017-09-30 04:30:00   7.759 7.667 7.568 7.534 -38.440 -63.010   264.800 265.700 264.600 7.602 98.800 7.425 0.125 265.700 312.200 460.500 0.1010 23.960 0.554 51.900 351.90 349.10 1.07 0.40
DSCMET_COMPS 2017-09-30 04:25:00   7.770 7.634 7.555 7.499 -38.250 -62.760   264.700 265.600 264.600 7.633 98.800 7.456 0.126 265.700 312.200 459.700 0.1600 55.630 0.433 66.170 351.40 348.40 1.06 0.85
DSCMET_COMPS 2017-09-30 04:20:00   7.772 7.661 7.556 7.553 -38.000 -62.500   264.600 265.700 264.600 7.678 98.900 7.516 0.115 265.700 312.200 458.700 0.1280 98.700 0.193 272.400 350.40 347.60 1.06 0.94
DSCMET_COMPS 2017-09-30 04:15:00   7.692 7.618 7.544 7.496 -37.780 -62.210   264.600 265.400 264.600 7.605 99.000 7.458 0.104 265.700 312.200 457.800 0.1480 292.000 0.349 358.300 349.10 346.90 1.28 0.43
DSCMET_COMPS 2017-09-30 04:10:00   7.626 7.646 7.488 7.490 -37.530 -61.980   264.700 265.400 264.600 7.603 99.000 7.456 0.104 265.700 312.100 456.500 0.1980 6.955 0.209 51.960 348.10 346.20 1.17 0.37
DSCMET_COMPS 2017-09-30 04:05:00   7.624 7.595 7.465 7.450 -37.260 -61.760   264.700 265.400 264.600 7.557 99.000 7.410 0.104 265.700 311.900 454.500 0.1680 27.420 0.229 74.400 346.50 345.60 1.05 -0.35
DSCMET_COMPS 2017-09-30 04:00:00   7.575 7.548 7.464 7.433 -36.940 -61.570   264.600 265.300 264.600 7.560 99.000 7.413 0.104 265.700 311.600 451.900   0.000 0.350 64.310 345.20 344.70 1.06 -1.30
DSCMET_COMPS 2017-09-30 03:55:00   7.586 7.505 7.442 7.469 -36.610 -61.380   264.600 265.300 264.600 7.591 99.000 7.444 0.104 266.000 310.900 448.900 0.1700 4.049 0.234 72.470 345.00 344.10 1.22 -1.93
DSCMET_COMPS 2017-09-30 03:50:00   7.605 7.532 7.459 7.422 -36.290 -61.230   264.600 265.300 264.600 7.620 99.000 7.473 0.105 266.000 309.900 444.500 0.2250 354.000 0.111 100.400 345.10 344.30 1.63 -2.42
DSCMET_COMPS 2017-09-30 03:45:00   7.688 7.641 7.526 7.479 -35.990 -61.090   264.600 265.300 264.600 7.659 98.900 7.497 0.115 266.000 308.500 439.500 0.1880 20.870 0.288 76.690 345.40 344.60 1.55 -2.77
DSCMET_COMPS 2017-09-30 03:40:00   7.732 7.629 7.604 7.558 -35.690 -60.980   264.600 265.300 264.600 7.671 98.900 7.509 0.115 266.000 307.000 435.100 0.1960 322.000 0.467 57.430 345.80 345.20 1.38 -2.71
DSCMET_COMPS 2017-09-30 03:35:00   7.843 7.715 7.652 7.618 -35.390 -60.890   264.600 265.300 264.600 7.740 98.900 7.578 0.116 266.000 305.300 430.600 0.1780 20.400 0.929 65.700 346.20 345.50 1.32 -2.28
DSCMET_COMPS 2017-09-30 03:30:00   7.892 7.813 7.761 7.662 -35.070 -60.830   264.600 265.300 264.600 7.818 98.800 7.641 0.127 266.000 303.700 425.700 0.1790 53.140 0.460 69.110 346.60 345.90 1.13 -2.22
DSCMET_COMPS 2017-09-30 03:25:00   7.959 7.883 7.806 7.744 -34.770 -60.760   264.800 265.400 264.600 7.961 98.800 7.784 0.128 266.000 302.200 421.200 0.1980 346.800 0.561 64.960 347.00 346.20 1.48 -2.41
DSCMET_COMPS 2017-09-30 03:20:00   8.020 7.858 7.837 7.805 -34.430 -60.730   264.600 265.500 264.600 8.050 98.900 7.888 0.118 265.900 300.500 416.300 0.1510 32.900 0.904 56.670 347.20 346.50 1.29 -2.48
DSCMET_COMPS 2017-09-30 03:15:00   8.010 8.020 7.950 7.908 -34.140 -60.680   264.700 265.300 264.600 8.060 98.800 7.883 0.129 266.000 298.900 412.000 0.1790 6.184 0.276 70.910 347.80 347.00 1.28 -2.27
DSCMET_COMPS 2017-09-30 03:10:00   8.160 8.150 8.060 7.966 -33.810 -60.670   264.900 265.500 264.600 8.090 98.800 7.913 0.130 265.900 297.500 407.100 0.2430 338.000 0.220 146.200 347.90 347.20 1.29 -2.72
DSCMET_COMPS 2017-09-30 03:05:00   8.250 8.170 8.110 7.989 -33.490 -60.660   264.700 265.700 264.600 8.180 98.800 8.003 0.130 266.000 296.200 402.100 0.1910 345.500 0.476 67.540 348.50 347.70 0.95 -2.36
DSCMET_COMPS 2017-09-30 03:00:00   8.280 8.150 8.130 8.100 -33.200 -60.670   264.800 265.600 264.600 8.270 98.700 8.078 0.142 266.000 295.100 397.600 0.1640 35.750 0.609 61.990 349.00 348.20 1.09 -2.79
DSCMET_COMPS 2017-09-30 02:55:00   8.300 8.170 8.200 8.190 -32.870 -60.690   264.900 265.500 264.600 8.370 98.600 8.163 0.154 265.900 293.800 393.600   0.000 0.245 53.740 349.40 348.70 1.12 -2.40
DSCMET_COMPS 2017-09-30 02:50:00   8.480 8.360 8.290 8.230 -32.530 -60.720   265.100 265.800 264.600 8.380 98.600 8.173 0.154 265.900 292.500 389.300 0.2410 21.170 0.183 81.900 350.00 349.10 1.03 -2.08
DSCMET_COMPS 2017-09-30 02:45:00   8.500 8.370 8.350 8.320 -32.190 -60.770   265.000 265.800 264.600 8.450 98.600 8.242 0.155 266.000 291.500 385.400 0.1540 49.530 0.132 358.400 350.20 349.60 1.27 -2.33
DSCMET_COMPS 2017-09-30 02:40:00   8.480 8.360 8.400 8.430 -31.880 -60.820   264.900 265.600 264.600 8.480 98.600 8.272 0.155 266.000 290.400 382.300 0.1650 357.000 0.377 26.080 350.10 349.70 1.21 -2.52
DSCMET_COMPS 2017-09-30 02:35:00   8.630 8.510 8.500 8.330 -31.570 -60.870   265.100 265.700 264.600 8.550 98.600 8.342 0.156 265.900 288.900 378.400 0.2470 354.500 0.289 89.200 350.50 350.00 0.73 -2.19
DSCMET_COMPS 2017-09-30 02:30:00   8.750 8.680 8.590 8.410 -31.240 -60.940   265.100 265.900 264.600 8.550 98.500 8.327 0.167 266.000 287.700 373.500 0.1380 59.140 0.201 134.600 350.40 350.30 0.69 -2.55
DSCMET_COMPS 2017-09-30 02:25:00   8.840 8.720 8.700 8.590 -30.930 -61.010   265.100 265.900 264.600 8.750 98.600 8.542 0.158 266.000 286.800 368.900 0.1440 56.760 0.521 68.020 351.00 350.80 0.93 -2.67
DSCMET_COMPS 2017-09-30 02:20:00   8.850 8.750 8.760 8.710 -30.630 -61.090   265.300 265.800 264.600 8.820 98.600 8.612 0.159 266.000 285.800 364.200 0.1620 47.900 0.788 56.310 351.60 351.40 1.15 -3.19
DSCMET_COMPS 2017-09-30 02:15:00   8.900 8.800 8.740 8.700 -30.320 -61.180   265.300 265.800 264.600 8.850 98.500 8.627 0.170 266.000 284.300 359.000 0.1600 329.800 0.558 64.540 352.30 352.10 0.87 -3.03
DSCMET_COMPS 2017-09-30 02:10:00   9.050 8.930 8.850 8.790 -30.030 -61.260   265.300 265.900 264.600 8.980 98.500 8.757 0.172 265.900 283.000 354.100 0.1810 36.240 0.449 73.320 353.00 352.80 1.11 -2.57
DSCMET_COMPS 2017-09-30 02:05:00   9.150 9.010 8.940 8.870 -29.740 -61.350   265.300 265.900 264.600 9.020 98.500 8.796 0.172 265.900 281.800 348.500 0.1110 52.200 0.411 76.490 353.00 352.90 1.06 -3.07
DSCMET_COMPS 2017-09-30 02:00:00   9.190 9.050 9.030 8.980 -29.470 -61.440   265.300 265.900 264.600 9.080 98.400 8.841 0.185 265.900 280.600 343.400 0.1060 25.430 0.557 57.920 353.60 353.50 1.01 -2.85
DSCMET_COMPS 2017-09-30 01:55:00   9.310 9.220 9.150 9.060 -29.210 -61.540   265.300 265.900 264.600 9.180 98.300 8.926 0.198 265.900 279.100 338.000 0.1490 50.570 0.164 71.020 354.10 354.10 1.13 -3.27
DSCMET_COMPS 2017-09-30 01:50:00   9.370 9.330 9.230 9.170 -28.930 -61.640   265.300 265.900 264.600 9.290 98.300 9.036 0.199 265.900 277.800 332.000 0.1440 44.140 0.329 67.680 354.80 354.80 0.95 -3.23
DSCMET_COMPS 2017-09-30 01:45:00   9.470 9.370 9.310 9.250 -28.680 -61.740   265.300 265.900 264.600 9.380 98.200 9.111 0.212 265.800 276.400 326.400   0.000 0.488 61.850 355.70 355.50 1.16 -3.06
DSCMET_COMPS 2017-09-30 01:40:00   9.660 9.550 9.460 9.330 -28.440 -61.830   265.300 265.900 264.600 9.450 98.000 9.150 0.237 265.700 275.300 320.500 0.1340 44.820 0.261 136.900 355.80 356.10 0.89 -2.93
DSCMET_COMPS 2017-09-30 01:35:00   9.700 9.630 9.560 9.480 -28.210 -61.930   265.300 265.900 264.600 9.570 97.700 9.224 0.274 265.700 274.400 314.200 0.1120 48.850 0.354 72.420 356.60 356.90 0.88 -3.47
DSCMET_COMPS 2017-09-30 01:30:00   9.870 9.720 9.680 9.550 -27.960 -62.040   265.300 265.900 264.600 9.740 97.700 9.394 0.278 265.600 273.400 309.600 0.1510 29.840 0.483 60.290 357.60 357.60 0.68 -3.31
DSCMET_COMPS 2017-09-30 01:25:00   9.950 9.830 9.790 9.660 -27.740 -62.130   265.300 265.900 264.600 9.820 97.500 9.443 0.303 265.700 272.500 305.100 0.1060 84.600 0.391 68.930 359.00 358.50 0.65 -3.31
DSCMET_COMPS 2017-09-30 01:20:00   10.010 9.910 9.880 9.780 -27.510 -62.240   265.300 265.900 264.600 9.930 97.600 9.568 0.293 265.600 271.900 302.000 0.1570 43.810 0.369 60.680 360.70 359.40 0.75 -3.11
DSCMET_COMPS 2017-09-30 01:15:00   10.050 9.930 9.910 9.870 -27.290 -62.350   265.300 265.900 264.600 9.930 97.600 9.568 0.293 265.600 271.400 300.000 0.0870 60.020 0.231 42.360 362.90 360.50 0.62 -1.81
DSCMET_COMPS 2017-09-30 01:10:00   10.090 10.050 9.980 9.930 -27.050 -62.460   265.300 265.900 264.600 9.940 97.600 9.578 0.294 265.600 271.200 298.700 0.1330 351.100 0.064 314.100 364.40 361.60 0.85 -0.90
DSCMET_COMPS 2017-09-30 01:05:00   10.120 10.040 9.980 9.900 -26.790 -62.590   265.300 265.900 264.600 9.990 97.600 9.628 0.294 265.600 270.900 297.900 0.1100 64.480 0.125 78.670 364.50 361.90 0.75 -0.49
DSCMET_COMPS 2017-09-30 01:00:00   10.100 10.060 10.000 9.960 -26.530 -62.710   265.300 265.900 264.600 10.020 97.900 9.704 0.258 265.600 270.900 296.800 0.1200 77.250 0.364 67.260 363.50 361.90 0.76 -0.54
DSCMET_COMPS 2017-09-30 00:55:00   10.150 10.060 10.030 9.970 -26.290 -62.840   265.300 265.900 264.600 10.050 98.000 9.749 0.246 265.600 270.600 294.700 0.1650 38.940 0.329 58.550 362.50 361.00 0.96 -1.37
DSCMET_COMPS 2017-09-30 00:50:00   10.240 10.130 10.100 10.040 -26.030 -62.970   265.300 265.900 264.600 10.170 97.900 9.853 0.261 265.600 270.000 291.300 0.1320 62.060 0.291 76.020 361.60 360.70 0.77 -2.03
DSCMET_COMPS 2017-09-30 00:45:00   10.270 10.140 10.200 10.130 -25.770 -63.100   265.300 265.900 264.600 10.250 97.900 9.933 0.262 265.600 269.500 288.600 0.1520 50.870 0.300 29.520 361.60 360.80 0.83 -2.16
DSCMET_COMPS 2017-09-30 00:40:00   10.350 10.350 10.280 10.240 -25.540 -63.220   265.300 265.900 264.600 10.330 97.700 9.982 0.289 265.600 268.900 286.300   0.000 0.148 70.740 361.70 361.10 0.75 -2.20
DSCMET_COMPS 2017-09-30 00:35:00   10.470 10.440 10.370 10.330 -25.300 -63.350   265.300 265.900 264.600 10.420 97.800 10.087 0.278 265.600 268.500 283.800   0.000 0.264 53.590 361.50 361.60 0.67 -3.04
DSCMET_COMPS 2017-09-30 00:30:00   10.550 10.520 10.450 10.390 -25.070 -63.470   265.300 265.900 264.600 10.490 97.700 10.142 0.292 265.600 268.100 280.900 0.1550 307.300 0.119 75.580 362.30 362.00 0.88 -3.40
DSCMET_COMPS 2017-09-30 00:25:00   10.590 10.590 10.540 10.480 -24.840 -63.590   265.300 265.900 264.600 10.590 97.600 10.226 0.307 265.600 267.700 278.300 0.1270 348.000 0.147 64.970 364.40 362.80 0.68 -2.60
DSCMET_COMPS 2017-09-30 00:20:00   10.660 10.670 10.620 10.590 -24.630 -63.700   265.300 265.900 264.600 10.700 97.500 10.321 0.322 265.600 267.400 276.500 0.1300 307.300 0.118 73.840 365.90 363.90 0.58 -1.83
DSCMET_COMPS 2017-09-30 00:15:00   10.750 10.750 10.690 10.620 -24.430 -63.820   265.300 265.900 264.600 10.730 97.200 10.304 0.361 265.600 267.100 274.400 0.1750 357.300 0.098 74.710 366.10 364.60 0.66 -1.71
DSCMET_COMPS 2017-09-30 00:10:00   10.830 10.890 10.760 10.710 -24.250 -63.930   265.300 265.900 264.600 10.840 97.000 10.383 0.390 265.600 266.900 272.500 0.1130 298.900 0.087 125.700 366.00 364.90 0.70 -1.83
DSCMET_COMPS 2017-09-30 00:05:00   10.930 10.850 10.840 10.830 -24.050 -64.050   265.300 265.900 264.600 10.910 96.800 10.422 0.418 265.600 266.600 270.800 0.1090 7.766 0.098 53.480 366.30 365.30 0.73 -2.15
DSCMET_COMPS 2017-09-30 00:00:00   11.000 10.890 10.910 10.860 -23.880 -64.150   265.300 265.900 264.600 10.910 96.500 10.376 0.457 265.600 266.600 269.800 0.1690 327.900 0.114 24.940 366.70 365.60 0.79 -2.34
DSCMET_COMPS 2017-09-29 23:55:00   11.110 11.010 10.970 10.940 -23.710 -64.260   265.300 265.900 264.600 11.040 96.000 10.427 0.526 265.600 266.600 269.000 0.1250 6.607 0.078 118.800 367.30 366.00 0.62 -2.12
DSCMET_COMPS 2017-09-29 23:50:00   11.110 10.990 11.010 11.010 -23.550 -64.350   265.300 265.900 264.600 11.030 96.700 10.526 0.434 265.600 266.600 268.800 0.0770 297.300 0.253 10.370 368.00 366.40 0.70 -1.98
DSCMET_COMPS 2017-09-29 23:45:00   11.180 11.060 11.020 10.970 -23.420 -64.450   265.300 265.900 264.600 11.070 96.300 10.504 0.488 265.600 266.600 268.300 0.1760 358.000 0.342 48.770 368.60 367.10 0.64 -1.82
DSCMET_COMPS 2017-09-29 23:40:00   11.240 11.140 11.090 11.060 -23.280 -64.540   265.300 265.900 264.600 11.220 95.400 10.512 0.613 265.600 266.600 267.800 0.1020 82.800 0.122 130.000 368.30 367.60 0.58 -2.11
DSCMET_COMPS 2017-09-29 23:35:00   11.270 11.230 11.190 11.170 -23.140 -64.640   265.300 265.900 264.600 11.320 95.000 10.549 0.670 265.600 266.600 267.100 0.1370 323.000 0.091 133.000 368.50 367.60 0.77 -2.41
DSCMET_COMPS 2017-09-29 23:30:00   11.340 11.360 11.260 11.230 -23.020 -64.720   265.300 265.900 264.600 11.340 94.300 10.458 0.765 265.600 266.600 266.700   0.000 0.077 242.700 369.70 368.20 0.54 -2.10
DSCMET_COMPS 2017-09-29 23:25:00   11.410 11.400 11.300 11.260 -22.880 -64.800   265.300 265.900 264.600 11.420 92.900 10.313 0.958 265.600 266.600 266.600 0.1450 344.700 0.131 250.900 370.90 369.20 0.59 -1.99
DSCMET_COMPS 2017-09-29 23:20:00   11.470 11.410 11.400 11.360 -22.790 -64.880   265.300 265.900 264.600 11.480 92.700 10.340 0.989 265.600 266.600 266.600 0.0590 61.790 0.184 269.900 372.00 369.60 0.56 -1.60
DSCMET_COMPS 2017-09-29 23:15:00   11.520 11.470 11.450 11.390 -22.660 -64.970   265.300 265.900 264.600 11.540 93.000 10.448 0.952 265.600 266.500 266.500 0.1400 307.500 0.198 278.000 372.80 370.00 0.53 -1.26
DSCMET_COMPS 2017-09-29 23:10:00   11.590 11.530 11.420 11.440 -22.530 -65.060   265.300 265.900 264.600 11.600 93.300 10.556 0.915 265.600 266.300 266.500 0.0230 302.900 0.118 221.500 373.50 370.50 0.61 -1.01
DSCMET_COMPS 2017-09-29 23:05:00   11.590 11.480 11.440 11.430 -22.410 -65.150   265.300 265.900 264.600 11.490 93.700 10.511 0.854 265.500 266.400 266.500 0.0220 65.120 0.223 314.300 374.10 370.80 0.58 -0.85
DSCMET_COMPS 2017-09-29 23:00:00   11.620 11.500 11.450 11.450 -22.260 -65.260   265.300 265.900 264.600 11.550 94.500 10.698 0.749 265.600 266.500 266.500 0.0530 76.920 0.062 296.500 374.30 371.10 0.58 -0.57
DSCMET_COMPS 2017-09-29 22:55:00   11.620 11.510 11.460 11.520 -22.100 -65.370   265.300 265.900 264.600 11.650 93.700 10.670 0.863 265.500 266.500 266.500 0.0200 85.400 0.208 259.400 374.30 371.10 0.52 -0.43
DSCMET_COMPS 2017-09-29 22:50:00   11.650 11.520 11.450 11.440 -21.950 -65.490   265.300 265.900 264.600 11.550 94.200 10.650 0.790 265.500 266.500 266.500 0.0600 63.690 0.057 290.200 373.80 371.10 0.59 -0.50
DSCMET_COMPS 2017-09-29 22:45:00   11.670 11.550 11.500 11.470 -21.780 -65.600   265.300 265.900 264.600 11.510 94.900 10.722 0.692 265.500 266.500 266.500 0.0980 264.200 0.136 285.400 373.00 370.90 0.49 -0.71
DSCMET_COMPS 2017-09-29 22:40:00   11.630 11.520 11.490 11.470 -21.600 -65.730   265.300 265.900 264.600 11.530 95.000 10.757 0.680 265.500 266.500 266.500 0.0720 259.400 0.185 49.710 372.00 370.50 0.71 -1.23
DSCMET_COMPS 2017-09-29 22:35:00   11.650 11.600 11.560 11.500 -21.420 -65.870   265.300 265.900 264.600 11.630 94.700 10.809 0.725 265.500 266.500 266.500 0.0980 67.570 0.241 115.400 371.60 370.30 0.54 -1.38
DSCMET_COMPS 2017-09-29 22:30:00   11.710 11.650 11.600 11.540 -21.230 -66.000   265.300 265.900 264.600 11.650 94.100 10.734 0.809 265.500 266.500 266.500 0.1290 71.480 0.151 69.810 371.30 370.60 0.48 -1.73
DSCMET_COMPS 2017-09-29 22:25:00   11.770 11.710 11.690 11.670 -21.040 -66.150   265.300 265.900 264.600 11.780 92.200 10.557 1.078 265.500 266.500 266.500 0.1600 25.190 0.314 22.120 371.20 371.10 0.29 -1.63
DSCMET_COMPS 2017-09-29 22:20:00   11.850 11.790 11.760 11.750 -20.840 -66.290   265.300 265.900 264.600 11.800 92.700 10.657 1.010 265.500 266.500 266.600   0.000 0.673 52.600 370.20 371.20 0.38 -2.53
DSCMET_COMPS 2017-09-29 22:15:00   11.920 11.880 11.840 11.850 -20.650 -66.430   265.300 265.900 264.600 11.920 93.900 10.970 0.851 265.500 266.200 266.500 0.0980 87.900 0.840 63.320 370.40 371.40 0.29 -2.84
DSCMET_COMPS 2017-09-29 22:10:00   11.970 11.950 12.010 12.100 -20.450 -66.560   265.300 265.900 264.600 12.250 87.500 10.237 1.782 265.500 266.200 266.300 0.1270 42.630 0.642 42.860 371.30 372.20 0.55 -2.61
DSCMET_COMPS 2017-09-29 22:05:00   12.140 12.040 12.060 12.020 -20.320 -66.680   265.300 265.900 264.600 12.110 90.800 10.654 1.300 265.500 266.400 266.600 0.3080 14.460 1.093 38.780 371.20 372.50 0.52 -3.39
DSCMET_COMPS 2017-09-29 22:00:00   12.370 12.300 12.240 12.090 -20.190 -66.780   265.300 265.900 264.600 12.240 92.600 11.077 1.054 265.600 266.500 266.600 0.2180 85.100 0.763 67.350 372.90 372.80 0.64 -2.97
DSCMET_COMPS 2017-09-29 21:55:00   12.540 12.470 12.420 12.280 -20.050 -66.880   265.300 265.900 264.600 12.340 94.400 11.467 0.803 265.600 266.500 266.800 0.3020 87.000 1.493 62.180 375.10 374.00 0.61 -2.34
DSCMET_COMPS 2017-09-29 21:50:00   12.650 12.580 12.560 12.500 -19.940 -66.980   265.300 265.900 264.600 12.620 92.600 11.454 1.081 265.600 266.500 266.600 0.2940 85.800 1.005 58.620 376.80 375.40 0.47 -1.65
DSCMET_COMPS 2017-09-29 21:45:00   12.760 12.680 12.690 12.610 -19.840 -67.070   265.300 265.900 264.600 12.590 94.300 11.699 0.831 265.800 266.500 266.700 0.1220 75.840 0.869 45.100 376.80 375.80 0.52 -1.95
DSCMET_COMPS 2017-09-29 21:40:00   12.840 12.790 12.840 12.880 -19.750 -67.140   265.300 265.900 264.600 12.880 93.600 11.874 0.951 265.700 266.500 266.500 0.2280 88.700 0.808 62.050 377.50 375.40 0.56 -2.23
DSCMET_COMPS 2017-09-29 21:35:00   12.880 12.840 12.910 13.060 -19.660 -67.220   265.300 265.900 264.600 13.160 85.500 10.785 2.194 265.600 266.300 266.500 0.2130 85.700 1.497 49.350 379.40 376.50 0.63 -1.33
DSCMET_COMPS 2017-09-29 21:30:00   12.850 12.780 12.780 12.770 -19.580 -67.290   265.300 265.900 264.600 12.770 96.400 12.212 0.531 265.900 266.500 266.800 0.3180 24.380 0.861 40.210 380.40 377.50 0.63 -0.92
DSCMET_COMPS 2017-09-29 21:25:00   12.860 12.800 12.800 12.780 -19.500 -67.360   265.300 265.900 264.600 12.870 96.400 12.311 0.535 265.900 266.500 266.800 0.2760 86.000 0.965 66.000 380.70 377.60 0.67 -0.86
DSCMET_COMPS 2017-09-29 21:20:00   12.910 12.830 12.840 12.840 -19.440 -67.430   265.300 265.900 264.600 12.870 96.600 12.343 0.505 265.900 266.500 266.800 0.2060 98.600 0.485 59.220 380.60 377.60 0.60 -0.87
DSCMET_COMPS 2017-09-29 21:15:00   12.910 12.830 12.860 12.840 -19.400 -67.490   265.300 265.900 264.600 12.880 96.600 12.353 0.505 265.900 266.500 266.800   0.000 0.790 47.060 381.10 377.70 0.67 -0.69
DSCMET_COMPS 2017-09-29 21:10:00   12.910 12.830 12.870 12.900 -19.350 -67.560   265.300 265.900 264.600 12.940 96.400 12.381 0.537 265.900 266.500 266.800 0.1510 85.100 0.613 56.600 381.20 377.80 0.69 -0.56
DSCMET_COMPS 2017-09-29 21:05:00   12.910 12.830 12.880 12.920 -19.280 -67.610   265.300 265.900 264.600 12.870 96.700 12.359 0.490 265.800 266.500 266.800 0.0970 353.100 0.198 2.654 381.10 377.80 0.55 -0.52
DSCMET_COMPS 2017-09-29 21:00:00   12.880 12.830 12.880 12.900 -19.210 -67.690   265.300 265.900 264.600 12.910 96.200 12.320 0.566 265.800 266.500 266.800 0.1980 32.820 0.229 141.200 381.10 377.80 0.64 -0.53
DSCMET_COMPS 2017-09-29 20:55:00   12.910 12.840 12.900 12.950 -19.150 -67.760   265.300 265.900 264.600 12.950 96.300 12.375 0.552 265.900 266.500 266.800 0.2020 121.600 0.316 68.480 380.90 377.70 0.52 -0.53
DSCMET_COMPS 2017-09-29 20:50:00   12.900 12.840 12.910 12.910 -19.060 -67.860   265.300 265.900 264.600 12.920 96.300 12.345 0.551 265.900 266.500 266.800 0.0380 130.200 0.206 26.900 380.50 377.60 0.61 -0.63
DSCMET_COMPS 2017-09-29 20:45:00   12.930 12.840 12.930 12.950 -18.980 -67.950   265.300 265.900 264.600 13.010 96.200 12.419 0.569 265.900 266.500 266.900 0.1950 89.000 0.848 64.890 380.30 377.50 0.65 -0.77
DSCMET_COMPS 2017-09-29 20:40:00   12.940 12.850 12.880 12.890 -18.870 -68.050   265.300 265.900 264.600 12.920 96.700 12.408 0.492 265.800 266.500 267.200 0.2480 23.050 0.234 8.520 380.30 377.40 0.80 -0.74
DSCMET_COMPS 2017-09-29 20:35:00   12.940 12.860 12.900 12.920 -18.790 -68.140   265.300 265.900 264.600 12.850 97.100 12.401 0.430 265.800 266.500 267.200 0.1590 77.800 0.176 66.670 380.40 377.20 0.65 -0.67
DSCMET_COMPS 2017-09-29 20:30:00   12.960 12.880 12.880 12.870 -18.690 -68.240   265.300 265.900 264.600 12.850 97.200 12.417 0.415 265.800 266.500 267.200 0.0810 26.270 0.098 269.800 380.20 377.30 0.53 -0.80
DSCMET_COMPS 2017-09-29 20:25:00   12.970 12.860 12.900 12.860 -18.570 -68.380   265.300 265.900 264.600 12.830 97.200 12.397 0.415 265.800 266.500 267.200 0.1480 97.100 0.180 17.280 380.10 377.30 0.59 -0.84
DSCMET_COMPS 2017-09-29 20:20:00   12.960 12.900 12.920 12.890 -18.430 -68.500   265.300 265.900 264.600 12.870 96.600 12.343 0.505 265.800 266.500 267.200 0.1550 4.968 0.173 300.900 379.30 377.40 0.59 -1.18
DSCMET_COMPS 2017-09-29 20:15:00   13.010 12.950 12.970 12.960 -18.300 -68.630   265.300 265.900 264.600 13.040 95.900 12.401 0.616 265.700 266.500 267.000 0.1650 92.600 0.230 77.290 379.10 377.30 0.57 -1.36
DSCMET_COMPS 2017-09-29 20:10:00   13.050 13.020 13.090 13.170 -18.160 -68.780   265.300 265.900 264.600 13.190 95.400 12.471 0.698 265.800 266.500 267.000 0.1700 67.690 0.244 21.700 379.70 377.20 0.49 -1.16
DSCMET_COMPS 2017-09-29 20:05:00   13.010 12.950 12.980 12.990 -18.010 -68.910   265.300 265.900 264.600 13.030 96.400 12.471 0.540 265.800 266.500 267.500   0.000 0.556 29.040 380.20 377.60 0.55 -1.03
DSCMET_COMPS 2017-09-29 20:00:00   13.070 13.010 13.030 13.090 -17.840 -69.080   265.300 265.900 264.600 13.240 95.400 12.521 0.700 265.600 266.500 267.700 0.1770 83.900 1.080 58.320 379.70 377.70 0.70 -1.39
DSCMET_COMPS 2017-09-29 19:55:00   13.120 13.040 13.030 12.980 -17.670 -69.240   265.300 265.900 264.600 13.000 96.700 12.488 0.494 265.600 266.500 268.500 0.2140 30.310 2.603 36.540 380.40 377.60 0.84 -1.38
DSCMET_COMPS 2017-09-29 19:50:00   13.170 13.080 13.090 13.070 -17.520 -69.390   265.300 265.900 264.600 13.120 96.300 12.544 0.558 265.500 266.500 268.600 0.1530 76.820 0.539 58.960 381.20 378.00 0.67 -1.09
DSCMET_COMPS 2017-09-29 19:45:00   13.160 13.040 13.030 13.010 -17.360 -69.550   265.300 265.900 264.600 13.000 97.200 12.567 0.419 265.600 266.500 269.200 0.1880 57.760 0.368 53.540 381.00 378.40 0.67 -0.99
DSCMET_COMPS 2017-09-29 19:40:00   13.170 13.080 13.050 13.000 -17.170 -69.720   265.300 265.900 264.600 13.030 97.000 12.565 0.450 265.500 266.500 269.300 0.2050 27.960 0.206 23.230 381.30 378.30 0.66 -0.95
DSCMET_COMPS 2017-09-29 19:35:00   13.200 13.120 13.090 13.040 -16.990 -69.910   265.300 265.900 264.600 13.120 97.100 12.670 0.438 265.500 266.500 269.300 0.1710 71.230 0.249 69.930 381.70 378.40 0.62 -0.76
DSCMET_COMPS 2017-09-29 19:30:00   13.230 13.120 13.100 13.090 -16.810 -70.080   265.300 265.900 264.600 13.110 97.300 12.692 0.407 265.500 266.500 269.100 0.1780 88.000 0.355 45.380 381.60 378.50 0.55 -0.78
DSCMET_COMPS 2017-09-29 19:25:00   13.300 13.190 13.150 13.110 -16.620 -70.270   265.300 265.900 264.600 13.160 96.900 12.679 0.469 265.500 266.500 268.600 0.2200 2.894 0.228 180.300 380.70 378.20 0.49 -1.04
DSCMET_COMPS 2017-09-29 19:20:00   13.320 13.250 13.230 13.140 -16.430 -70.460   265.300 265.900 264.600 13.160 96.800 12.663 0.484 265.500 266.500 268.300 0.1690 351.500 0.177 235.800 380.30 378.30 0.60 -1.44
DSCMET_COMPS 2017-09-29 19:15:00   13.340 13.290 13.260 13.170 -16.240 -70.640   265.300 265.900 264.600 13.210 97.200 12.776 0.425 265.500 266.500 268.600 0.1480 114.800 1.403 63.190 380.70 378.10 0.68 -1.35
DSCMET_COMPS 2017-09-29 19:10:00   13.430 13.330 13.300 13.190 -16.050 -70.810   265.300 265.900 264.600 13.260 96.600 12.731 0.518 265.500 266.500 268.800 0.1870 82.100 0.331 84.900 381.30 378.60 0.82 -1.15
DSCMET_COMPS 2017-09-29 19:05:00   13.480 13.320 13.320 13.330 -15.900 -70.990   265.300 265.900 264.600 13.340 96.600 12.811 0.521 265.500 266.500 267.800 0.1730 77.690 0.171 176.200 380.60 378.60 0.62 -1.57
DSCMET_COMPS 2017-09-29 19:00:00   13.580 13.460 13.460 13.350 -15.760 -71.130   265.300 265.900 264.600 13.400 96.400 12.839 0.553 265.500 266.500 266.900 0.2420 323.000 0.385 272.700 380.30 378.70 0.53 -1.88
DSCMET_COMPS 2017-09-29 18:55:00   13.680 13.570 13.560 13.500 -15.620 -71.290   265.300 265.900 264.600 13.480 95.800 12.823 0.649 265.500 266.400 266.500   0.000 0.368 255.800 380.60 378.70 0.57 -1.87
DSCMET_COMPS 2017-09-29 18:50:00   13.680 13.560 13.580 13.610 -15.470 -71.460   265.300 265.900 264.600 13.530 96.400 12.968 0.558 265.500 266.300 266.500 0.1990 357.600 0.358 29.240 381.60 378.50 0.87 -2.18
DSCMET_COMPS 2017-09-29 18:45:00   13.690 13.650 13.650 13.600 -15.300 -71.630   265.300 265.900 264.600 13.580 96.300 13.002 0.576 265.500 266.200 266.500 0.1540 35.890 0.076 35.920 384.60 379.90 0.86 -1.15
DSCMET_COMPS 2017-09-29 18:40:00   13.750 13.680 13.690 13.630 -15.160 -71.790   265.300 265.900 264.600 13.650 95.500 12.944 0.703 265.500 266.100 266.500 0.1560 96.100 0.273 80.500 385.50 380.80 0.77 -0.53
DSCMET_COMPS 2017-09-29 18:35:00   13.780 13.700 13.690 13.620 -15.000 -71.970   265.300 265.900 264.600 13.590 95.800 12.933 0.654 265.500 266.100 266.400 0.1910 33.520 0.322 48.840 385.10 380.90 0.69 -0.51
DSCMET_COMPS 2017-09-29 18:30:00   13.820 13.730 13.710 13.660 -14.860 -72.130   265.300 265.900 264.600 13.650 95.600 12.960 0.688 265.500 266.100 266.500 0.0850 133.300 0.367 59.740 385.10 380.70 0.83 -0.59
DSCMET_COMPS 2017-09-29 18:25:00   13.840 13.740 13.710 13.690 -14.700 -72.290   265.300 265.900 264.600 13.760 95.500 13.054 0.708 265.500 266.100 266.500 0.0740 35.380 0.502 61.810 384.80 380.70 0.74 -0.53
DSCMET_COMPS 2017-09-29 18:20:00   13.860 13.730 13.700 13.670 -14.550 -72.470   265.300 265.900 264.600 13.650 96.500 13.104 0.547 265.500 266.100 266.400 0.1050 94.900 0.308 74.210 383.30 380.40 0.73 -1.10
DSCMET_COMPS 2017-09-29 18:15:00   13.860 13.770 13.760 13.710 -14.370 -72.670   265.300 265.900 264.600 13.750 96.600 13.219 0.535 265.500 266.100 266.400 0.2240 333.700 0.461 55.720 382.00 379.30 0.69 -1.87
DSCMET_COMPS 2017-09-29 18:10:00   13.900 13.820 13.780 13.710 -14.190 -72.850   265.300 265.900 264.600 13.820 95.100 13.049 0.774 265.500 266.100 266.100 0.1180 31.180 0.150 112.300 383.60 380.10 0.74 -1.17
DSCMET_COMPS 2017-09-29 18:05:00   13.930 13.840 13.810 13.790 -14.010 -73.040   265.300 265.800 264.600 13.810 93.900 12.845 0.963 265.500 266.100 266.100 0.1520 29.050 0.149 105.300 383.40 380.90 0.65 -0.82
DSCMET_COMPS 2017-09-29 18:00:00   13.970 13.840 13.880 13.830 -13.860 -73.200   265.300 265.800 264.600 13.880 94.600 13.028 0.856 265.500 266.100 266.300 0.2540 341.200 0.178 304.100 381.50 380.80 0.75 -1.28
DSCMET_COMPS 2017-09-29 17:55:00   14.090 14.030 14.020 13.920 -13.710 -73.360   265.300 265.300 264.600 14.070 94.400 13.185 0.899 265.500 266.100 266.300 0.2460 2.605 0.209 146.100 380.90 380.60 0.71 -1.43
DSCMET_COMPS 2017-09-29 17:50:00   14.220 14.010 14.090 14.040 -13.580 -73.510   265.300 265.400 264.600 14.090 93.500 13.058 1.045 265.400 266.100 266.100   0.000 0.130 192.200 382.50 381.50 0.87 -0.10
DSCMET_COMPS 2017-09-29 17:45:00   14.330 14.120 14.190 14.210 -13.430 -73.650   265.300 265.400 264.600 14.230 93.000 13.115 1.136 265.500 266.100 265.800   0.000 0.147 14.370 384.60 382.50 1.08 1.87
DSCMET_COMPS 2017-09-29 17:40:00   14.390 14.290 14.330 14.320 -13.310 -73.810   265.300 265.300 264.600 14.330 91.800 13.015 1.339 265.400 265.900 265.800 0.2030 324.300 0.032 331.300 387.80 384.40 1.68 7.12
DSCMET_COMPS 2017-09-29 17:35:00   14.500 14.390 14.440 14.450 -13.190 -73.930   265.300 265.300 264.600 14.490 91.200 13.073 1.452 265.200 266.100 265.800 0.1000 303.000 0.177 247.000 389.20 385.90 1.82 9.61
DSCMET_COMPS 2017-09-29 17:30:00   14.560 14.420 14.500 14.580 -13.080 -74.060   265.300 265.300 264.600 14.550 90.800 13.065 1.524 265.100 266.200 265.800 0.2070 317.300 0.390 325.600 390.20 386.60 1.59 9.46
DSCMET_COMPS 2017-09-29 17:25:00   14.630 14.540 14.600 14.600 -12.990 -74.190   265.300 265.300 264.600 14.560 91.400 13.176 1.425 265.100 266.700 266.100 0.2100 315.800 0.237 278.000 391.60 387.50 1.91 12.93
DSCMET_COMPS 2017-09-29 17:20:00   14.720 14.690 14.710 14.690 -12.900 -74.280   265.300 265.300 264.600 14.650 90.700 13.147 1.550 265.100 267.200 266.500 0.1320 8.870 0.067 34.210 393.30 388.20 3.75 26.81
DSCMET_COMPS 2017-09-29 17:15:00   14.750 14.700 14.760 14.720 -12.840 -74.370   265.300 265.300 264.600 14.740 89.500 13.032 1.761 265.100 268.100 268.500 0.1480 314.900 0.445 323.400 394.20 388.80 5.39 39.28
DSCMET_COMPS 2017-09-29 17:10:00   14.840 14.770 14.840 14.810 -12.760 -74.490   265.300 265.300 264.600 14.730 90.000 13.107 1.676 265.100 270.200 272.100 0.2050 317.300 0.311 308.000 394.60 389.40 5.74 43.47
DSCMET_COMPS 2017-09-29 17:05:00   14.930 14.850 14.930 14.880 -12.680 -74.610   265.300 265.900 264.600 14.860 90.200 13.270 1.656 265.300 273.700 276.700 0.1060 288.900 0.268 296.300 395.30 390.50 5.27 41.63
DSCMET_COMPS 2017-09-29 17:00:00   14.950 14.950 15.030 14.990 -12.610 -74.720   265.300 266.300 265.000 14.980 88.800 13.149 1.907 265.700 278.800 282.500 0.2250 335.100 0.345 272.200 396.30 391.60 5.82 48.04
DSCMET_COMPS 2017-09-29 16:55:00   15.030 14.970 15.070 15.070 -12.530 -74.840   265.600 267.800 266.000 15.010 88.300 13.092 1.996 266.700 286.100 293.300 0.1250 286.700 0.699 303.900 397.90 393.30 6.98 58.65
DSCMET_COMPS 2017-09-29 16:50:00   15.030 15.000 15.130 15.070 -12.440 -74.990   265.900 269.700 267.300 15.060 88.100 13.106 2.037 268.400 294.700 306.300 0.1960 314.600 0.603 322.800 399.90 395.70 9.08 74.65
DSCMET_COMPS 2017-09-29 16:45:00   15.180 15.160 15.260 15.210 -12.320 -75.120   265.900 270.900 267.900 15.200 85.600 12.804 2.487 269.100 298.400 313.300 0.0920 314.800 0.549 304.100 401.60 398.50 10.26 81.60
DSCMET_COMPS 2017-09-29 16:40:00   15.210 15.180 15.260 15.240 -12.220 -75.230   265.500 267.800 265.300 15.170 85.200 12.703 2.551 267.200 282.100 294.600   0.000 1.123 312.000 405.40 385.30 13.03 106.40
DSCMET_COMPS 2017-09-29 16:35:00   15.220 15.160 15.200 15.140 -12.090 -75.350   265.300 265.300 263.900 15.120 85.500 12.708 2.492 264.800 265.600 265.400 0.2290 320.100 0.879 322.500 405.20 380.30 12.33 100.20
DSCMET_COMPS 2017-09-29 16:30:00   15.200 15.180 15.210 15.080 -12.000 -75.490   265.900 265.300 264.000 15.060 86.000 12.738 2.397 264.800 266.100 265.400 0.2340 322.400 0.647 315.600 404.90 381.70 10.69 85.50
DSCMET_COMPS 2017-09-29 16:25:00   15.270 15.320 15.340 15.220 -11.890 -75.610   265.700 265.600 264.200 15.210 85.200 12.742 2.558 264.800 266.300 265.600 0.2520 311.200 0.574 294.500 404.80 383.30 8.45 71.59
DSCMET_COMPS 2017-09-29 16:20:00   15.430 15.520 15.540 15.420 -11.780 -75.720   265.300 265.500 263.900 15.430 82.400 12.448 3.085 264.800 265.700 265.000 0.0190 292.800 0.228 282.800 404.90 384.30 8.44 72.64
DSCMET_COMPS 2017-09-29 16:15:00   15.540 15.600 15.630 15.560 -11.660 -75.890   265.300 265.200 263.900 15.540 81.400 12.370 3.284 264.600 265.100 265.200 0.1970 313.800 0.525 285.900 404.10 385.40 7.39 62.91
DSCMET_COMPS 2017-09-29 16:10:00   15.570 15.640 15.720 15.750 -11.550 -75.980   265.300 265.000 263.900 15.760 79.300 12.187 3.706 264.400 264.800 264.400 0.2780 309.900 0.781 215.800 403.90 384.90 6.01 52.50
DSCMET_COMPS 2017-09-29 16:05:00   15.710 15.790 15.810 15.770 -11.450 -76.120   265.300 264.800 263.700 15.840 78.830 12.174 3.810 264.400 264.800 264.400 0.1760 260.400 0.809 227.900 405.00 383.70 6.23 58.89
DSCMET_COMPS 2017-09-29 16:00:00   15.870 15.880 15.880 15.880 -11.320 -76.190   265.300 264.600 263.300 15.850 78.440 12.109 3.882 264.400 264.800 264.400 0.3860 310.000 0.796 260.400 405.60 385.00 7.66 71.07
DSCMET_COMPS 2017-09-29 15:55:00   15.930 15.990 16.020 15.970 -11.240 -76.290   265.300 264.600 263.300 15.950 78.320 12.182 3.929 264.400 264.800 264.400 0.3050 328.400 0.672 232.200 406.70 385.30 8.22 75.48
DSCMET_COMPS 2017-09-29 15:50:00   16.030 16.120 16.130 16.070 -11.170 -76.370   265.300 264.600 263.200 16.090 77.320 12.123 4.147 264.400 264.800 264.300 0.2950 85.000 1.298 175.400 406.20 386.00 6.51 64.01
DSCMET_COMPS 2017-09-29 15:45:00   16.120 16.170 16.240 16.230 -11.110 -76.410   265.300 264.600 263.200 16.230 76.550 12.107 4.327 264.400 264.700 264.300 0.2520 333.600 0.601 216.500 408.00 386.00 8.17 77.96
DSCMET_COMPS 2017-09-29 15:40:00   16.120 16.250 16.320 16.290 -11.060 -76.410   265.300 264.600 263.300 16.310 75.100 11.894 4.618 264.400 264.700 264.100 0.1830 348.200 1.201 216.500 412.50 386.30 14.37 122.40
DSCMET_COMPS 2017-09-29 15:35:00   16.210 16.290 16.360 16.320 -11.010 -76.370   265.300 264.700 263.500 16.340 75.610 12.026 4.532 264.400 264.700 264.200 0.2280 351.800 0.925 221.900 413.90 384.80 19.22 162.30
DSCMET_COMPS 2017-09-29 15:30:00   16.110 16.190 16.330 16.330 -10.950 -76.410   265.300 264.700 263.800 16.340 75.790 12.062 4.498 264.400 264.700 264.400   0.000 1.198 239.500 415.20 383.40 24.59 200.50
DSCMET_COMPS 2017-09-29 15:25:00   16.140 16.140 16.310 16.310 -10.910 -76.430   265.300 265.100 263.900 16.310 75.790 12.033 4.490 264.400 264.700 264.400 0.2220 306.600 0.900 218.600 412.50 382.10 18.75 160.20
DSCMET_COMPS 2017-09-29 15:20:00   15.990 16.130 16.320 16.360 -10.890 -76.420   265.300 265.300 263.900 16.360 74.970 11.916 4.656 264.400 264.700 264.200 0.2890 301.800 1.216 219.600 410.00 381.30 13.54 124.10
DSCMET_COMPS 2017-09-29 15:15:00   16.100 16.220 16.410 16.440 -10.890 -76.340   265.300 265.300 263.900 16.470 75.220 12.073 4.642 264.400 264.700 264.200 0.1770 304.200 0.911 217.800 410.20 381.60 10.59 105.30
DSCMET_COMPS 2017-09-29 15:10:00   16.060 16.180 16.370 16.450 -10.870 -76.350   265.300 265.300 263.900 16.510 74.660 11.998 4.759 264.400 264.700 264.100 0.1120 337.300 0.901 221.600 411.70 385.90 14.70 137.70
DSCMET_COMPS 2017-09-29 15:05:00   16.020 16.230 16.390 16.480 -10.880 -76.260   265.300 265.300 263.500 16.560 75.110 12.137 4.690 264.400 264.700 264.100 0.1880 318.300 0.740 246.900 409.80 386.20 8.34 87.00
DSCMET_COMPS 2017-09-29 15:00:00   16.210 16.410 16.510 16.580 -10.890 -76.230   265.300 265.300 263.700 16.620 75.340 12.242 4.664 264.400 264.700 264.100 0.1080 265.800 0.482 288.100 412.20 386.70 9.95 99.60
DSCMET_COMPS 2017-09-29 14:55:00   16.210 16.420 16.540 16.610 -10.890 -76.130   265.300 265.300 263.900 16.620 74.340 12.039 4.853 264.400 264.700 264.200 0.1830 333.900 0.643 265.200 414.60 387.90 17.27 154.00
DSCMET_COMPS 2017-09-29 14:50:00   16.160 16.410 16.540 16.620 -10.890 -76.120   265.300 265.300 263.900 16.710 75.230 12.306 4.712 264.400 264.700 264.200 0.2630 285.700 0.782 248.100 414.80 387.30 15.63 142.80
DSCMET_COMPS 2017-09-29 14:45:00   16.150 16.410 16.600 16.670 -10.900 -76.020   265.300 265.300 263.900 16.740 72.480 11.770 5.245 264.500 264.700 264.100 0.2620 348.600 1.347 224.300 415.70 386.00 21.16 183.60
DSCMET_COMPS 2017-09-29 14:40:00   15.960 16.230 16.470 16.720 -10.930 -75.930   265.300 265.300 263.900 16.840 74.130 12.208 4.962 264.700 264.700 264.300 0.2420 301.900 0.409 238.100 417.40 384.60 23.30 201.90
DSCMET_COMPS 2017-09-29 14:35:00   15.900 16.180 16.360 16.530 -10.960 -75.840   265.300 265.300 263.900 16.670 74.100 12.038 4.914 264.600 264.700 264.200 0.1510 293.200 0.925 227.500 413.60 385.60 17.82 161.00
DSCMET_COMPS 2017-09-29 14:30:00   16.020 16.280 16.430 16.550 -10.990 -75.760   265.300 265.300 263.900 16.690 73.340 11.901 5.065 264.600 264.700 264.100 0.1510 325.700 0.611 222.900 410.60 387.60 11.35 111.70
DSCMET_COMPS 2017-09-29 14:25:00   16.140 16.370 16.530 16.620 -11.020 -75.650   265.300 265.300 263.900 16.700 72.540 11.744 5.220 264.500 264.700 264.100 0.1480 99.900 0.927 221.100 411.20 386.60 7.89 87.60
DSCMET_COMPS 2017-09-29 14:20:00   15.920 16.220 16.420 16.610 -11.070 -75.530   265.300 265.300 263.900 16.760 73.560 12.014 5.045 264.700 264.800 264.100   0.000 1.360 226.500 415.00 387.60 15.17 144.00
DSCMET_COMPS 2017-09-29 14:15:00   15.920 16.260 16.400 16.550 -11.110 -75.410   265.300 265.300 263.900 16.740 77.480 12.784 4.292 264.700 264.900 264.400 0.1390 261.900 0.330 293.900 415.70 386.90 18.79 174.60
DSCMET_COMPS 2017-09-29 14:10:00   16.030 16.390 16.510 16.580 -11.150 -75.310   265.300 265.300 263.900 16.800 73.730 12.087 5.026 264.700 264.800 264.400 0.2730 12.970 0.483 162.000 413.40 388.40 11.54 116.80
DSCMET_COMPS 2017-09-29 14:05:00   16.160 16.490 16.580 16.710 -11.200 -75.160   265.300 265.300 263.900 16.840 72.930 11.960 5.192 264.500 264.800 264.200 0.3070 8.690 0.580 191.500 415.20 390.10 12.71 123.50
DSCMET_COMPS 2017-09-29 14:00:00   16.200 16.420 16.490 16.540 -11.260 -75.030   265.300 265.300 263.900 16.700 75.590 12.369 4.640 264.700 264.900 264.300 0.1930 29.500 0.339 225.700 416.90 390.50 17.14 158.30
DSCMET_COMPS 2017-09-29 13:55:00   16.430 16.560 16.620 16.660 -11.340 -74.860   265.300 265.000 263.900 16.760 73.910 12.086 4.979 264.600 265.100 264.200 0.1250 32.320 0.152 254.600 416.70 389.90 16.40 153.70
DSCMET_COMPS 2017-09-29 13:50:00   16.400 16.590 16.750 16.850 -11.410 -74.700   265.300 265.300 263.900 16.880 72.310 11.869 5.324 264.600 265.000 264.100 0.1740 16.250 0.792 217.100 416.80 390.40 15.79 146.80
DSCMET_COMPS 2017-09-29 13:45:00   16.530 16.670 16.790 16.900 -11.490 -74.530   265.300 265.300 263.900 16.910 73.650 12.177 5.076 264.700 264.700 264.200 0.3180 5.942 0.817 244.600 421.30 390.70 22.26 198.70
DSCMET_COMPS 2017-09-29 13:40:00   16.400 16.570 16.730 16.860 -11.570 -74.350   265.300 265.300 263.900 16.800 73.790 12.100 5.014 264.600 264.700 264.100 0.3200 313.900 1.085 254.000 420.90 390.10 22.63 206.10
DSCMET_COMPS 2017-09-29 13:35:00   16.350 16.520 16.700 16.870 -11.680 -74.150   265.300 265.300 263.900 16.810 74.090 12.171 4.960 264.400 264.700 264.100 0.3330 319.300 1.106 259.300 421.80 390.20 22.96 209.20
DSCMET_COMPS 2017-09-29 13:30:00   16.460 16.530 16.670 16.790 -11.790 -73.940   265.300 265.300 263.900 16.810 74.630 12.281 4.857 264.400 264.700 264.200 0.2330 315.800 0.496 268.800 425.50 391.00 31.02 266.50
DSCMET_COMPS 2017-09-29 13:25:00   16.550 16.650 16.780 16.770 -11.960 -73.700   265.300 265.300 263.900 16.720 74.310 12.129 4.890 264.400 264.700 264.100 0.3730 325.600 0.792 269.800 422.00 390.70 26.45 240.00
DSCMET_COMPS 2017-09-29 13:20:00   16.530 16.800 17.000 16.980 -12.120 -73.470   265.300 265.300 263.900 16.810 73.320 12.012 5.107 264.400 264.700 264.100 0.4420 318.300 1.141 255.700 421.70 390.70 19.28 191.80
DSCMET_COMPS 2017-09-29 13:15:00   16.460 16.860 17.200 17.310 -12.280 -73.240   265.300 265.300 263.900 17.200 71.870 12.084 5.520 264.300 264.700 264.100   0.000 0.868 264.000 427.30 389.30 26.72 255.60
DSCMET_COMPS 2017-09-29 13:10:00   16.330 16.800 17.190 17.280 -12.460 -73.000   265.300 265.300 263.900 17.210 71.680 12.054 5.561 264.700 264.700 264.100   0.000 0.868 210.900 441.60 386.90 64.99 519.60
DSCMET_COMPS 2017-09-29 13:05:00   16.170 16.610 17.020 17.230 -12.640 -72.770   265.300 265.300 263.900 17.160 71.790 12.029 5.521 264.800 264.800 264.100 0.2630 258.100 1.138 223.600 437.40 387.60 60.25 489.30
DSCMET_COMPS 2017-09-29 13:00:00   16.060 16.460 16.810 17.100 -12.780 -72.550   265.300 265.300 263.900 17.090 73.320 12.282 5.199 264.800 265.000 264.100 0.2370 289.400 0.862 236.100 430.40 387.90 45.13 382.00
DSCMET_COMPS 2017-09-29 12:55:00   16.020 16.270 16.530 16.730 -12.900 -72.360   265.300 265.300 264.000 16.720 73.790 12.023 4.989 264.800 265.100 264.200 0.2990 296.200 0.936 242.200 433.00 387.10 56.12 461.50
DSCMET_COMPS 2017-09-29 12:50:00   15.860 16.090 16.240 16.360 -13.010 -72.160   265.300 265.300 263.900 16.460 75.530 12.125 4.581 264.700 265.000 264.300 0.2800 328.800 0.620 265.900 428.10 389.70 48.61 403.80
DSCMET_COMPS 2017-09-29 12:45:00   15.930 16.130 16.350 16.460 -13.140 -71.940   265.300 265.300 264.300 16.440 74.600 11.918 4.749 264.700 265.000 264.100 0.4090 338.200 0.853 246.500 423.70 395.20 33.38 297.20
DSCMET_COMPS 2017-09-29 12:40:00   15.710 15.990 16.270 16.420 -13.360 -71.690   265.300 265.300 264.600 16.300 74.630 11.789 4.702 264.800 265.000 264.100 0.4260 319.600 1.152 252.000 424.10 398.10 37.37 333.10
DSCMET_COMPS 2017-09-29 12:35:00   15.500 15.850 16.160 16.440 -13.630 -71.400   265.400 265.500 264.600 16.430 74.020 11.790 4.855 264.800 264.900 264.100 0.4090 312.000 1.267 261.600 424.00 402.70 37.75 338.70
DSCMET_COMPS 2017-09-29 12:30:00   15.430 15.750 16.060 16.440 -13.850 -71.120   265.600 265.800 264.600 16.570 74.400 12.003 4.827 265.000 265.100 264.300 0.4050 305.800 0.756 264.300 426.90 406.70 41.68 374.00
DSCMET_COMPS 2017-09-29 12:25:00   15.420 15.600 15.890 16.060 -14.110 -70.850   265.500 265.900 264.600 16.060 76.610 11.954 4.269 265.100 265.100 264.500 0.3570 322.100 0.668 283.300 427.80 409.30 54.30 461.20
DSCMET_COMPS 2017-09-29 12:20:00   15.390 15.590 15.960 15.980 -14.360 -70.570   265.900 266.100 264.700 16.010 74.280 11.438 4.679 265.100 265.000 264.200 0.3700 310.600 1.768 223.200 419.70 407.20 27.49 258.80
DSCMET_COMPS 2017-09-29 12:15:00   15.310 15.560 16.000 16.180 -14.610 -70.310   265.800 267.000 265.400 16.240 74.110 11.626 4.780 265.100 265.100 264.200 0.3490 304.300 1.589 230.800 423.90 410.80 33.34 316.50
DSCMET_COMPS 2017-09-29 12:10:00   15.210 15.410 15.910 16.240 -14.890 -70.020   265.900 267.900 266.500 16.310 76.530 12.180 4.352 265.400 265.300 264.300 0.2710 282.000 1.076 242.800 426.80 412.80 42.49 379.00
DSCMET_COMPS 2017-09-29 12:05:00   15.000 15.200 15.720 16.190 -15.170 -69.740   265.900 269.900 268.600 16.310 77.310 12.334 4.208 265.800 265.400 265.700   0.000 0.834 260.300 425.90 411.30 41.89 377.40
DSCMET_COMPS 2017-09-29 12:00:00   14.940 15.010 15.480 15.840 -15.440 -69.480   266.100 272.700 271.400 16.070 79.090 12.448 3.819 267.000 265.400 269.000 0.2700 317.600 0.798 266.000 421.20 409.50 37.19 339.80
DSCMET_COMPS 2017-09-29 11:55:00   14.900 15.010 15.470 15.840 -15.740 -69.200   266.600 275.000 274.100 16.100 79.880 12.628 3.681 268.700 265.700 271.600 0.1490 333.400 0.412 285.600 420.50 410.20 29.05 284.60
DSCMET_COMPS 2017-09-29 11:50:00   14.900 15.050 15.560 15.980 -16.040 -68.920   266.900 277.000 276.600 16.050 79.860 12.576 3.673 271.100 266.400 273.400 0.1650 284.600 0.377 261.100 422.70 412.00 23.61 244.40
DSCMET_COMPS 2017-09-29 11:45:00   14.780 15.010 15.600 16.310 -16.380 -68.660   267.600 280.100 281.100 16.210 77.480 12.271 4.150 275.500 267.900 275.900 0.2500 324.100 0.594 260.600 434.00 417.80 59.03 515.80
DSCMET_COMPS 2017-09-29 11:40:00   14.610 14.800 15.370 16.370 -16.720 -68.380   268.800 283.200 285.900 16.510 77.480 12.561 4.230 281.700 269.800 278.900 0.1800 317.000 0.504 271.000 437.10 419.80 75.26 652.80
DSCMET_COMPS 2017-09-29 11:35:00   14.390 14.490 15.180 15.740 -17.010 -68.130   269.500 286.600 290.600 15.970 80.700 12.657 3.502 288.800 272.000 282.200 0.2160 308.500 0.566 269.100 431.90 416.60 65.33 586.90
DSCMET_COMPS 2017-09-29 11:30:00   14.080 14.260 14.880 15.410 -17.350 -67.870   270.600 289.800 295.100 16.080 82.200 13.046 3.253 297.100 277.200 286.000 0.2190 332.300 0.374 263.500 432.90 417.50 65.70 602.80
DSCMET_COMPS 2017-09-29 11:25:00   14.010 14.260 14.610 15.080 -17.710 -67.600   271.800 293.400 299.200 15.490 84.300 12.855 2.763 304.400 284.400 291.300 0.2060 314.300 0.284 252.600 425.10 414.60 61.26 568.60
DSCMET_COMPS 2017-09-29 11:20:00   13.930 14.250 14.570 15.300 -18.060 -67.350   272.800 295.500 302.300 15.710 80.900 12.442 3.409 310.900 292.700 294.300 0.1850 319.300 0.322 222.500 420.10 409.00 26.02 274.30
DSCMET_COMPS 2017-09-29 11:15:00   13.780 13.950 14.240 14.670 -18.360 -67.120   274.100 298.100 306.900 15.850 86.200 13.549 2.485 320.300 306.800 302.500 0.0980 343.600 0.386 159.400 432.50 415.50 82.10 753.40
DSCMET_COMPS 2017-09-29 11:10:00   13.720 13.730 14.130 14.220 -18.650 -66.910   275.200 300.600 311.400 14.410 86.900 12.258 2.150 329.300 322.300 317.000 0.1730 318.900 0.214 278.900 417.40 407.80 48.64 476.40
DSCMET_COMPS 2017-09-29 11:05:00   13.650 13.630 14.050 14.170 -18.970 -66.690   276.000 303.900 314.700 14.230 88.100 12.289 1.931 338.300 344.800 330.100 0.2730 325.300 0.389 329.100 411.50 403.70 30.91 324.50
DSCMET_COMPS 2017-09-29 11:00:00   13.480 13.550 13.850 14.150 -19.230 -66.500   276.800 306.900 317.900 14.390 92.200 13.141 1.279 343.800 362.200 346.400 0.2470 327.100 0.227 18.470 412.70 402.40 33.87 352.10
DSCMET_COMPS 2017-09-29 10:55:00   13.350 13.520 13.670 13.970 -19.510 -66.290   277.400 308.400 320.300 14.280 93.900 13.312 0.993 347.900 371.700 358.900   0.000 0.086 318.100 409.10 399.50 33.67 345.20
DSCMET_COMPS 2017-09-29 10:50:00   13.310 13.460 13.500 13.730 -19.770 -66.100   277.700 309.500 322.000 14.070 94.000 13.120 0.963 351.000 378.100 371.300 0.1950 334.900 0.109 109.900 408.50 397.00 33.64 344.40
DSCMET_COMPS 2017-09-29 10:45:00   13.270 13.400 13.400 13.640 -20.030 -65.910   277.500 310.400 323.700 13.840 94.900 13.037 0.807 354.000 382.900 383.500 0.0770 44.380 0.201 158.500 403.90 393.70 23.79 246.70
DSCMET_COMPS 2017-09-29 10:40:00   13.170 13.320 13.380 13.520 -20.270 -65.730   278.100 311.300 326.200 13.500 90.500 11.977 1.470 357.700 388.400 397.400 0.0900 306.300 0.540 153.600 402.40 392.30 21.22 220.50
DSCMET_COMPS 2017-09-29 10:35:00   13.060 13.220 13.300 13.480 -20.520 -65.550   278.200 312.300 328.700 13.450 92.600 12.276 1.141 362.000 394.300 415.400 0.1470 81.300 0.460 188.700 402.80 391.50 23.85 248.70
DSCMET_COMPS 2017-09-29 10:30:00   12.940 13.090 13.220 13.280 -20.790 -65.360   278.500 313.200 330.600 13.290 94.100 12.362 0.901 365.300 398.800 431.600 0.1770 297.100 0.672 244.300 399.50 389.50 23.04 238.80
DSCMET_COMPS 2017-09-29 10:25:00   12.860 12.990 13.070 13.190 -21.090 -65.150   278.300 314.100 332.500 13.230 94.300 12.334 0.867 367.200 402.400 444.900 0.1350 241.200 0.490 232.100 395.90 387.10 16.92 178.70
DSCMET_COMPS 2017-09-29 10:20:00   12.790 12.830 12.890 13.060 -21.410 -64.930   278.800 314.500 333.200 13.010 93.000 11.905 1.049 367.700 401.800 453.200 0.0960 188.300 0.610 288.900 393.20 385.40 16.36 170.10
DSCMET_COMPS 2017-09-29 10:15:00   12.810 12.790 12.830 12.890 -21.820 -64.650   278.800 309.500 326.300 12.850 95.100 12.085 0.727 366.600 395.300 465.400 0.1000 277.500 0.956 308.000 389.90 383.60 11.44 118.80
DSCMET_COMPS 2017-09-29 10:10:00   12.860 12.810 12.820 12.830 -22.240 -64.370   278.800 306.400 319.900 12.920 94.800 12.107 0.775 363.700 373.700 452.800 0.1210 244.500 1.733 327.000 388.40 382.70 7.88 83.30
DSCMET_COMPS 2017-09-29 10:05:00   12.940 12.810 12.870 12.980 -22.750 -64.030   278.900 292.900 295.300 13.100 89.800 11.465 1.538 337.500 353.300 430.800 0.1880 11.240 0.916 346.500 388.00 382.30 7.15 73.36
DSCMET_COMPS 2017-09-29 10:00:00   13.010 12.900 12.950 12.980 -23.200 -63.760   275.000 283.800 282.200 13.160 89.600 11.490 1.574 304.300 307.300 413.000 0.3650 326.400 1.020 339.200 388.60 382.70 8.78 86.20
DSCMET_COMPS 2017-09-29 09:55:00   13.250 13.210 13.180 13.110 -23.640 -63.510   270.400 275.500 275.300 13.230 90.300 11.677 1.475 286.500 295.800 348.400 0.1890 53.440 0.213 77.670 388.10 382.60 8.92 78.73
DSCMET_COMPS 2017-09-29 09:50:00   13.390 13.380 13.440 13.440 -24.060 -63.290   267.700 267.900 266.600 13.470 86.800 11.316 2.038 269.000 273.100 274.200   0.000 0.743 296.100 387.30 382.60 6.17 55.00
DSCMET_COMPS 2017-09-29 09:45:00   13.190 13.260 13.440 13.550 -24.500 -63.080   265.800 265.900 264.600 13.510 86.200 11.251 2.137 265.300 266.100 265.900   0.000 0.843 261.800 387.10 382.30 7.04 60.93
DSCMET_COMPS 2017-09-29 09:40:00   13.180 13.250 13.460 13.590 -24.950 -62.880   265.300 265.900 264.600 13.530 86.000 11.236 2.171 265.200 265.900 265.900 0.1620 262.000 0.626 262.600 387.60 383.00 7.79 71.32
DSCMET_COMPS 2017-09-29 09:35:00   13.220 13.350 13.470 13.550 -25.400 -62.700   265.300 265.900 264.600 13.540 86.000 11.245 2.172 265.200 265.900 265.900 0.1710 262.900 0.583 270.700 388.40 383.60 9.30 87.80
DSCMET_COMPS 2017-09-29 09:30:00   13.230 13.350 13.450 13.530 -25.840 -62.530   265.600 265.900 264.600 13.500 86.800 11.346 2.042 265.200 265.900 265.900 0.2020 342.800 0.565 299.500 388.80 383.90 12.89 125.10
DSCMET_COMPS 2017-09-29 09:25:00   13.130 13.290 13.410 13.580 -26.290 -62.360   265.900 265.900 264.600 13.440 87.000 11.321 2.004 265.600 265.900 265.900 0.3270 307.100 0.964 279.200 388.90 383.80 15.21 156.50
DSCMET_COMPS 2017-09-29 09:20:00   12.980 13.150 13.250 13.420 -26.660 -62.220   265.900 265.900 264.800 13.330 87.000 11.213 1.989 265.600 265.900 265.900 0.3940 316.100 1.136 266.700 388.60 383.90 24.13 237.80
DSCMET_COMPS 2017-09-29 09:15:00   12.680 12.890 13.030 13.220 -27.000 -62.100   265.900 265.900 265.300 13.240 87.300 11.177 1.932 265.600 265.900 266.000 0.3000 302.700 1.059 269.400 386.50 382.50 19.78 198.90
DSCMET_COMPS 2017-09-29 09:10:00   12.270 12.550 12.810 13.110 -27.350 -61.980   265.900 265.900 265.700 13.100 89.200 11.363 1.628 265.900 266.100 266.200 0.2480 304.400 0.661 278.700 385.70 381.40 16.78 168.00
DSCMET_COMPS 2017-09-29 09:05:00   11.940 12.250 12.500 12.810 -27.650 -61.890   265.900 265.900 265.900 12.890 91.000 11.458 1.338 266.200 266.200 266.400 0.1070 289.000 0.658 310.000 384.70 380.80 21.82 205.40
DSCMET_COMPS 2017-09-29 09:00:00   11.940 12.180 12.290 12.460 -27.900 -61.810   265.900 265.900 266.300 12.560 92.300 11.345 1.120 266.200 266.200 266.600 0.2050 103.600 0.467 259.400 381.60 378.40 18.08 169.80
DSCMET_COMPS 2017-09-29 08:55:00   11.870 11.990 12.170 12.340 -28.180 -61.730   265.900 266.300 266.600 12.430 92.000 11.167 1.154 266.600 266.200 266.600 0.2620 333.300 0.798 282.600 379.20 376.50 10.75 107.50
DSCMET_COMPS 2017-09-29 08:50:00   11.570 11.770 12.050 12.160 -28.460 -61.650   266.000 266.600 266.600 12.150 93.800 11.182 0.878 266.800 266.200 266.600 0.1480 256.300 0.568 266.500 378.70 375.70 8.41 85.50
DSCMET_COMPS 2017-09-29 08:45:00   11.440 11.630 11.900 12.090 -28.750 -61.570   266.600 266.600 266.900 12.080 93.800 11.112 0.874 267.000 266.200 266.600 0.1540 298.900 0.462 302.500 377.90 375.40 8.06 83.30
DSCMET_COMPS 2017-09-29 08:40:00   11.350 11.530 11.740 12.050 -28.990 -61.510   266.600 266.600 267.300 12.130 92.700 10.984 1.033 267.200 266.200 266.700   0.000 0.342 217.700 377.60 374.80 6.14 64.41
DSCMET_COMPS 2017-09-29 08:35:00   11.280 11.480 11.690 11.950 -29.250 -61.450   266.600 266.600 267.300 12.070 92.700 10.925 1.029 267.600 266.600 267.500 0.0520 96.700 0.172 174.400 377.60 374.80 7.54 77.57
DSCMET_COMPS 2017-09-29 08:30:00   11.210 11.390 11.560 11.780 -29.460 -61.410   266.600 266.900 267.300 11.980 93.100 10.901 0.966 267.900 266.900 269.300 0.0530 110.900 0.160 196.700 377.30 374.50 8.89 87.10
DSCMET_COMPS 2017-09-29 08:25:00   11.100 11.250 11.420 11.630 -29.700 -61.360   266.600 267.300 267.300 11.830 93.500 10.816 0.901 268.200 267.100 271.600 0.0820 89.000 0.204 197.800 376.50 373.70 9.06 86.10
DSCMET_COMPS 2017-09-29 08:20:00   11.000 11.130 11.350 11.570 -29.880 -61.320   266.600 267.300 267.700 11.680 94.600 10.843 0.741 268.500 267.300 275.500 0.1220 97.800 0.166 186.000 376.00 373.10 9.09 87.20
DSCMET_COMPS 2017-09-29 08:15:00   10.890 11.030 11.220 11.370 -30.050 -61.290   266.600 267.300 268.000 11.550 94.700 10.730 0.722 268.800 267.600 280.000 0.1160 265.700 0.266 294.000 375.20 372.50 9.67 91.60
DSCMET_COMPS 2017-09-29 08:10:00   10.800 10.900 11.070 11.270 -30.210 -61.260   266.600 267.300 268.000 11.510 94.400 10.642 0.760 268.900 267.600 284.900 0.1440 45.290 0.390 227.500 374.30 371.60 9.82 92.10
DSCMET_COMPS 2017-09-29 08:05:00   10.760 10.890 11.120 11.290 -30.360 -61.230   266.600 267.300 268.000 11.430 95.000 10.658 0.675 269.000 267.900 290.000 0.2100 122.000 0.256 274.700 373.20 370.50 8.83 82.40
DSCMET_COMPS 2017-09-29 08:00:00   10.670 10.740 10.980 11.060 -30.520 -61.210   266.600 267.300 268.000 11.200 95.200 10.461 0.638 268.300 267.600 293.100 0.1980 84.400 0.421 284.400 372.20 369.20 6.76 63.30
DSCMET_COMPS 2017-09-29 07:55:00   10.590 10.720 10.890 11.000 -30.690 -61.190   265.700 266.600 266.800 11.190 94.200 10.293 0.771 266.200 266.300 296.600 0.2020 268.700 0.351 244.800 371.70 368.10 7.33 66.81
DSCMET_COMPS 2017-09-29 07:50:00   10.540 10.650 10.770 10.900 -30.850 -61.160   265.300 266.400 266.500 11.100 94.900 10.314 0.674 265.800 266.300 301.100 0.1600 214.700 0.175 271.200 370.90 365.80 7.11 62.64
DSCMET_COMPS 2017-09-29 07:45:00   10.450 10.560 10.750 10.930 -30.960 -61.150   265.300 265.900 264.600 11.230 93.600 10.237 0.853 265.600 266.300 300.300 0.1520 95.200 0.203 33.800 370.00 364.40 5.91 52.07
DSCMET_COMPS 2017-09-29 07:40:00   10.400 10.480 10.680 10.800 -31.060 -61.130   265.300 265.900 264.600 10.990 94.500 10.142 0.721 265.600 266.300 302.200 0.0540 106.400 0.285 331.700 369.30 363.40 4.82 41.56
DSCMET_COMPS 2017-09-29 07:35:00   10.340 10.430 10.620 10.720 -31.130 -61.130   265.300 266.000 264.600 10.870 94.800 10.070 0.677 265.600 266.300 304.800 0.1680 241.500 0.272 277.300 368.80 362.50 4.38 37.62
DSCMET_COMPS 2017-09-29 07:30:00   10.260 10.390 10.560 10.640 -31.230 -61.120   265.300 266.000 264.600 10.760 95.300 10.039 0.607 265.600 266.300 307.400   0.000 0.093 114.300 368.50 362.40 4.30 36.34
DSCMET_COMPS 2017-09-29 07:25:00   10.230 10.370 10.510 10.600 -31.300 -61.110   265.300 266.000 264.600 10.730 95.000 9.962 0.645 265.600 266.300 310.800 0.0760 115.500 0.828 62.820 368.20 361.70 5.61 47.06
DSCMET_COMPS 2017-09-29 07:20:00   10.160 10.200 10.350 10.450 -31.370 -61.100   265.300 266.000 264.600 10.610 95.800 9.968 0.537 265.600 266.300 314.800 0.1490 90.400 0.757 58.590 367.70 359.20 7.88 64.34
DSCMET_COMPS 2017-09-29 07:15:00   10.130 10.120 10.210 10.290 -31.450 -61.090   265.300 266.000 264.600 10.490 96.000 9.880 0.508 265.600 266.300 317.300 0.1560 91.000 0.328 63.000 366.50 356.90 7.87 63.83
DSCMET_COMPS 2017-09-29 07:10:00   10.070 10.070 10.130 10.240 -31.510 -61.080   265.200 266.000 264.600 10.370 96.200 9.791 0.478 265.600 266.300 318.600 0.1230 239.400 0.286 70.810 365.70 354.40 7.22 56.72
DSCMET_COMPS 2017-09-29 07:05:00   10.030 9.990 10.100 10.300 -31.510 -61.080   265.200 265.900 264.600 10.410 96.100 9.816 0.492 265.600 266.300 319.900 0.1290 99.100 0.826 69.920 364.80 354.10 5.85 45.69
DSCMET_COMPS 2017-09-29 07:00:00   10.030 9.960 10.040 10.180 -31.550 -61.080   265.300 266.000 264.600 10.290 96.900 9.820 0.388 265.600 266.300 321.200 0.1550 62.350 0.570 58.600 364.00 355.60 3.92 30.31
DSCMET_COMPS 2017-09-29 06:55:00   9.940 9.880 9.970 10.060 -31.570 -61.070   265.000 266.000 264.600 10.220 96.600 9.704 0.424 265.500 266.300 321.600 0.1110 80.100 0.392 67.290 363.60 355.00 2.78 20.13
DSCMET_COMPS 2017-09-29 06:50:00   9.970 9.880 10.010 10.130 -31.580 -61.070   265.200 266.000 264.600 10.340 96.900 9.870 0.389 265.600 266.300 322.000 0.1670 103.200 0.476 67.630 363.30 354.60 1.99 14.30
DSCMET_COMPS 2017-09-29 06:45:00   9.960 9.880 9.960 10.130 -31.600 -61.080   265.300 266.000 264.600 10.410 96.600 9.893 0.429 265.600 266.300 322.200 0.1140 69.850 0.373 33.120 363.30 356.20 1.23 8.00
DSCMET_COMPS 2017-09-29 06:40:00   9.970 9.910 10.000 10.140 -31.650 -61.070   265.200 266.000 264.600 10.470 96.300 9.906 0.469 265.600 266.300 322.400 0.1870 157.500 0.386 328.800 362.90 356.20 1.03 5.21
DSCMET_COMPS 2017-09-29 06:35:00   9.890 9.860 9.960 10.070 -31.660 -61.070   265.100 266.000 264.600 10.310 96.700 9.809 0.414 265.600 266.300 322.600 0.1240 66.370 0.674 58.160 363.00 356.20 1.05 4.14
DSCMET_COMPS 2017-09-29 06:30:00   9.920 9.840 9.910 10.030 -31.700 -61.060   265.000 266.000 264.600 10.310 96.100 9.716 0.489 265.400 266.300 322.900 0.1860 93.700 0.411 96.100 363.00 356.20 0.88 3.31
DSCMET_COMPS 2017-09-29 06:25:00   9.960 9.880 9.960 10.170 -31.720 -61.050   265.100 266.000 264.600 10.350 96.300 9.787 0.465 265.600 266.300 323.200   0.000 0.209 331.100 363.00 357.50 0.83 2.68
DSCMET_COMPS 2017-09-29 06:20:00   9.880 9.850 9.960 10.070 -31.720 -61.050   264.900 266.000 264.600 10.340 96.300 9.777 0.465 265.500 266.300 323.500 0.1920 191.200 0.161 127.100 362.80 357.80 1.14 3.61
DSCMET_COMPS 2017-09-29 06:15:00   9.870 9.820 9.890 10.030 -31.730 -61.050   264.900 266.000 264.600 10.280 96.700 9.779 0.413 265.500 266.300 323.700 0.1300 90.000 0.386 55.550 362.50 357.60 0.99 2.47
DSCMET_COMPS 2017-09-29 06:10:00   9.870 9.810 9.860 9.990 -31.780 -61.040   264.900 266.000 264.600 10.260 96.900 9.790 0.387 265.300 266.300 323.700 0.1270 103.500 0.124 49.090 362.30 357.20 0.96 1.54
DSCMET_COMPS 2017-09-29 06:05:00   9.890 9.820 9.860 10.050 -31.780 -61.040   265.000 266.000 264.600 10.260 97.100 9.821 0.362 265.300 266.300 323.700 0.1120 115.400 0.227 303.800 362.10 356.80 0.63 0.69
DSCMET_COMPS 2017-09-29 06:00:00   9.840 9.770 9.830 9.990 -31.790 -61.040   264.800 265.900 264.600 10.240 96.900 9.770 0.387 265.300 266.300 323.400 0.0450 88.400 0.044 279.300 362.00 356.60 0.66 -0.02
DSCMET_COMPS 2017-09-29 05:55:00   9.890 9.780 9.850 9.980 -31.780 -61.030   264.800 265.900 264.600 10.220 96.900 9.750 0.386 265.300 266.300 323.200 0.1140 105.000 0.154 30.790 361.80 356.50 0.57 -0.18
DSCMET_COMPS 2017-09-29 05:50:00   9.840 9.770 9.850 9.930 -31.780 -61.020   264.800 265.900 264.600 10.170 96.900 9.700 0.385 265.300 266.300 323.000 0.0870 250.900 0.205 326.100 361.70 356.50 0.71 -0.36
DSCMET_COMPS 2017-09-29 05:45:00   9.810 9.750 9.850 9.920 -31.750 -61.030   265.100 265.900 264.600 10.150 96.800 9.665 0.397 265.300 266.300 323.000 0.1710 119.200 0.579 52.410 361.40 356.30 0.55 -0.31
DSCMET_COMPS 2017-09-29 05:40:00   9.760 9.730 9.840 9.880 -31.720 -61.030   264.800 265.900 264.600 10.130 97.100 9.691 0.359 265.300 266.300 322.800 0.1280 86.600 0.298 69.720 361.20 355.70 0.81 -0.51
DSCMET_COMPS 2017-09-29 05:35:00   9.750 9.720 9.810 9.850 -31.720 -61.030   264.800 265.900 264.600 10.020 97.000 9.566 0.369 265.300 266.300 322.500 0.1210 89.000 1.005 60.350 360.90 354.90 0.94 -0.52
DSCMET_COMPS 2017-09-29 05:30:00   9.760 9.680 9.770 9.870 -31.700 -61.020   264.800 265.900 264.600 10.100 97.100 9.661 0.358 265.300 266.300 321.900 0.1360 89.800 0.589 65.700 360.40 353.50 0.64 -0.82
DSCMET_COMPS 2017-09-29 05:25:00   9.800 9.690 9.820 9.940 -31.650 -61.030   264.700 265.900 264.600 10.130 96.800 9.645 0.396 265.300 266.300 321.000 0.1460 79.440 1.520 54.140 360.20 351.70 0.52 -1.20
DSCMET_COMPS 2017-09-29 05:20:00   9.790 9.750 9.840 9.840 -31.640 -61.020   264.800 265.900 264.600 10.180 96.600 9.664 0.423 265.300 266.300 319.900 0.1240 102.100 0.127 86.200 360.40 350.90 0.87 -1.46
DSCMET_COMPS 2017-09-29 05:15:00   9.790 9.750 9.890 9.930 -31.600 -61.030   265.200 266.000 264.600 10.200 96.600 9.684 0.423 265.300 266.300 319.200   0.000 0.244 65.140 360.90 352.40 0.73 -0.82
DSCMET_COMPS 2017-09-29 05:10:00   9.770 9.710 9.800 9.880 -31.580 -61.020   265.200 266.000 264.600 10.170 96.700 9.670 0.410 265.300 266.300 319.100 0.0930 87.300 1.044 55.780 361.00 355.00 0.87 -0.38
DSCMET_COMPS 2017-09-29 05:05:00   9.750 9.660 9.730 9.860 -31.520 -61.030   264.700 266.000 264.600 10.250 96.200 9.672 0.474 265.300 266.300 318.900 0.0920 85.100 0.450 59.180 360.50 354.50 0.93 -0.53
DSCMET_COMPS 2017-09-29 05:00:00   9.800 9.680 9.770 9.990 -31.470 -61.030   265.100 265.900 264.600 10.260 96.400 9.713 0.450 265.300 266.300 318.600 0.1810 97.300 0.681 63.520 360.20 352.60 0.70 -0.67
DSCMET_COMPS 2017-09-29 04:55:00   9.750 9.660 9.780 9.920 -31.420 -61.040   265.200 266.000 264.600 10.220 96.900 9.750 0.386 265.300 266.300 318.000 0.0920 65.130 0.431 38.920 360.10 352.10 0.67 -0.62
DSCMET_COMPS 2017-09-29 04:50:00   9.740 9.690 9.770 9.800 -31.360 -61.040   264.800 265.900 264.600 10.120 96.500 9.589 0.433 265.300 266.300 317.100 0.1640 94.300 0.207 66.880 359.90 351.90 0.69 -0.85
DSCMET_COMPS 2017-09-29 04:45:00   9.760 9.700 9.790 9.920 -31.310 -61.040   264.800 266.000 264.600 10.270 96.700 9.769 0.413 265.300 266.300 316.500 0.1890 93.000 0.392 76.340 359.90 351.80 0.56 -0.69
DSCMET_COMPS 2017-09-29 04:40:00   9.780 9.730 9.850 9.990 -31.250 -61.050   265.200 266.000 264.600 10.250 97.300 9.841 0.337 265.300 266.600 315.600 0.1870 43.100 0.601 28.820 359.90 351.90 0.71 -0.74
DSCMET_COMPS 2017-09-29 04:35:00   9.750 9.700 9.740 9.770 -31.170 -61.050   265.000 266.000 264.600 10.040 97.300 9.632 0.332 265.300 266.600 314.100 0.0770 82.900 0.324 59.060 359.80 350.50 0.93 -0.96
DSCMET_COMPS 2017-09-29 04:30:00   9.760 9.740 9.760 9.800 -31.100 -61.060   265.000 266.000 264.600 10.020 97.200 9.597 0.344 265.300 266.600 312.900 0.1700 94.700 0.175 122.800 359.60 351.00 0.99 -0.88
DSCMET_COMPS 2017-09-29 04:25:00   9.740 9.690 9.730 9.780 -31.040 -61.070   264.700 266.000 264.600 10.090 96.900 9.621 0.383 265.300 266.600 311.600 0.1000 83.200 0.690 63.730 359.50 351.50 1.03 -0.85
DSCMET_COMPS 2017-09-29 04:20:00   9.760 9.730 9.780 9.870 -30.990 -61.070   264.700 265.900 264.600 10.150 97.000 9.696 0.372 265.300 266.600 309.900 0.1490 90.900 1.116 63.870 359.20 351.00 0.95 -0.87
DSCMET_COMPS 2017-09-29 04:15:00   9.820 9.730 9.760 9.890 -30.970 -61.080   264.600 265.900 264.600 10.160 97.400 9.767 0.323 265.300 266.600 307.500 0.1630 89.100 0.703 62.740 358.80 348.50 0.87 -1.27
DSCMET_COMPS 2017-09-29 04:10:00   9.870 9.790 9.800 9.970 -30.950 -61.070   264.900 265.900 264.600 10.150 97.200 9.726 0.347 265.300 266.600 305.200   0.000 0.355 46.460 358.80 347.90 0.79 -1.49
DSCMET_COMPS 2017-09-29 04:05:00   9.840 9.760 9.840 9.940 -30.900 -61.080   264.900 265.900 264.600 10.150 96.800 9.665 0.397 265.300 266.600 303.100   0.000 0.369 53.640 358.90 348.30 0.79 -1.54
DSCMET_COMPS 2017-09-29 04:00:00   9.860 9.760 9.860 10.000 -30.890 -61.080   264.700 266.000 264.600 10.240 96.600 9.724 0.424 265.300 266.600 301.200 0.1340 86.700 0.287 63.340 359.20 347.40 1.13 -1.87
DSCMET_COMPS 2017-09-29 03:55:00   9.920 9.850 9.850 10.020 -30.840 -61.090   264.600 265.900 264.600 10.350 96.000 9.741 0.503 265.300 266.300 299.600 0.1230 94.400 0.116 54.460 359.40 347.50 0.87 -1.96
DSCMET_COMPS 2017-09-29 03:50:00   9.940 9.850 9.930 10.080 -30.840 -61.090   265.000 265.900 264.600 10.440 96.500 9.908 0.443 265.300 266.300 298.300 0.1650 100.300 0.691 51.850 359.90 348.20 0.86 -1.72
DSCMET_COMPS 2017-09-29 03:45:00   9.930 9.900 9.990 10.100 -30.770 -61.100   265.200 265.900 264.600 10.330 96.800 9.844 0.402 265.300 266.300 296.900 0.1210 78.190 0.541 52.880 359.90 348.40 0.72 -1.54
DSCMET_COMPS 2017-09-29 03:40:00   9.940 9.870 9.920 9.950 -30.760 -61.100   264.700 265.900 264.600 10.230 96.400 9.683 0.449 265.300 266.300 295.500 0.1410 64.740 0.237 69.590 360.40 348.70 0.79 -1.69
DSCMET_COMPS 2017-09-29 03:35:00   10.000 9.920 10.020 10.110 -30.710 -61.110   264.700 265.900 264.600 10.420 96.200 9.841 0.480 265.300 266.300 294.500 0.2030 108.300 0.382 74.340 360.60 349.70 0.73 -1.52
DSCMET_COMPS 2017-09-29 03:30:00   10.040 9.950 10.030 10.140 -30.740 -61.100   264.800 265.900 264.600 10.440 96.500 9.908 0.443 265.300 266.300 293.300 0.1180 99.300 0.788 50.630 360.70 349.20 1.18 -1.54
DSCMET_COMPS 2017-09-29 03:25:00   10.140 9.980 10.010 10.090 -30.700 -61.100   264.800 266.000 264.600 10.350 96.300 9.787 0.465 265.300 266.100 292.200 0.1040 146.400 0.198 18.640 360.60 349.40 0.78 -1.62
DSCMET_COMPS 2017-09-29 03:20:00   10.080 10.030 10.060 10.110 -30.650 -61.110   264.800 266.000 264.600 10.440 96.000 9.830 0.506 265.300 266.000 291.600 0.1280 123.400 0.255 129.000 360.90 349.90 0.92 -1.55
DSCMET_COMPS 2017-09-29 03:15:00   10.080 10.020 10.130 10.160 -30.590 -61.120   264.700 266.000 264.600 10.540 95.800 9.899 0.535 265.300 265.900 291.100 0.1270 92.200 0.495 62.730 361.40 351.00 0.57 -1.36
DSCMET_COMPS 2017-09-29 03:10:00   10.100 10.070 10.190 10.240 -30.560 -61.120   265.100 265.900 264.600 10.510 95.800 9.869 0.534 265.300 265.900 290.700 0.1570 88.800 0.427 65.950 361.60 351.50 0.66 -1.44
DSCMET_COMPS 2017-09-29 03:05:00   10.110 10.090 10.220 10.270 -30.500 -61.140   264.800 265.900 264.600 10.600 95.300 9.880 0.601 265.300 265.900 290.500 0.1490 89.900 0.629 64.470 361.90 351.50 0.94 -1.51
DSCMET_COMPS 2017-09-29 03:00:00   10.140 10.110 10.260 10.330 -30.440 -61.140   264.800 265.900 264.600 10.640 95.200 9.904 0.615 265.300 265.900 290.200   0.000 0.660 62.930 362.10 352.00 0.67 -1.25
DSCMET_COMPS 2017-09-29 02:55:00   10.140 10.120 10.240 10.310 -30.390 -61.150   264.700 266.000 264.600 10.600 95.300 9.880 0.601 265.300 265.900 290.200 0.1150 100.700 0.700 55.130 362.40 352.70 0.88 -1.16
DSCMET_COMPS 2017-09-29 02:50:00   10.170 10.150 10.280 10.390 -30.350 -61.160   265.100 265.900 264.600 10.710 95.000 9.942 0.644 265.300 265.900 290.200 0.1630 107.200 0.545 42.620 362.50 353.40 1.03 -1.01
DSCMET_COMPS 2017-09-29 02:45:00   10.170 10.150 10.250 10.350 -30.290 -61.180   265.300 265.900 264.600 10.680 95.300 9.960 0.604 265.300 265.900 290.200 0.0810 90.000 0.262 55.520 362.70 354.30 0.95 -0.85
DSCMET_COMPS 2017-09-29 02:40:00   10.160 10.150 10.210 10.300 -30.200 -61.200   265.300 265.900 264.600 10.660 95.400 9.955 0.590 265.300 265.900 290.200 0.1300 107.800 0.281 61.410 362.60 355.00 0.77 -0.62
DSCMET_COMPS 2017-09-29 02:35:00   10.160 10.110 10.180 10.290 -30.120 -61.220   265.200 265.900 264.600 10.600 96.000 9.989 0.511 265.300 265.900 290.300 0.1650 90.100 0.407 69.040 362.60 355.00 0.69 -0.64
DSCMET_COMPS 2017-09-29 02:30:00   10.130 10.090 10.160 10.190 -30.000 -61.250   265.200 265.900 264.600 10.480 96.300 9.916 0.469 265.300 265.900 289.900 0.1260 89.900 0.258 60.820 362.30 354.60 0.62 -0.65
DSCMET_COMPS 2017-09-29 02:25:00   10.120 10.100 10.150 10.140 -29.870 -61.280   264.800 265.900 264.600 10.480 96.100 9.885 0.494 265.300 265.900 289.300 0.1050 85.900 0.191 72.940 361.90 353.30 0.76 -0.75
DSCMET_COMPS 2017-09-29 02:20:00   10.150 10.150 10.210 10.200 -29.740 -61.320   264.700 265.900 264.600 10.520 95.900 9.894 0.521 265.300 265.900 288.700 0.1540 90.300 0.594 71.380 361.60 351.70 1.30 -1.19
DSCMET_COMPS 2017-09-29 02:15:00   10.200 10.190 10.300 10.340 -29.630 -61.350   264.700 265.900 264.600 10.590 96.200 10.010 0.485 265.300 265.900 288.000 0.1820 105.800 0.281 47.650 361.40 350.80 0.74 -0.89
DSCMET_COMPS 2017-09-29 02:10:00   10.240 10.210 10.310 10.360 -29.490 -61.390   265.200 265.900 264.600 10.650 95.300 9.930 0.603 265.300 265.900 287.300 0.1080 91.800 0.731 48.450 361.10 350.20 0.59 -0.77
DSCMET_COMPS 2017-09-29 02:05:00   10.220 10.200 10.290 10.350 -29.350 -61.440   265.200 265.900 264.600 10.710 95.500 10.021 0.579 265.300 265.900 286.900 0.0940 89.300 0.830 60.270 361.00 349.60 1.12 -1.31
DSCMET_COMPS 2017-09-29 02:00:00   10.240 10.210 10.330 10.450 -29.190 -61.490   265.000 265.900 264.600 10.710 95.700 10.052 0.554 265.300 265.900 286.300 0.1840 89.900 0.616 65.140 361.00 349.10 1.00 -1.44
DSCMET_COMPS 2017-09-29 01:55:00   10.260 10.210 10.300 10.330 -29.060 -61.530   264.800 265.900 264.600 10.560 96.000 9.950 0.510 265.300 265.900 285.300   0.000 0.211 67.440 361.00 348.70 0.67 -1.45
DSCMET_COMPS 2017-09-29 01:50:00   10.290 10.250 10.350 10.430 -28.920 -61.580   264.900 265.900 264.600 10.700 95.500 10.011 0.579 265.300 265.900 284.200   0.000 0.811 59.170 361.10 348.40 0.62 -1.18
DSCMET_COMPS 2017-09-29 01:45:00   10.310 10.260 10.350 10.360 -28.770 -61.630   265.000 265.900 264.600 10.670 95.900 10.043 0.526 265.300 266.000 282.900 0.1480 89.900 0.432 69.240 361.10 348.10 1.30 -1.48
DSCMET_COMPS 2017-09-29 01:40:00   10.350 10.310 10.380 10.390 -28.600 -61.700   265.100 265.900 264.600 10.680 95.900 10.053 0.527 265.300 265.900 281.400 0.1720 90.400 0.258 63.020 360.90 347.80 1.11 -1.67
DSCMET_COMPS 2017-09-29 01:35:00   10.370 10.330 10.410 10.420 -28.440 -61.760   265.000 265.900 264.600 10.720 95.700 10.062 0.554 265.300 266.000 279.900 0.1630 95.700 0.427 49.770 361.10 347.60 0.72 -1.60
DSCMET_COMPS 2017-09-29 01:30:00   10.400 10.330 10.390 10.410 -28.270 -61.820   265.000 265.900 264.600 10.820 95.200 10.083 0.623 265.300 265.900 278.400 0.1380 92.700 0.324 57.360 361.40 347.30 0.73 -1.74
DSCMET_COMPS 2017-09-29 01:25:00   10.430 10.380 10.460 10.470 -28.120 -61.890   265.000 265.900 264.600 10.850 95.300 10.129 0.611 265.300 265.900 277.300 0.1340 89.600 0.480 72.540 361.40 347.20 1.12 -1.75
DSCMET_COMPS 2017-09-29 01:20:00   10.510 10.450 10.540 10.540 -27.970 -61.950   265.100 265.900 264.600 10.970 94.900 10.185 0.668 265.200 265.900 276.200 0.1330 94.800 0.419 68.430 361.50 347.00 1.39 -1.72
DSCMET_COMPS 2017-09-29 01:15:00   10.560 10.530 10.620 10.620 -27.800 -62.020   265.200 265.900 264.600 11.080 94.500 10.231 0.726 265.200 265.900 275.400 0.1550 90.600 0.560 65.770 361.40 347.10 0.65 -1.56
DSCMET_COMPS 2017-09-29 01:10:00   10.560 10.530 10.620 10.590 -27.600 -62.100   265.000 265.900 264.600 11.070 94.600 10.237 0.712 265.200 265.900 274.600 0.1410 88.600 0.352 65.350 361.60 347.00 1.12 -1.88
DSCMET_COMPS 2017-09-29 01:05:00   10.590 10.570 10.650 10.670 -27.430 -62.180   265.000 265.900 264.600 11.120 94.600 10.287 0.714 265.200 265.900 273.800 0.1960 88.100 0.287 75.980 361.90 347.20 0.92 -2.05
DSCMET_COMPS 2017-09-29 01:00:00   10.640 10.600 10.700 10.720 -27.240 -62.270   265.100 265.900 264.600 11.050 94.900 10.265 0.672 265.200 265.900 273.100 0.2000 87.700 0.444 66.170 362.20 347.00 1.19 -2.27
DSCMET_COMPS 2017-09-29 00:55:00   10.660 10.630 10.780 10.780 -27.050 -62.350   265.000 265.900 264.600 11.100 94.700 10.283 0.700 265.200 265.900 272.000 0.1490 92.600 0.675 39.060 362.60 347.10 0.80 -1.93
DSCMET_COMPS 2017-09-29 00:50:00   10.720 10.670 10.830 10.880 -26.890 -62.430   265.200 265.900 264.600 11.270 94.200 10.372 0.775 265.200 265.900 271.300 0.1470 92.000 1.143 42.070 362.70 347.20 1.00 -1.86
DSCMET_COMPS 2017-09-29 00:45:00   10.690 10.680 10.880 10.990 -26.710 -62.520   265.300 265.900 264.600 11.230 94.700 10.412 0.706 265.200 265.900 271.100   0.000 0.897 30.540 363.10 347.40 0.95 -1.73
DSCMET_COMPS 2017-09-29 00:40:00   10.690 10.640 10.720 10.800 -26.530 -62.610   265.300 265.900 264.600 11.090 95.300 10.367 0.621 265.200 265.900 270.700 0.1720 68.010 0.566 43.530 362.50 347.40 0.84 -1.91
DSCMET_COMPS 2017-09-29 00:35:00   10.760 10.760 10.790 10.830 -26.340 -62.710   265.200 265.800 264.600 11.100 95.100 10.346 0.647 265.200 265.900 270.100 0.2070 82.000 0.385 74.870 363.10 347.50 1.03 -2.13
DSCMET_COMPS 2017-09-29 00:30:00   10.810 10.790 10.860 10.920 -26.160 -62.810   265.200 265.900 264.600 11.120 95.500 10.429 0.595 265.200 265.900 269.800 0.2420 89.500 0.544 63.800 363.40 347.50 0.98 -2.02
DSCMET_COMPS 2017-09-29 00:25:00   10.820 10.770 10.820 10.820 -25.970 -62.900   265.300 265.900 264.600 11.170 94.900 10.384 0.677 265.200 265.900 269.100 0.0930 85.300 0.484 51.660 363.60 347.60 0.80 -1.87
DSCMET_COMPS 2017-09-29 00:20:00   10.840 10.810 10.890 10.900 -25.790 -63.000   265.000 265.900 264.600 11.290 94.700 10.472 0.709 265.200 265.900 268.800 0.1200 89.000 0.780 72.350 364.10 347.60 1.31 -1.80
DSCMET_COMPS 2017-09-29 00:15:00   10.950 10.890 11.010 11.080 -25.600 -63.100   265.000 265.900 264.600 11.430 93.900 10.483 0.824 265.200 265.900 268.500 0.2270 95.000 0.394 78.110 363.70 347.50 0.94 -2.01
DSCMET_COMPS 2017-09-29 00:10:00   11.030 10.950 11.100 11.170 -25.470 -63.180   265.300 265.900 264.600 11.700 92.900 10.591 0.976 265.200 265.900 268.300 0.1440 103.000 1.195 50.930 363.70 347.70 0.64 -1.99
DSCMET_COMPS 2017-09-29 00:05:00   11.010 10.920 11.020 11.110 -25.280 -63.280   265.200 265.900 264.600 11.460 94.500 10.609 0.744 265.200 265.900 268.800 0.0900 94.000 1.208 57.970 364.00 347.60 0.99 -1.82
DSCMET_COMPS 2017-09-29 00:00:00   11.080 11.030 11.080 11.110 -25.070 -63.400   265.100 265.900 264.600 11.410 94.500 10.559 0.742 265.200 265.900 268.100 0.1440 84.800 0.180 80.400 364.20 347.50 1.07 -2.23
DSCMET_COMPS 2017-09-28 23:55:00   11.150 11.110 11.200 11.250 -24.920 -63.500   265.200 265.900 264.600 11.610 94.000 10.678 0.820 265.200 265.900 267.800 0.1750 95.400 0.854 67.300 364.30 347.60 0.86 -2.06
DSCMET_COMPS 2017-09-28 23:50:00   11.210 11.100 11.180 11.340 -24.750 -63.590   265.200 265.900 264.600 11.830 93.400 10.800 0.915 265.200 265.900 267.300 0.1720 93.500 0.581 44.260 364.80 347.50 1.00 -2.14
DSCMET_COMPS 2017-09-28 23:45:00   11.270 11.110 11.180 11.480 -24.600 -63.690   265.300 265.900 264.600 11.950 92.600 10.790 1.034 265.200 265.900 267.100 0.0820 155.600 0.701 31.180 364.70 347.30 1.08 -1.98
DSCMET_COMPS 2017-09-28 23:40:00   11.280 11.170 11.240 11.360 -24.420 -63.810   265.300 265.900 264.600 11.780 93.500 10.767 0.898 265.100 265.900 266.900 0.1220 89.000 0.422 109.600 365.00 347.40 1.15 -2.21
DSCMET_COMPS 2017-09-28 23:35:00   11.300 11.200 11.280 11.310 -24.240 -63.930   265.300 265.900 264.600 11.690 93.500 10.677 0.893 265.000 265.900 266.700   0.000 0.215 246.700 365.00 347.60 1.03 -2.11
DSCMET_COMPS 2017-09-28 23:30:00   11.330 11.260 11.400 11.490 -24.060 -64.050   265.300 265.900 264.600 12.050 92.000 10.791 1.126 265.100 265.900 267.100 0.1780 89.800 1.608 58.100 365.50 347.80 0.87 -2.04
DSCMET_COMPS 2017-09-28 23:25:00   11.340 11.250 11.280 11.310 -23.860 -64.180   265.300 265.800 264.600 11.670 94.700 10.849 0.727 265.000 265.900 268.000 0.1120 93.300 1.089 54.840 365.90 347.50 1.53 -1.95
DSCMET_COMPS 2017-09-28 23:20:00   11.360 11.340 11.370 11.360 -23.680 -64.300   265.300 265.800 264.600 11.630 94.700 10.809 0.725 264.900 265.900 267.500 0.1030 84.800 0.178 69.730 365.40 347.60 0.84 -2.43
DSCMET_COMPS 2017-09-28 23:15:00   11.390 11.360 11.410 11.390 -23.470 -64.440   265.300 265.800 264.600 11.630 95.200 10.888 0.657 264.900 265.900 267.100 0.1100 90.300 0.862 42.410 365.60 347.80 0.67 -1.88
DSCMET_COMPS 2017-09-28 23:10:00   11.450 11.430 11.480 11.430 -23.260 -64.580   265.300 265.900 264.600 11.790 94.000 10.857 0.830 264.900 265.700 266.700 0.1360 84.000 0.376 74.450 366.10 347.70 0.70 -1.86
DSCMET_COMPS 2017-09-28 23:05:00   11.540 11.500 11.550 11.480 -23.050 -64.720   265.300 265.800 264.600 11.880 94.000 10.946 0.835 264.900 265.500 266.500 0.1400 88.400 0.310 78.790 366.50 347.80 0.64 -1.85
DSCMET_COMPS 2017-09-28 23:00:00   11.640 11.600 11.680 11.670 -22.840 -64.860   265.300 265.800 264.600 12.010 94.000 11.075 0.842 264.900 265.500 266.200 0.2050 87.500 0.671 71.420 366.40 347.70 0.52 -1.84
DSCMET_COMPS 2017-09-28 22:55:00   11.700 11.660 11.810 11.850 -22.650 -65.010   265.300 265.900 264.600 12.210 92.900 11.096 1.010 264.900 265.500 266.100 0.2310 90.100 1.579 55.580 366.70 347.50 0.86 -1.99
DSCMET_COMPS 2017-09-28 22:50:00   11.780 11.690 11.820 11.960 -22.470 -65.130   265.300 265.900 264.600 12.430 91.900 11.151 1.169 264.900 265.500 266.200 0.2200 90.900 1.242 56.710 366.80 347.30 0.57 -1.95
DSCMET_COMPS 2017-09-28 22:45:00   11.820 11.730 11.870 12.050 -22.330 -65.250   265.300 265.900 264.600 12.520 91.800 11.224 1.190 264.900 265.500 266.200 0.1260 92.400 0.643 43.060 366.90 346.90 1.26 -1.99
DSCMET_COMPS 2017-09-28 22:40:00   11.890 11.820 11.920 12.080 -22.200 -65.360   265.300 265.900 264.600 12.450 92.300 11.236 1.112 264.900 265.500 266.000 0.1470 110.800 0.483 63.060 366.80 346.80 0.68 -1.83
DSCMET_COMPS 2017-09-28 22:35:00   11.890 11.810 11.950 12.050 -22.040 -65.490   265.300 265.800 264.600 12.550 91.400 11.188 1.251 264.900 265.500 265.500 0.1220 89.500 0.231 63.210 366.90 346.80 0.92 -1.96
DSCMET_COMPS 2017-09-28 22:30:00   11.960 11.820 12.010 12.260 -21.900 -65.610   265.300 265.800 264.600 12.580 92.300 11.365 1.122 264.900 265.500 265.600   0.000 0.398 47.610 367.40 346.70 1.03 -2.55
DSCMET_COMPS 2017-09-28 22:25:00   11.960 11.840 11.910 12.230 -21.750 -65.740   265.300 265.500 264.600 12.730 90.600 11.233 1.383 264.900 265.500 265.500   0.000 0.874 57.120 367.70 346.90 0.83 -2.48
DSCMET_COMPS 2017-09-28 22:20:00   12.000 11.940 11.950 12.050 -21.550 -65.910   265.300 265.600 264.600 12.610 92.100 11.362 1.153 264.800 265.500 265.500 0.0990 82.600 0.884 72.910 368.10 346.90 1.16 -2.14
DSCMET_COMPS 2017-09-28 22:15:00   12.050 12.020 12.010 12.010 -21.360 -66.060   265.300 265.400 264.600 12.450 92.800 11.318 1.040 264.800 265.500 265.400 0.0950 77.880 0.215 77.710 368.50 346.90 0.96 -2.36
DSCMET_COMPS 2017-09-28 22:10:00   12.120 12.110 12.100 12.260 -21.150 -66.240   265.300 265.300 264.600 12.990 90.200 11.423 1.467 264.800 265.500 265.400 0.1800 65.100 1.233 65.390 368.50 346.80 0.77 -2.36
DSCMET_COMPS 2017-09-28 22:05:00   12.220 12.220 12.230 12.180 -20.940 -66.410   265.300 265.300 264.600 12.650 92.400 11.451 1.112 264.800 265.500 265.500 0.2360 85.400 0.600 75.310 369.30 346.70 1.05 -2.34
DSCMET_COMPS 2017-09-28 22:00:00   12.350 12.360 12.430 12.430 -20.730 -66.580   265.300 265.400 264.600 12.890 91.500 11.540 1.264 264.800 265.500 265.400 0.2600 89.000 0.414 76.280 369.60 346.90 0.35 -1.93
DSCMET_COMPS 2017-09-28 21:55:00   12.420 12.440 12.500 12.480 -20.540 -66.760   265.300 265.300 264.600 13.030 91.000 11.596 1.351 264.800 265.500 265.500 0.1850 87.300 0.954 67.050 369.40 346.80 0.31 -1.81
DSCMET_COMPS 2017-09-28 21:50:00   12.530 12.520 12.620 12.610 -20.340 -66.930   265.300 265.300 264.600 13.100 90.800 11.632 1.387 264.800 265.500 265.200 0.2820 89.200 0.705 64.240 369.80 346.70 0.51 -1.99
DSCMET_COMPS 2017-09-28 21:45:00   12.600 12.580 12.730 12.790 -20.150 -67.110   265.300 265.400 264.600 13.220 90.700 11.734 1.413 264.800 265.500 265.200 0.1840 91.300 0.705 63.840 369.90 346.40 0.50 -2.05
DSCMET_COMPS 2017-09-28 21:40:00   12.640 12.630 12.710 12.790 -19.950 -67.290   265.300 265.400 264.600 13.330 90.200 11.759 1.500 264.800 265.500 265.200 0.1720 90.000 0.653 68.360 370.70 346.40 0.73 -2.20
DSCMET_COMPS 2017-09-28 21:35:00   12.710 12.690 12.790 12.820 -19.750 -67.490   265.300 265.300 264.600 13.350 90.100 11.762 1.517 264.800 265.300 265.200 0.2350 89.900 0.562 77.260 370.90 346.10 0.62 -2.08
DSCMET_COMPS 2017-09-28 21:30:00   12.790 12.800 12.910 12.930 -19.530 -67.690   265.300 265.300 264.600 13.430 89.900 11.807 1.556 264.800 265.100 265.100 0.2580 89.400 0.517 78.960 371.30 345.90 0.66 -2.16
DSCMET_COMPS 2017-09-28 21:25:00   12.870 12.900 13.020 13.010 -19.350 -67.860   265.300 265.300 264.600 13.410 90.100 11.821 1.523 264.800 265.100 265.100 0.2720 89.700 0.567 69.120 371.20 345.60 0.87 -2.16
DSCMET_COMPS 2017-09-28 21:20:00   12.950 12.980 13.070 13.070 -19.190 -68.030   265.300 265.300 264.600 13.440 90.300 11.884 1.495 264.800 265.100 265.100   0.000 0.495 60.990 371.80 345.50 0.81 -2.39
DSCMET_COMPS 2017-09-28 21:15:00   13.020 13.040 13.190 13.220 -19.010 -68.220   265.300 265.300 264.600 13.570 90.000 11.962 1.554 264.800 265.100 265.100 0.1660 90.300 0.275 58.320 371.80 345.20 0.80 -2.30
DSCMET_COMPS 2017-09-28 21:10:00   13.060 13.060 13.190 13.270 -18.800 -68.430   265.300 265.300 264.600 13.680 89.700 12.020 1.613 264.800 265.100 265.100 0.2300 85.900 0.482 76.230 372.00 345.30 0.65 -2.24
DSCMET_COMPS 2017-09-28 21:05:00   13.130 13.100 13.210 13.260 -18.560 -68.660   265.300 265.300 264.600 13.730 89.200 11.985 1.696 264.800 265.100 265.100 0.2430 89.400 0.306 71.200 372.50 345.10 0.74 -2.40
DSCMET_COMPS 2017-09-28 21:00:00   13.180 13.210 13.280 13.300 -18.370 -68.870   265.300 265.300 264.600 13.730 89.400 12.019 1.665 264.800 265.100 264.800 0.1500 75.580 0.339 78.750 372.60 344.90 1.02 -2.34
DSCMET_COMPS 2017-09-28 20:55:00   13.310 13.390 13.490 13.600 -18.150 -69.110   265.300 265.300 264.600 13.960 89.100 12.195 1.738 264.800 265.100 264.900 0.3240 86.100 0.522 79.000 373.00 344.70 0.52 -2.27
DSCMET_COMPS 2017-09-28 20:50:00   13.390 13.460 13.550 13.550 -17.940 -69.320   265.300 265.300 264.600 13.890 90.100 12.295 1.571 264.800 265.100 265.000 0.2120 80.200 0.875 69.140 373.30 344.40 0.67 -2.37
DSCMET_COMPS 2017-09-28 20:45:00   13.440 13.480 13.530 13.480 -17.730 -69.550   265.300 265.300 264.600 13.970 89.200 12.221 1.723 264.700 265.100 264.800 0.2550 81.900 0.240 73.420 374.10 344.30 0.61 -2.37
DSCMET_COMPS 2017-09-28 20:40:00   13.540 13.590 13.720 13.720 -17.520 -69.800   265.300 265.300 264.500 14.270 88.100 12.328 1.936 264.600 265.100 264.800 0.2570 82.200 0.425 81.200 374.20 344.20 0.62 -2.54
DSCMET_COMPS 2017-09-28 20:35:00   13.620 13.710 13.860 13.880 -17.310 -70.050   265.300 265.300 264.400 14.370 87.900 12.392 1.981 264.500 265.100 264.800 0.2820 82.400 0.740 77.210 374.80 344.00 0.77 -2.33
DSCMET_COMPS 2017-09-28 20:30:00   13.750 13.830 13.990 14.100 -17.090 -70.290   265.300 265.300 264.400 14.380 87.700 12.367 2.015 264.700 265.100 264.800 0.2790 81.300 0.474 77.790 374.60 343.80 0.41 -2.16
DSCMET_COMPS 2017-09-28 20:25:00   13.800 13.860 14.010 14.000 -16.870 -70.550   265.300 265.300 264.500 14.370 88.500 12.496 1.883 264.500 265.100 264.800 0.2580 82.700 0.414 57.410 374.80 343.40 0.37 -2.21
DSCMET_COMPS 2017-09-28 20:20:00   13.860 13.900 14.050 14.040 -16.660 -70.810   265.300 265.300 264.100 14.490 88.100 12.545 1.964 264.400 265.100 264.800 0.3320 81.600 0.425 72.450 375.10 342.90 0.57 -2.40
DSCMET_COMPS 2017-09-28 20:15:00   13.920 13.990 14.090 14.050 -16.420 -71.080   265.300 265.300 264.000 14.460 88.400 12.567 1.910 264.400 265.100 264.800 0.2090 73.350 0.226 72.150 375.40 342.70 1.01 -2.49
DSCMET_COMPS 2017-09-28 20:10:00   13.980 14.040 14.140 14.120 -16.190 -71.360   265.300 265.300 263.900 14.510 88.600 12.651 1.883 264.400 265.100 264.700   0.000 0.333 66.710 376.10 342.50 0.63 -2.52
DSCMET_COMPS 2017-09-28 20:05:00   14.070 14.140 14.270 14.350 -15.980 -71.630   265.300 265.300 263.900 14.750 87.700 12.732 2.064 264.400 265.100 264.400 0.2730 78.840 0.388 45.360 376.60 342.20 0.23 -2.14
DSCMET_COMPS 2017-09-28 20:00:00   14.180 14.240 14.370 14.500 -15.760 -71.900   265.300 265.300 263.900 15.070 86.200 12.783 2.364 264.400 265.100 264.400 0.3040 78.930 0.892 51.200 377.40 341.90 0.22 -2.12
DSCMET_COMPS 2017-09-28 19:55:00   14.260 14.350 14.500 14.560 -15.520 -72.210   265.300 265.300 263.900 15.230 85.600 12.833 2.492 264.400 265.100 264.400 0.2640 78.240 0.809 68.180 377.50 341.40 0.38 -2.08
DSCMET_COMPS 2017-09-28 19:50:00   14.370 14.480 14.630 14.680 -15.320 -72.510   265.300 265.300 263.900 15.500 84.100 12.828 2.800 264.400 265.000 264.400 0.3270 79.740 0.737 73.350 378.00 341.20 0.56 -2.38
DSCMET_COMPS 2017-09-28 19:45:00   14.460 14.600 14.740 14.780 -15.090 -72.820   265.300 265.300 263.900 15.280 85.800 12.918 2.465 264.400 264.700 264.400 0.2450 77.910 0.372 72.570 378.00 340.90 0.41 -2.20
DSCMET_COMPS 2017-09-28 19:40:00   14.590 14.740 14.950 14.960 -14.880 -73.110   265.300 265.300 263.900 15.400 85.800 13.036 2.484 264.400 264.800 264.400 0.2900 79.390 0.451 73.420 378.50 340.60 1.09 -2.50
DSCMET_COMPS 2017-09-28 19:35:00   14.650 14.720 14.920 14.910 -14.660 -73.420   265.300 265.300 263.900 15.490 85.600 13.088 2.534 264.400 264.800 264.400 0.3310 77.020 0.567 70.530 378.70 340.10 0.50 -2.37
DSCMET_COMPS 2017-09-28 19:30:00   14.670 14.770 14.890 14.900 -14.440 -73.760   265.300 265.300 263.900 15.510 84.900 12.982 2.661 264.400 264.700 264.100 0.1720 70.450 0.316 74.500 379.00 339.40 0.25 -2.19
DSCMET_COMPS 2017-09-28 19:25:00   14.740 14.900 15.110 15.080 -14.210 -74.080   265.300 265.300 263.900 15.710 84.300 13.070 2.802 264.400 264.700 264.100 0.2770 76.130 0.377 79.710 379.50 338.90 0.25 -2.29
DSCMET_COMPS 2017-09-28 19:20:00   14.870 15.020 15.320 15.420 -13.980 -74.440   265.300 265.300 263.900 16.070 82.700 13.129 3.159 264.400 264.700 264.100 0.2600 80.800 0.472 73.580 379.40 338.20 0.26 -1.97
DSCMET_COMPS 2017-09-28 19:15:00   14.970 15.090 15.360 15.500 -13.730 -74.830   265.300 265.300 263.900 16.080 83.200 13.231 3.070 264.400 264.700 264.000 0.2820 82.200 0.910 64.560 379.60 337.40 0.68 -2.34
DSCMET_COMPS 2017-09-28 19:10:00   15.020 15.140 15.280 15.300 -13.480 -75.220   265.300 265.300 263.900 15.850 85.300 13.388 2.647 264.400 264.700 264.000 0.2130 77.030 0.437 51.080 380.10 336.90 0.26 -2.17
DSCMET_COMPS 2017-09-28 19:05:00   15.130 15.300 15.410 15.370 -13.200 -75.650   265.300 265.300 263.900 16.170 83.700 13.411 2.996 264.400 264.700 264.000   0.000 0.469 71.280 380.60 336.10 0.30 -2.25
DSCMET_COMPS 2017-09-28 19:00:00   15.240 15.450 15.630 15.650 -12.950 -76.080   265.300 265.300 263.900 16.180 84.000 13.475 2.943 264.400 264.700 264.000   0.000 0.371 66.350 381.20 335.50 0.75 -2.58
DSCMET_COMPS 2017-09-28 18:55:00   15.320 15.470 15.640 15.720 -12.690 -76.530   265.300 265.300 263.900 16.290 83.800 13.547 3.000 264.400 264.700 263.800 0.2830 85.300 0.249 48.490 381.70 335.30 0.52 -2.55
DSCMET_COMPS 2017-09-28 18:50:00   15.370 15.550 15.670 15.670 -12.420 -77.010   265.300 265.300 263.900 16.500 82.800 13.567 3.228 264.200 264.700 263.700 0.2030 76.930 0.204 84.000 381.80 334.90 0.81 -2.87
DSCMET_COMPS 2017-09-28 18:45:00   15.500 15.730 15.900 15.900 -12.160 -77.490   265.300 265.300 263.900 16.740 81.700 13.596 3.488 264.100 264.700 263.700 0.3540 83.300 0.332 80.300 382.80 334.70 0.50 -2.69
DSCMET_COMPS 2017-09-28 18:40:00   15.570 15.800 15.970 15.990 -11.880 -78.020   265.300 265.300 263.900 16.790 82.000 13.701 3.441 264.000 264.400 263.600 0.2680 81.100 0.389 76.130 383.40 334.40 0.32 -2.62
DSCMET_COMPS 2017-09-28 18:35:00   15.680 15.940 16.140 16.170 -11.600 -78.530   265.300 265.300 263.900 17.170 79.930 13.679 3.931 264.000 264.300 263.600 0.3660 82.000 0.303 76.400 383.50 334.30 0.27 -2.74
DSCMET_COMPS 2017-09-28 18:30:00   15.740 16.050 16.260 16.240 -11.330 -79.060   265.300 265.300 263.900 17.080 80.900 13.777 3.719 264.000 264.300 263.400 0.2570 77.520 0.396 75.810 384.30 334.20 0.51 -2.96
DSCMET_COMPS 2017-09-28 18:25:00   15.860 16.190 16.500 16.590 -11.070 -79.590   265.300 265.300 263.900 17.400 79.030 13.728 4.167 264.000 264.300 263.300 0.2930 86.600 0.437 64.540 384.60 334.60 0.41 -3.21
DSCMET_COMPS 2017-09-28 18:20:00   15.940 16.290 16.690 16.760 -10.780 -80.200   265.300 265.300 263.900 17.620 78.470 13.832 4.338 264.000 264.300 263.300 0.2240 82.600 0.279 61.020 385.80 334.70 0.38 -3.22
DSCMET_COMPS 2017-09-28 18:15:00   16.090 16.430 16.860 17.040 -10.520 -80.800   265.300 265.300 263.700 17.840 76.410 13.636 4.820 264.000 264.300 263.000 0.2920 84.200 0.626 58.650 386.10 335.10 0.54 -3.31
DSCMET_COMPS 2017-09-28 18:10:00   16.170 16.510 16.950 17.140 -10.270 -81.400   265.300 265.300 263.300 17.900 76.380 13.688 4.844 263.600 264.000 263.000 0.2360 82.300 0.432 54.060 386.90 335.40 0.43 -3.28
DSCMET_COMPS 2017-09-28 18:05:00   16.310 16.690 17.160 17.400 -10.020 -82.100   265.300 265.300 263.200 17.990 76.070 13.713 4.936 263.600 263.900 263.000 0.2750 84.500 0.780 54.450 387.60 335.80 0.17 -2.84
DSCMET_COMPS 2017-09-28 18:00:00   16.470 16.860 17.270 17.330 -9.750 -82.800   265.300 265.300 263.200 18.090 76.650 13.927 4.846 263.600 263.900 262.800 0.1990 87.800 0.534 54.460 388.20 336.20 0.14 -2.28
DSCMET_COMPS 2017-09-28 17:55:00   16.580 16.970 17.340 17.430 -9.480 -83.600   265.300 265.300 263.200 18.470 73.910 13.733 5.546 263.600 263.900 262.600   0.000 0.273 44.350 389.00 336.60 0.20 -1.56
DSCMET_COMPS 2017-09-28 17:50:00   16.710 17.110 17.490 17.600 -9.210 -84.300   265.300 265.300 263.200 18.590 73.200 13.700 5.739 263.600 263.800 262.600 0.1760 87.700 0.520 57.420 390.30 337.00 0.47 -0.56
DSCMET_COMPS 2017-09-28 17:45:00   16.840 17.310 17.820 17.990 -8.920 -85.300   265.300 265.300 263.200 18.960 72.220 13.849 6.088 263.600 263.600 262.500 0.2040 89.900 0.743 65.040 391.20 337.60 0.56 0.75
DSCMET_COMPS 2017-09-28 17:40:00   16.920 17.500 17.930 18.310 -8.640 -86.300   265.300 265.300 263.200 18.990 72.780 13.996 5.977 263.300 263.600 262.200 0.1810 92.700 0.879 62.890 392.90 338.30 0.97 3.30
DSCMET_COMPS 2017-09-28 17:35:00   17.100 17.730 18.370 18.690 -8.360 -87.400   265.300 265.100 263.200 19.560 68.870 13.693 7.082 263.400 263.600 262.200 0.3530 87.400 0.714 65.990 393.40 338.90 0.82 5.14
DSCMET_COMPS 2017-09-28 17:30:00   17.230 17.760 18.390 18.830 -8.090 -88.400   265.300 264.900 263.200 19.710 68.220 13.690 7.298 263.200 263.500 262.200 0.3030 88.900 0.736 62.020 394.50 339.80 1.09 6.91
DSCMET_COMPS 2017-09-28 17:25:00   17.300 17.910 18.480 18.830 -7.836 -89.700   265.300 264.700 263.200 19.840 68.210 13.812 7.359 263.200 263.400 261.900 0.1610 66.120 0.132 355.300 395.90 340.70 0.99 8.40
DSCMET_COMPS 2017-09-28 17:20:00   17.430 18.140 18.840 19.180 -7.585 -91.000   265.300 264.600 263.200 20.260 65.290 13.539 8.247 263.200 263.200 261.900 0.2210 88.700 0.293 70.180 396.90 340.90 0.96 9.91
DSCMET_COMPS 2017-09-28 17:15:00   17.580 18.330 19.240 19.620 -7.303 -92.400   265.300 264.600 263.200 20.680 62.470 13.259 9.151 263.200 263.200 261.700 0.3160 87.100 0.706 66.670 397.80 341.60 0.98 11.35
DSCMET_COMPS 2017-09-28 17:10:00   17.760 18.510 19.350 19.860 -7.076 -94.300   265.300 264.600 263.200 21.070 59.290 12.826 10.167 263.200 263.100 261.500 0.2810 88.800 0.880 61.930 399.50 342.60 1.01 12.99
DSCMET_COMPS 2017-09-28 17:05:00   17.940 18.730 19.460 20.140 -6.839 -96.600   265.300 264.600 263.200 21.340 58.430 12.856 10.555 263.200 262.800 261.500 0.2100 90.200 0.859 64.680 400.00 343.50 1.00 14.28
DSCMET_COMPS 2017-09-28 17:00:00   18.090 18.930 19.620 20.500 -6.621 -99.700   265.300 264.600 263.200 21.580 60.000 13.487 10.307 263.200 262.800 261.500 0.2250 78.330 0.136 80.100 401.40 344.40 1.01 15.79
DSCMET_COMPS 2017-09-28 16:55:00   18.290 19.110 19.900 20.710 -6.445     265.300 264.600 263.200 21.970 59.040 13.605 10.808 263.200 262.900 261.300 0.1810 92.200 0.497 41.530 402.40 345.40 1.00 16.94
DSCMET_COMPS 2017-09-28 16:50:00   18.390 19.280 20.210 21.020 -6.275     265.300 264.600 263.200 22.560 57.310 13.699 11.677 263.200 262.800 261.200 0.1720 98.800 0.194 107.200 403.40 346.60 0.87 18.14
DSCMET_COMPS 2017-09-28 16:45:00   18.560 19.460 20.480 21.410 -6.123     265.300 264.600 263.200 23.070 50.680 12.292 13.913 263.100 262.800 261.200   0.000 0.156 14.850 404.70 347.80 0.65 18.92
DSCMET_COMPS 2017-09-28 16:40:00   18.690 19.640 20.660 21.590 -5.991     265.300 264.600 263.200 23.360 49.390 12.166 14.529 262.800 262.800 261.100 0.1600 76.130 0.321 314.600 406.20 349.40 0.58 19.86
DSCMET_COMPS 2017-09-28 16:35:00   18.870 19.890 20.950 22.080 -5.848     265.300 264.700 263.200 23.720 48.410 12.191 15.135 262.800 262.800 261.100 0.1950 95.000 0.225 266.800 407.40 350.30 0.34 20.50
DSCMET_COMPS 2017-09-28 16:30:00   19.010 20.020 21.160 22.380 -5.712     265.300 264.700 263.200 24.270 47.920 12.539 15.792 262.800 262.500 261.100 0.1770 91.800 0.194 277.000 408.30 351.20 0.31 21.34
DSCMET_COMPS 2017-09-28 16:25:00   19.110 20.140 21.310 22.650 -5.607     265.300 264.700 263.200 24.460 44.860 11.710 16.911 262.800 262.500 261.000 0.1920 94.500 0.439 300.200 409.80 352.50 0.24 22.44
DSCMET_COMPS 2017-09-28 16:20:00   19.210 20.310 21.580 22.940 -5.499     265.300 264.600 263.200 24.820 46.210 12.486 16.855 262.800 262.700 261.000 0.1610 107.800 0.203 264.600 411.20 353.60 0.17 23.70
DSCMET_COMPS 2017-09-28 16:15:00   19.310 20.490 21.760 23.150 -5.377     265.300 264.600 263.200 24.830 45.000 12.092 17.245 262.800 262.800 260.800 0.1470 81.600 0.298 295.600 413.10 355.20 0.03 25.21
DSCMET_COMPS 2017-09-28 16:10:00   19.420 20.550 21.780 23.040 -5.251     265.300 264.600 263.200 25.280 43.000 11.809 18.357 262.800 262.800 260.900 0.1860 90.100 0.466 297.400 414.60 355.60 -0.27 26.46
DSCMET_COMPS 2017-09-28 16:05:00   19.490 20.710 21.990 23.170 -5.115     265.300 264.600 263.200 25.320 43.420 11.992 18.265 262.800 262.800 260.800 0.2080 82.400 0.379 299.300 416.20 356.70 -0.33 28.06
DSCMET_COMPS 2017-09-28 16:00:00   19.560 20.860 22.210 23.270 -4.986     265.300 264.600 263.200 25.540 43.650 12.270 18.430 262.800 262.800 260.800 0.3040 82.500 0.236 284.700 417.80 357.20 -0.58 29.63
DSCMET_COMPS 2017-09-28 15:55:00   19.680 20.970 22.240 23.530 -4.858     265.300 264.600 262.900 25.840 42.780 12.235 19.050 262.800 262.700 260.800 0.2900 87.700 0.172 295.800 420.20 358.20 -0.06 31.86
DSCMET_COMPS 2017-09-28 15:50:00   19.770 21.090 22.340 23.590 -4.752     265.300 264.600 263.000 26.060 40.510 11.605 20.066 262.800 262.500 260.800 0.2860 92.000 0.385 318.300 422.10 359.10 0.68 33.34
DSCMET_COMPS 2017-09-28 15:45:00   19.850 21.150 22.550 23.970 -4.627     265.300 264.600 263.100 26.230 37.440 10.570 21.314 262.800 262.500 260.800 0.2750 86.100 0.687 299.700 425.10 359.90 1.76 34.75
DSCMET_COMPS 2017-09-28 15:40:00   19.940 21.230 22.630 24.050 -4.522     265.300 264.600 263.000 26.370 36.960 10.500 21.656 262.800 262.500 260.800 0.2300 91.500 0.668 302.700 429.40 360.60 4.38 35.30
DSCMET_COMPS 2017-09-28 15:35:00   20.040 21.340 22.660 24.110 -4.417     265.300 264.600 263.100 26.350 38.910 11.255 20.961 262.800 262.500 260.700   0.000 0.377 307.900 434.30 363.20 7.03 69.27
DSCMET_COMPS 2017-09-28 15:30:00   20.140 21.450 22.940 24.980 -4.315     265.300 264.600 263.200 26.730 34.400 9.745 23.018 262.800 262.400 260.800 0.2570 90.300 0.789 311.400 438.30 366.80 10.36 300.50
DSCMET_COMPS 2017-09-28 15:25:00   20.180 21.570 22.920 24.580 -4.189     265.300 264.600 263.200 26.530 36.770 10.564 21.927 262.800 262.400 260.800 0.2350 80.400 0.685 315.200 443.60 369.40 18.53 364.30
DSCMET_COMPS 2017-09-28 15:20:00   20.250 21.610 23.090 24.880 -4.084     265.300 264.600 263.200 26.830 35.190 10.171 22.874 262.800 262.400 260.800 0.4020 78.810 0.600 316.300 449.80 370.30 24.33 379.90
DSCMET_COMPS 2017-09-28 15:15:00   20.260 21.600 23.210 24.890 -3.976     265.300 264.600 263.200 26.770 36.020 10.467 22.502 262.800 262.400 260.800 0.2020 73.770 0.575 310.600 454.70 371.50 31.22 394.70
DSCMET_COMPS 2017-09-28 15:10:00   20.290 21.630 23.240 25.060 -3.874     265.300 264.600 263.000 27.010 35.650 10.524 22.953 262.800 262.400 260.800 0.2970 78.680 0.955 322.700 458.80 370.70 36.44 408.90
DSCMET_COMPS 2017-09-28 15:05:00   20.350 21.720 23.420 25.500 -3.769     265.300 264.600 263.000 27.090 35.980 10.732 22.943 262.800 262.500 260.800 0.2700 81.900 0.677 288.600 463.70 372.00 41.88 424.10
DSCMET_COMPS 2017-09-28 15:00:00   20.370 21.810 23.510 25.380 -3.650     265.300 264.600 263.200 27.010 36.240 10.770 22.743 262.800 262.700 261.100 0.3300 65.950 0.791 282.100 467.50 371.80 47.26 439.70
DSCMET_COMPS 2017-09-28 14:55:00   20.340 21.810 23.490 25.360 -3.541     264.900 264.600 263.200 27.120 38.140 11.637 22.208 262.700 262.700 261.100 0.2750 79.350 0.600 295.600 470.40 371.60 51.30 453.40
DSCMET_COMPS 2017-09-28 14:50:00   20.370 21.860 23.560 25.210 -3.446     264.600 264.600 263.200 26.970 39.190 11.915 21.640 262.700 262.700 261.100 0.2140 104.200 0.503 283.000 474.00 372.20 55.11 467.30
DSCMET_COMPS 2017-09-28 14:45:00   20.380 21.850 23.470 24.960 -3.338     264.600 264.600 263.000 27.000 40.650 12.497 21.157 262.500 262.400 261.100 0.2680 74.490 0.513 296.600 477.30 373.10 58.96 481.80
DSCMET_COMPS 2017-09-28 14:40:00   20.340 21.940 23.670 25.160 -3.219     264.600 264.600 263.200 27.040 40.570 12.503 21.236 262.400 262.400 261.100 0.2670 80.200 0.421 291.900 477.90 372.00 59.84 495.80
DSCMET_COMPS 2017-09-28 14:35:00   20.370 21.980 23.710 25.280 -3.070     265.300 264.600 263.200 26.910 42.010 12.919 20.564 262.400 262.400 261.200 0.3140 80.000 0.435 307.000 480.30 372.20 62.79 510.20
DSCMET_COMPS 2017-09-28 14:30:00   20.400 22.050 23.750 25.630 -2.941     265.300 264.600 263.200 27.220 41.460 12.995 21.140 262.400 262.400 261.100   0.000 0.405 313.100 481.90 372.70 65.89 522.90
DSCMET_COMPS 2017-09-28 14:25:00   20.410 22.010 23.800 25.690 -2.724     265.300 264.600 263.100 27.780 38.940 12.538 22.783 262.400 262.400 261.200   0.000 0.272 272.100 484.20 373.50 68.50 535.40
DSCMET_COMPS 2017-09-28 14:20:00   20.420 22.050 23.880 25.760 -2.605     265.300 264.600 263.100 27.950 37.860 12.261 23.417 262.400 262.400 261.300 0.2600 87.900 0.404 261.200 485.20 373.40 69.00 548.00
DSCMET_COMPS 2017-09-28 14:15:00   20.440 22.090 23.840 25.710 -2.463     265.300 264.600 263.200 27.430 41.910 13.349 21.236 262.400 262.100 261.400 0.2410 84.500 0.248 296.100 486.60 373.70 71.08 559.30
DSCMET_COMPS 2017-09-28 14:10:00   20.490 22.110 23.990 25.980 -2.310     265.300 264.600 263.100 27.930 36.920 11.861 23.744 262.500 262.100 261.500 0.2380 90.900 0.395 258.700 487.70 373.50 73.06 570.90
DSCMET_COMPS 2017-09-28 14:05:00   20.460 22.040 23.910 25.760 -2.144     265.300 264.600 262.900 27.510 40.450 12.878 21.872 262.400 261.700 261.500 0.2650 80.700 0.353 280.700 490.30 374.80 74.25 581.50
DSCMET_COMPS 2017-09-28 14:00:00   20.380 22.110 23.980 25.870 -1.957     265.300 264.600 262.900 27.680 39.900 12.820 22.294 262.100 261.400 261.300 0.2130 86.700 0.248 254.700 491.10 374.90 75.91 592.50
DSCMET_COMPS 2017-09-28 13:55:00   20.260 22.100 24.050 25.930 -1.744     265.300 264.600 262.900 27.790 38.690 12.449 22.890 262.100 261.200 261.100 0.2530 86.100 0.289 254.000 491.50 374.20 77.05 603.70
DSCMET_COMPS 2017-09-28 13:50:00   20.210 22.060 24.060 26.080 -1.496     265.300 264.600 263.100 28.110 37.850 12.398 23.640 262.000 261.700 261.100 0.2790 87.400 0.249 230.200 492.50 374.40 79.13 615.00
DSCMET_COMPS 2017-09-28 13:45:00   20.190 22.030 24.000 26.220 -1.245     265.300 264.600 263.200 27.640 38.690 12.315 22.690 262.200 261.900 261.400 0.2520 86.800 0.324 249.800 494.30 375.60 79.56 623.80
DSCMET_COMPS 2017-09-28 13:40:00   20.170 22.040 23.990 25.680 -0.970     265.300 264.600 263.200 27.340 41.380 13.073 21.318 261.900 262.400 261.400 0.2150 88.800 0.293 234.500 494.70 375.50 80.80 631.60
DSCMET_COMPS 2017-09-28 13:35:00   20.110 22.010 24.190 25.730 -0.712     265.300 264.600 263.200 27.030 40.090 12.313 21.395 261.400 262.500 261.200 0.2640 87.300 0.181 294.200 495.10 375.30 81.10 641.00
DSCMET_COMPS 2017-09-28 13:30:00   20.060 21.930 24.140 25.760 -0.461     265.300 264.600 263.200 27.380 41.220 13.050 21.426 261.700 262.500 261.300 0.3050 87.600 0.539 259.000 495.90 375.60 82.50 650.30
DSCMET_COMPS 2017-09-28 13:25:00   20.030 21.910 24.040 25.650 -0.227     265.300 264.600 263.200 27.070 40.780 12.609 21.198 261.900 262.700 261.200 0.3070 83.400 0.235 283.500 495.80 375.70 82.60 654.00
DSCMET_COMPS 2017-09-28 13:20:00   19.970 21.870 23.950 25.820 -0.014     265.400 264.600 263.200 26.800 40.990 12.445 20.791 262.500 262.800 261.100   0.000 0.315 265.700 495.70 374.80 83.30 657.90
DSCMET_COMPS 2017-09-28 13:15:00   19.900 21.810 23.980 25.710 0.176 -104.700   265.300 264.700 263.200 27.160 39.270 12.115 21.853 262.500 262.700 261.100 0.3170 85.500 0.217 279.700 495.60 374.60 84.50 666.80
DSCMET_COMPS 2017-09-28 13:10:00   19.820 21.810 23.860 25.780 0.237 -103.400   265.300 264.600 263.200 27.240 37.390 11.443 22.636 262.300 262.500 261.100 0.2160 86.700 0.360 233.800 496.30 375.50 85.80 673.70
DSCMET_COMPS 2017-09-28 13:05:00   19.800 21.870 23.770 25.680 0.176 -106.200   265.300 264.600 263.200 27.240 37.670 11.556 22.535 262.200 262.300 261.100 0.2270 90.000 0.352 200.600 497.10 375.20 87.40 680.10
DSCMET_COMPS 2017-09-28 13:00:00   19.750 21.820 23.790 25.610 -0.109     265.300 264.600 263.200 27.040 38.480 11.700 21.983 262.200 262.800 261.100 0.3380 87.800 0.181 164.600 496.40 374.10 87.60 689.20
DSCMET_COMPS 2017-09-28 12:55:00   19.700 21.880 23.660 25.680 -0.597     265.300 264.600 262.700 26.680 39.220 11.669 21.264 261.900 262.800 261.000 0.2900 86.600 0.168 209.300 496.50 373.90 89.30 695.00
DSCMET_COMPS 2017-09-28 12:50:00   19.730 21.970 23.560 25.450 -1.269 -98.800   265.300 264.600 263.500 26.570 38.290 11.209 21.450 261.900 262.800 260.900 0.2420 88.900 0.332 249.700 495.70 373.70 90.30 700.70
DSCMET_COMPS 2017-09-28 12:45:00   19.610 21.870 23.360 25.040 -2.313 -91.400   265.700 264.600 263.200 26.480 38.940 11.383 21.112 261.700 262.800 260.800 0.1070 84.000 0.192 203.800 494.90 373.60 89.80 704.70
DSCMET_COMPS 2017-09-28 12:40:00   19.520 21.700 23.450 24.960 -3.830 -85.700   265.700 264.600 263.200 26.260 39.250 11.307 20.734 262.100 262.900 260.800 0.2520 90.100 0.120 171.300 494.40 372.70 90.70 708.70
DSCMET_COMPS 2017-09-28 12:35:00   19.410 21.580 23.090 24.800 -5.723 -81.100   265.900 264.700 263.200 26.100 40.770 11.738 20.025 262.900 263.000 260.800 0.1860 90.000 0.212 229.200 493.70 372.00 90.70 710.80
DSCMET_COMPS 2017-09-28 12:30:00   19.320 21.580 22.810 24.750 -7.748 -77.680   265.900 264.900 263.200 25.980 40.990 11.712 19.810 262.800 263.200 260.700 0.1190 88.100 0.228 233.100 492.10 371.40 90.90 716.10
DSCMET_COMPS 2017-09-28 12:25:00   19.300 21.550 22.620 24.590 -9.490 -75.310   265.900 265.000 263.700 25.960 38.890 10.901 20.491 263.200 263.200 260.600 0.2360 88.600 0.209 224.600 490.50 370.10 92.30 720.20
DSCMET_COMPS 2017-09-28 12:20:00   19.170 21.300 22.400 24.480 -10.400 -74.120   265.600 265.300 263.600 25.680 36.960 9.891 20.790 263.200 263.200 260.800 0.2060 89.700 0.344 196.300 489.10 369.50 92.70 723.90
DSCMET_COMPS 2017-09-28 12:15:00   18.890 20.800 22.220 24.250 -10.960 -73.340   265.900 265.300 263.200 25.870 38.890 10.821 20.382 263.200 263.200 261.100 0.1510 89.300 0.351 190.500 487.70 368.90 92.70 726.90
DSCMET_COMPS 2017-09-28 12:10:00   18.410 20.300 22.070 23.880 -11.460 -72.630   265.900 265.300 263.200 25.510 39.960 10.908 19.602 263.200 263.200 261.300   0.000 0.308 212.400 487.40 369.00 92.10 729.60
DSCMET_COMPS 2017-09-28 12:05:00   18.130 20.060 22.060 23.850 -11.980 -71.930   265.900 265.300 263.800 25.140 43.520 11.865 18.039 263.300 263.300 261.000 0.2330 83.200 0.179 131.000 485.60 367.80 93.40 729.90
DSCMET_COMPS 2017-09-28 12:00:00   17.940 19.740 22.010 23.650 -12.560 -71.210   265.900 265.300 263.800 25.120 43.560 11.860 18.005 263.500 263.500 260.700 0.2790 83.000 0.176 219.200 483.20 366.90 94.10 731.60
DSCMET_COMPS 2017-09-28 11:55:00   17.770 19.430 21.670 23.300 -13.160 -70.530   265.900 265.300 263.900 24.790 45.010 12.059 17.201 263.600 263.500 260.600 0.1140 87.600 0.214 215.200 481.10 366.30 92.90 732.30
DSCMET_COMPS 2017-09-28 11:50:00   17.460 19.270 21.220 23.160 -13.840 -69.830   265.900 265.300 263.900 24.480 45.520 11.949 16.729 263.700 263.500 260.500 0.0870 85.600 0.148 189.600 478.60 365.00 91.50 732.10
DSCMET_COMPS 2017-09-28 11:45:00   17.280 19.060 21.070 23.000 -14.520 -69.150   265.900 265.300 263.900 24.600 42.090 10.875 17.910 263.600 263.600 260.300 0.1190 81.700 0.221 203.000 475.40 363.10 91.90 730.90
DSCMET_COMPS 2017-09-28 11:40:00   17.130 18.870 21.040 22.840 -15.220 -68.480   265.900 265.300 263.900 24.400 44.460 11.520 16.973 263.900 263.900 260.600 0.2740 78.950 0.176 216.400 473.70 362.70 91.00 730.80
DSCMET_COMPS 2017-09-28 11:35:00   16.930 18.610 20.720 22.500 -15.990 -67.810   265.900 265.300 263.900 23.760 49.490 12.564 14.854 263.900 263.900 260.900 0.2030 77.030 0.144 180.900 471.50 360.70 90.20 729.10
DSCMET_COMPS 2017-09-28 11:30:00   16.720 18.350 20.320 22.270 -16.820 -67.140   265.900 265.300 263.900 23.990 44.730 11.240 16.480 263.900 263.900 260.400 0.1320 73.670 0.265 197.800 467.90 359.50 89.30 729.80
DSCMET_COMPS 2017-09-28 11:25:00   16.540 18.130 20.120 22.000 -17.700 -66.480   265.900 265.300 263.900 23.500 46.220 11.290 15.570 263.900 263.900 260.600 0.2980 71.450 0.202 214.000 466.00 359.00 89.30 726.20
DSCMET_COMPS 2017-09-28 11:20:00   16.320 17.930 19.920 21.390 -18.580 -65.850   265.900 265.300 263.900 23.130 51.080 12.467 13.851 263.900 263.900 260.900 0.2720 73.030 0.101 129.400 463.30 358.10 89.20 723.50
DSCMET_COMPS 2017-09-28 11:15:00   16.110 17.780 19.670 20.960 -19.440 -65.280   265.900 265.300 263.900 22.850 49.870 11.846 13.955 263.900 263.900 260.600 0.1560 59.070 0.214 142.600 460.50 357.60 90.00 719.10
DSCMET_COMPS 2017-09-28 11:10:00   15.910 17.640 19.540 20.780 -20.360 -64.740   265.900 265.600 263.900 22.700 49.120 11.479 14.035 264.000 263.900 260.600 0.2950 70.470 0.180 153.000 457.40 355.60 87.90 714.70
DSCMET_COMPS 2017-09-28 11:05:00   15.710 17.460 19.370 20.610 -21.300 -64.230   265.900 265.900 263.900 22.300 49.820 11.326 13.510 264.000 263.700 260.600 0.1610 60.030 0.134 158.200 454.60 355.00 87.40 710.80
DSCMET_COMPS 2017-09-28 11:00:00   15.550 17.430 19.120 20.130 -22.250 -63.760   265.900 265.900 263.900 22.020 50.130 11.163 13.200 264.000 263.600 260.600   0.000 0.078 278.700 451.00 353.80 83.10 709.40
DSCMET_COMPS 2017-09-28 10:55:00   15.340 17.160 18.930 20.130 -23.190 -63.330   265.900 265.900 263.900 21.380 49.770 10.467 12.785 264.100 264.000 260.600 0.2610 65.680 0.180 46.750 447.30 352.50 81.40 705.80
DSCMET_COMPS 2017-09-28 10:50:00   15.140 16.980 18.730 19.870 -24.140 -62.940   266.000 266.000 263.900 20.920 49.660 10.012 12.457 264.300 264.100 260.900 0.3600 75.330 0.262 68.850 443.20 351.60 77.06 701.70
DSCMET_COMPS 2017-09-28 10:45:00   14.930 16.740 18.490 19.320 -25.100 -62.610   265.900 265.900 263.900 20.760 51.960 10.542 11.771 264.300 264.300 260.700 0.2140 64.020 0.178 58.200 439.20 350.30 77.66 694.60
DSCMET_COMPS 2017-09-28 10:40:00   14.690 16.620 18.260 18.940 -26.170 -62.310   265.900 265.900 263.900 20.670 50.050 9.899 12.172 264.300 264.300 260.800 0.4600 83.100 0.643 85.200 435.20 348.70 77.26 688.30
DSCMET_COMPS 2017-09-28 10:35:00   14.430 16.320 17.990 18.810 -27.340 -62.070   266.000 266.000 264.500 20.290 52.900 10.376 11.211 264.300 264.300 261.000 0.2600 76.530 0.317 40.210 431.40 347.20 74.81 681.10
DSCMET_COMPS 2017-09-28 10:30:00   14.260 16.080 17.690 18.440 -28.670 -61.890   265.900 266.000 264.600 20.020 53.600 10.323 10.862 264.300 264.500 261.100 0.3460 82.200 0.306 75.900 427.60 346.80 72.89 675.90
DSCMET_COMPS 2017-09-28 10:25:00   14.000 15.820 17.360 18.150 -29.990 -61.850   265.700 266.000 264.600 19.920 51.780 9.715 11.218 264.400 264.700 261.100 0.3590 83.800 0.196 69.910 424.50 345.30 71.81 669.40
DSCMET_COMPS 2017-09-28 10:20:00   13.690 15.490 17.220 17.950 -31.250 -61.950   265.600 266.000 264.600 19.800 54.290 10.311 10.556 264.600 265.000 261.500 0.3420 81.100 0.202 68.610 420.80 343.30 70.63 663.50
DSCMET_COMPS 2017-09-28 10:15:00   13.470 15.260 16.890 17.530 -32.400 -62.230   266.000 266.000 264.600 19.530 58.540 11.191 9.415 264.700 265.100 261.700 0.2840 81.000 0.119 58.590 417.50 342.10 67.94 655.10
DSCMET_COMPS 2017-09-28 10:10:00   13.290 15.140 16.510 17.000 -33.320 -62.620   265.900 266.000 264.600 19.040 59.300 10.926 8.965 264.700 265.300 261.700 0.2820 83.200 0.235 64.260 414.40 341.00 65.31 647.60
DSCMET_COMPS 2017-09-28 10:05:00   13.020 14.970 16.110 16.590 -34.100 -63.110   265.500 266.000 264.600 19.050 56.640 10.247 9.557 264.700 265.400 261.700 0.3050 88.300 0.263 42.820 410.70 349.40 62.05 638.90
DSCMET_COMPS 2017-09-28 10:00:00   12.610 14.690 15.890 16.480 -34.850 -63.760   265.300 266.000 264.600 18.370 59.690 10.396 8.515 264.700 265.400 261.900 0.3340 89.400 0.151 80.400 405.10 365.40 56.41 632.90
DSCMET_COMPS 2017-09-28 09:55:00   12.280 14.290 15.680 16.370 -35.600 -64.580   265.300 266.000 264.600 18.160 63.460 11.118 7.617 265.000 265.400 262.100   0.000 0.158 70.410 401.10 376.20 50.81 623.90
DSCMET_COMPS 2017-09-28 09:50:00   11.990 13.800 15.330 16.010 -36.300 -65.590   265.300 266.000 264.600 17.720 64.400 10.922 7.219 265.100 265.500 262.200   0.000 0.187 76.270 397.90 379.30 46.01 616.40
DSCMET_COMPS 2017-09-28 09:45:00   11.730 13.350 15.050 15.740 -36.980 -66.830   265.300 266.000 264.600 17.450 65.040 10.815 6.969 265.100 265.500 262.600 0.2940 86.100 0.151 68.420 395.50 379.80 43.45 608.90
DSCMET_COMPS 2017-09-28 09:40:00   11.510 13.040 14.720 15.310 -37.620 -68.400   265.300 266.000 264.600 17.120 64.690 10.421 6.894 265.100 265.800 262.900 0.2680 86.300 0.219 67.390 393.30 380.50 40.13 599.50
DSCMET_COMPS 2017-09-28 09:35:00   11.300 12.750 14.420 15.070 -38.150 -70.400   265.300 266.000 264.600 16.850 64.450 10.110 6.823 265.200 265.800 263.300 0.3210 87.500 0.198 83.600 392.00 380.80 38.40 586.10
DSCMET_COMPS 2017-09-28 09:30:00   11.130 12.490 14.130 14.530 -38.650 -73.010   265.600 266.000 264.600 16.300 67.880 10.362 5.953 265.200 265.900 264.100 0.3220 85.700 0.168 54.380 390.40 380.20 38.50 576.00
DSCMET_COMPS 2017-09-28 09:25:00   10.920 12.100 13.750 14.170 -39.120 -77.240   265.300 266.000 264.600 16.230 66.160 9.912 6.243 265.200 265.900 264.700 0.3010 80.600 0.144 86.800 388.50 379.10 38.89 564.10
DSCMET_COMPS 2017-09-28 09:20:00   10.740 11.860 13.470 14.070 -39.570     265.300 266.000 264.600 15.790 70.170 10.371 5.351 265.200 265.900 280.600 0.3230 83.700 0.125 76.950 387.20 377.00 38.23 508.30
DSCMET_COMPS 2017-09-28 09:15:00   10.550 11.640 13.210 13.960 -39.970     265.300 266.000 264.600 15.140 74.060 10.555 4.463 265.300 266.100 339.000 0.3170 83.700 0.145 65.260 384.90 377.30 34.39 524.40
DSCMET_COMPS 2017-09-28 09:10:00   10.460 11.440 12.840 13.720 -40.300     265.300 265.800 264.600 14.820 73.490 10.131 4.468 265.500 266.300 383.500 0.4010 85.400 0.313 54.430 381.90 375.60 33.91 526.10
DSCMET_COMPS 2017-09-28 09:05:00   10.480 11.090 12.470 13.180 -40.560     265.300 265.300 264.600 14.510 77.840 10.692 3.661 265.600 266.300 409.700 0.2890 79.800 0.128 52.750 379.00 372.80 34.70 511.30
DSCMET_COMPS 2017-09-28 09:00:00   10.220 10.920 12.130 12.770 -40.750     265.300 265.800 264.600 13.730 81.800 10.678 2.859 265.600 266.300 424.900 0.3080 81.600 0.077 80.300 375.00 369.00 35.38 500.30
DSCMET_COMPS 2017-09-28 08:55:00   9.520 10.820 11.870 12.480 -40.890     265.300 266.000 264.600 13.300 82.200 10.332 2.719 265.600 266.400 436.300 0.3420 85.100 0.108 91.400 369.10 363.70 34.75 491.20
DSCMET_COMPS 2017-09-28 08:50:00   9.170 10.570 11.610 12.170 -41.040     265.300 266.000 264.600 12.920 84.100 10.302 2.369 265.600 266.600 445.100 0.3180 84.500 0.098 120.000 362.80 356.70 30.59 406.10
DSCMET_COMPS 2017-09-28 08:45:00   8.840 10.300 11.360 11.930 -41.150     265.300 266.000 264.600 12.710 82.900 9.882 2.513 265.600 266.800 453.800   0.000 0.150 103.000 357.90 349.30 19.06 245.30
DSCMET_COMPS 2017-09-28 08:40:00   8.680 10.110 11.160 11.700 -41.230     265.300 266.000 264.600 12.320 85.200 9.908 2.120 265.700 269.300 461.900 0.2780 82.700 0.160 103.200 354.20 344.90 9.03 162.40
DSCMET_COMPS 2017-09-28 08:35:00   8.530 9.760 10.910 11.530 -41.320     265.300 266.000 264.600 12.050 85.900 9.765 1.984 265.700 274.200 466.500 0.3110 86.700 0.188 59.790 353.10 341.30 5.30 49.28
DSCMET_COMPS 2017-09-28 08:30:00   8.390 9.520 10.600 11.200 -41.360     265.300 266.000 264.600 11.750 86.300 9.540 1.890 265.700 280.400 470.600 0.3270 78.590 0.243 65.000 352.30 340.30 4.16 39.55
DSCMET_COMPS 2017-09-28 08:25:00   8.250 9.190 10.280 10.920 -41.430     265.300 266.000 264.600 11.290 88.900 9.528 1.485 265.700 286.000 474.500 0.3100 85.100 0.256 59.280 351.50 339.60 3.00 34.38
DSCMET_COMPS 2017-09-28 08:20:00   8.090 8.900 9.950 10.560 -41.480     265.300 266.000 264.600 11.100 89.300 9.408 1.414 265.700 290.800 477.300 0.2220 81.500 0.352 69.430 351.20 339.20 2.92 31.65
DSCMET_COMPS 2017-09-28 08:15:00   8.010 8.690 9.630 10.250 -41.490     265.300 266.000 264.600 10.620 91.300 9.262 1.113 265.700 294.600 480.100 0.3450 78.600 0.153 57.850 350.80 338.80 2.59 30.31
DSCMET_COMPS 2017-09-28 08:10:00   7.922 8.500 9.380 10.000 -41.490     265.300 266.000 264.600 10.410 91.600 9.103 1.060 265.700 297.700 481.500 0.2610 83.500 0.248 63.560 350.60 338.40 2.54 29.12
DSCMET_COMPS 2017-09-28 08:05:00   7.886 8.300 8.980 9.610 -41.490     265.300 266.000 264.600 10.020 92.900 8.926 0.873 265.700 300.100 483.000 0.2550 81.600 0.138 329.800 350.30 338.20 2.62 28.08
DSCMET_COMPS 2017-09-28 08:00:00   7.805 8.140 8.630 9.030 -41.490     265.300 266.000 264.600 9.640 94.200 8.754 0.695 265.700 302.000 484.100 0.2130 76.920 0.152 63.240 350.10 338.00 2.40 27.43
DSCMET_COMPS 2017-09-28 07:55:00   7.782 7.991 8.370 8.680 -41.490     265.300 266.000 264.600 9.430 94.800 8.639 0.615 265.700 303.300 484.900 0.2440 77.320 0.199 57.470 349.80 337.70 2.28 26.60
DSCMET_COMPS 2017-09-28 07:50:00   7.774 7.907 8.100 8.290 -41.480     265.300 266.000 264.600 9.030 96.100 8.442 0.449 265.700 303.900 487.100 0.2410 82.400 0.429 74.110 349.80 337.40 2.62 25.80
DSCMET_COMPS 2017-09-28 07:45:00   7.700 7.750 7.902 7.959 -41.430     265.200 266.000 264.600 8.510 97.600 8.152 0.267 265.600 303.700 488.600 0.2050 63.140 0.428 76.220 349.40 337.30 2.26 24.90
DSCMET_COMPS 2017-09-28 07:40:00   7.669 7.690 7.830 7.858 -41.370     265.300 266.000 264.600 8.300 98.000 8.003 0.219 265.400 303.300 486.800   0.000 0.348 78.010 349.40 337.40 2.09 23.96
DSCMET_COMPS 2017-09-28 07:35:00   7.639 7.682 7.815 7.840 -41.340     265.200 266.000 264.600 8.180 98.200 7.913 0.195 265.500 303.000 484.800   0.000 0.276 72.790 349.20 337.10 2.20 22.68
DSCMET_COMPS 2017-09-28 07:30:00   7.634 7.624 7.715 7.726 -41.250     265.300 266.000 264.600 8.040 98.200 7.773 0.194 265.400 302.700 482.900 0.1850 61.830 0.432 54.540 348.90 336.80 2.23 21.58
DSCMET_COMPS 2017-09-28 07:25:00   7.652 7.636 7.674 7.647 -41.170     265.300 266.000 264.600 7.890 97.900 7.579 0.224 265.300 302.100 480.800 0.2130 64.890 0.269 51.300 348.50 336.50 2.26 20.40
DSCMET_COMPS 2017-09-28 07:20:00   7.651 7.635 7.697 7.689 -41.100     265.300 266.000 264.600 7.913 97.400 7.527 0.277 265.300 301.700 478.600 0.1540 51.040 0.494 55.270 348.20 336.40 1.76 19.40
DSCMET_COMPS 2017-09-28 07:15:00   7.662 7.630 7.728 7.749 -41.000     265.100 266.000 264.600 8.120 96.900 7.658 0.335 265.300 301.300 476.500 0.1680 37.530 0.415 61.710 348.10 336.20 2.16 18.06
DSCMET_COMPS 2017-09-28 07:10:00   7.705 7.671 7.796 7.901 -40.890     265.200 266.000 264.600 8.280 96.700 7.787 0.361 265.300 300.800 474.300 0.2520 69.840 0.410 78.510 347.90 336.00 2.01 17.01
DSCMET_COMPS 2017-09-28 07:05:00   7.724 7.676 7.745 7.914 -40.810     265.300 266.000 264.600 8.150 97.500 7.778 0.271 265.300 300.400 472.100 0.3110 71.370 0.619 74.820 347.80 335.90 1.87 15.81
DSCMET_COMPS 2017-09-28 07:00:00   7.656 7.608 7.647 7.660 -40.710     265.300 266.000 264.600 7.980 97.600 7.624 0.257 265.300 300.000 469.400 0.1650 47.240 0.604 51.880 347.70 335.70 1.61 14.70
DSCMET_COMPS 2017-09-28 06:55:00   7.674 7.622 7.659 7.680 -40.600     265.100 266.000 264.600 7.976 97.400 7.590 0.278 265.300 299.300 466.100 0.1380 30.920 0.408 73.340 347.70 335.50 2.11 13.35
DSCMET_COMPS 2017-09-28 06:50:00   7.719 7.670 7.721 7.835 -40.490     265.000 266.000 264.600 8.080 97.000 7.633 0.324 265.300 298.800 462.800 0.1990 51.310 0.225 65.970 347.50 335.20 1.99 12.15
DSCMET_COMPS 2017-09-28 06:45:00   7.718 7.679 7.761 7.908 -40.370     265.300 266.000 264.600 8.100 97.600 7.744 0.259 265.300 298.400 459.700 0.2290 56.330 0.707 59.790 347.50 335.30 1.92 10.96
DSCMET_COMPS 2017-09-28 06:40:00   7.697 7.659 7.709 7.810 -40.260 -81.400   265.300 266.000 264.600 8.030 98.100 7.749 0.204 265.400 297.900 456.100 0.2620 66.660 0.685 63.460 347.30 335.30 1.78 9.76
DSCMET_COMPS 2017-09-28 06:35:00   7.658 7.620 7.644 7.632 -40.120 -78.370   265.200 266.000 264.600 7.852 97.900 7.541 0.223 265.300 297.000 452.200 0.1990 41.140 0.451 59.610 347.20 335.00 1.83 8.41
DSCMET_COMPS 2017-09-28 06:30:00   7.648 7.610 7.668 7.660 -40.000 -75.830   265.200 266.000 264.600 7.953 97.700 7.612 0.246 265.300 296.100 448.400   0.000 0.532 59.210 347.20 335.20 1.23 7.20
DSCMET_COMPS 2017-09-28 06:25:00   7.717 7.692 7.751 7.754 -39.860 -74.140   265.200 266.000 264.600 8.030 97.200 7.614 0.301 265.300 295.300 445.100 0.2000 50.900 0.357 72.760 347.30 335.10 1.72 5.59
DSCMET_COMPS 2017-09-28 06:20:00   7.766 7.732 7.828 7.854 -39.710 -72.770   265.200 266.000 264.600 8.200 96.700 7.707 0.359 265.300 294.600 441.300 0.2400 65.230 0.613 47.780 347.40 335.20 1.16 4.15
DSCMET_COMPS 2017-09-28 06:15:00   7.780 7.767 7.872 7.867 -39.560 -71.500   265.000 266.000 264.600 8.350 96.600 7.842 0.374 265.300 293.800 437.900 0.1950 63.030 0.319 77.610 347.40 335.10 1.72 2.66
DSCMET_COMPS 2017-09-28 06:10:00   7.864 7.834 7.941 8.000 -39.410 -70.510   265.200 266.000 264.600 8.260 97.400 7.873 0.284 265.300 293.100 434.800 0.2810 69.810 0.637 77.100 347.30 335.10 1.54 1.41
DSCMET_COMPS 2017-09-28 06:05:00   7.857 7.821 7.899 7.906 -39.290 -69.790   265.300 266.000 264.600 8.110 97.400 7.723 0.281 265.400 292.400 431.000 0.2100 63.840 0.689 52.690 347.30 335.20 1.25 0.38
DSCMET_COMPS 2017-09-28 06:00:00   7.881 7.836 7.933 7.991 -39.140 -69.090   265.300 266.000 264.600 8.260 97.100 7.828 0.317 265.400 291.700 427.000 0.2350 61.640 0.327 62.020 347.30 335.10 1.09 -0.52
DSCMET_COMPS 2017-09-28 05:55:00   7.883 7.830 7.866 7.901 -39.060 -68.520   265.300 266.000 264.600 8.200 97.300 7.798 0.294 265.600 290.900 423.200 0.1580 36.610 0.915 39.050 347.40 335.30 1.24 -1.40
DSCMET_COMPS 2017-09-28 05:50:00   7.883 7.834 7.864 7.895 -38.930 -68.100   265.200 266.000 264.600 8.270 97.800 7.943 0.240 265.700 290.000 419.500 0.1710 50.410 0.388 58.980 347.60 335.40 1.11 -1.82
DSCMET_COMPS 2017-09-28 05:45:00   7.862 7.786 7.831 7.834 -38.840 -67.640   265.200 266.000 264.600 8.190 97.500 7.818 0.272 265.600 288.900 416.100 0.1300 13.600 0.268 62.740 347.70 335.30 1.75 -2.09
DSCMET_COMPS 2017-09-28 05:40:00   7.899 7.850 7.907 7.953 -38.700 -67.150   265.300 266.000 264.600 8.300 97.400 7.913 0.285 265.700 288.000 412.800 0.1740 46.520 0.592 65.100 347.90 335.40 1.18 -2.08
DSCMET_COMPS 2017-09-28 05:35:00   7.878 7.822 7.875 7.874 -38.570 -66.760   265.300 266.000 264.600 8.360 97.100 7.927 0.319 265.700 286.700 409.000 0.1660 42.000 0.394 73.410 348.00 335.40 1.02 -2.15
DSCMET_COMPS 2017-09-28 05:30:00   7.901 7.876 7.937 7.977 -38.410 -66.370   265.300 266.000 264.600 8.450 97.100 8.017 0.321 265.500 285.700 405.800 0.1750 39.750 0.490 81.700 348.30 335.60 1.10 -2.15
DSCMET_COMPS 2017-09-28 05:25:00   7.942 7.888 7.979 8.020 -38.280 -65.970   265.300 266.000 264.600 8.420 97.200 8.002 0.309 265.700 284.900 403.000   0.000 0.741 57.260 348.20 335.70 1.16 -2.25
DSCMET_COMPS 2017-09-28 05:20:00   7.989 7.912 7.928 7.941 -38.160 -65.660   265.300 266.000 264.600 8.390 98.000 8.093 0.220 265.400 283.700 400.200   0.000 0.803 71.150 348.40 335.70 1.34 -2.21
DSCMET_COMPS 2017-09-28 05:15:00   8.010 7.960 7.982 8.000 -38.040 -65.310   265.200 266.000 264.600 8.270 97.700 7.928 0.251 265.300 282.800 396.700 0.1680 39.540 0.678 55.530 348.70 335.90 1.09 -2.25
DSCMET_COMPS 2017-09-28 05:10:00   8.070 8.020 8.040 8.060 -37.940 -65.070   265.300 266.000 264.600 8.390 97.600 8.033 0.264 265.300 281.700 393.300 0.1750 48.270 0.378 69.020 349.10 336.00 1.16 -2.28
DSCMET_COMPS 2017-09-28 05:05:00   8.120 8.070 8.110 8.130 -37.810 -64.820   265.300 266.000 264.600 8.440 97.900 8.128 0.232 265.300 280.900 389.900 0.1530 25.480 0.557 74.110 349.30 336.20 1.04 -2.16
DSCMET_COMPS 2017-09-28 05:00:00   8.120 8.060 8.090 8.100 -37.660 -64.560   265.300 266.000 264.600 8.300 97.500 7.928 0.274 265.300 280.000 386.300 0.1180 32.100 0.645 57.210 349.40 336.30 1.16 -2.14
DSCMET_COMPS 2017-09-28 04:55:00   8.230 8.170 8.220 8.220 -37.520 -64.280   265.300 266.000 264.600 8.490 97.300 8.087 0.299 265.300 279.200 382.800 0.2200 65.910 0.633 59.860 349.50 336.30 1.21 -2.17
DSCMET_COMPS 2017-09-28 04:50:00   8.230 8.160 8.210 8.230 -37.400 -64.110   265.300 266.000 264.600 8.480 97.500 8.107 0.277 265.500 278.600 379.100 0.1180 20.380 0.799 55.280 349.50 336.40 1.18 -2.17
DSCMET_COMPS 2017-09-28 04:45:00   8.220 8.150 8.220 8.250 -37.290 -63.860   265.300 266.000 264.600 8.560 97.000 8.112 0.334 265.400 277.700 375.900 0.1810 50.890 0.486 64.830 349.60 336.50 0.90 -2.14
DSCMET_COMPS 2017-09-28 04:40:00   8.210 8.140 8.200 8.210 -37.190 -63.700   265.300 266.000 264.600 8.630 97.400 8.242 0.291 265.300 276.700 372.900 0.2090 32.440 0.680 73.350 350.00 336.90 1.29 -2.36
DSCMET_COMPS 2017-09-28 04:35:00   8.290 8.210 8.250 8.270 -37.070 -63.540   265.300 266.000 264.600 8.600 97.300 8.197 0.302 265.300 275.900 369.900 0.1690 31.710 0.551 68.920 350.20 336.90 1.39 -2.29
DSCMET_COMPS 2017-09-28 04:30:00   8.360 8.300 8.330 8.430 -36.970 -63.360   265.300 266.000 264.600 8.700 97.700 8.357 0.259 265.300 275.100 366.900 0.1870 53.290 0.530 76.980 350.60 337.00 1.15 -2.01
DSCMET_COMPS 2017-09-28 04:25:00   8.370 8.330 8.370 8.400 -36.820 -63.190   265.300 266.000 264.600 8.560 97.700 8.217 0.256 265.300 274.400 363.300 0.1640 39.300 0.498 66.180 350.30 337.10 0.74 -2.09
DSCMET_COMPS 2017-09-28 04:20:00   8.420 8.370 8.400 8.380 -36.690 -63.020   265.300 266.000 264.600 8.580 97.300 8.177 0.301 265.300 273.700 359.600 0.1830 56.800 0.989 51.050 350.60 337.40 1.00 -2.17
DSCMET_COMPS 2017-09-28 04:15:00   8.490 8.410 8.430 8.450 -36.540 -62.860   265.300 266.000 264.600 8.770 96.900 8.306 0.350 265.300 273.000 356.100   0.000 0.396 65.230 350.90 337.50 0.86 -2.23
DSCMET_COMPS 2017-09-28 04:10:00   8.500 8.450 8.480 8.540 -36.410 -62.730   265.300 266.000 264.600 8.830 96.900 8.365 0.352 265.300 272.500 353.100 0.2020 63.650 0.498 71.200 351.30 337.70 1.00 -2.41
DSCMET_COMPS 2017-09-28 04:05:00   8.540 8.490 8.510 8.510 -36.310 -62.580   265.300 266.000 264.600 8.910 96.600 8.399 0.388 265.300 271.800 349.600 0.1890 41.440 0.408 73.720 351.70 337.90 0.98 -2.41
DSCMET_COMPS 2017-09-28 04:00:00   8.590 8.530 8.560 8.590 -36.200 -62.460   265.300 266.000 264.600 8.910 96.900 8.445 0.354 265.300 271.200 346.500 0.1870 58.980 0.619 67.480 352.10 338.20 0.93 -2.51
DSCMET_COMPS 2017-09-28 03:55:00   8.580 8.550 8.600 8.640 -36.080 -62.340   265.300 266.000 264.600 8.910 96.600 8.399 0.388 265.300 270.700 343.500 0.1580 45.860 0.453 55.640 352.30 338.40 1.04 -2.22
DSCMET_COMPS 2017-09-28 03:50:00   8.580 8.580 8.630 8.690 -35.950 -62.220   265.300 266.000 264.600 9.070 96.400 8.528 0.415 265.300 270.200 340.500 0.1580 48.660 0.435 78.690 352.30 338.20 1.50 -2.26
DSCMET_COMPS 2017-09-28 03:45:00   8.630 8.600 8.660 8.690 -35.820 -62.130   265.300 266.000 264.600 9.080 96.300 8.523 0.427 265.300 269.600 337.500 0.2810 48.390 0.648 68.500 352.10 338.10 1.27 -2.22
DSCMET_COMPS 2017-09-28 03:40:00   8.680 8.640 8.700 8.730 -35.710 -62.050   265.300 266.000 264.600 9.080 96.600 8.569 0.392 265.300 269.200 334.800 0.2380 64.570 0.914 52.400 352.00 338.20 1.16 -2.38
DSCMET_COMPS 2017-09-28 03:35:00   8.750 8.720 8.740 8.760 -35.580 -61.940   265.300 266.000 264.600 9.010 96.900 8.545 0.356 265.300 268.700 331.600 0.1810 58.890 0.369 74.600 352.40 338.30 1.36 -2.38
DSCMET_COMPS 2017-09-28 03:30:00   8.810 8.760 8.800 8.800 -35.440 -61.850   265.300 266.000 264.600 9.050 96.200 8.478 0.438 265.300 268.400 328.200 0.2250 58.030 0.621 57.380 352.40 338.30 1.13 -2.36
DSCMET_COMPS 2017-09-28 03:25:00   8.820 8.850 8.890 8.960 -35.300 -61.750   265.300 266.000 264.600 9.350 95.300 8.637 0.552 265.300 268.100 325.500 0.1600 64.400 0.605 73.780 352.50 338.40 1.30 -2.31
DSCMET_COMPS 2017-09-28 03:20:00   8.850 8.930 9.000 9.200 -35.150 -61.670   265.300 266.000 264.600 9.480 94.800 8.689 0.617 265.300 268.000 323.500 0.2120 76.360 0.832 73.560 352.70 338.50 1.38 -2.56
DSCMET_COMPS 2017-09-28 03:15:00   8.850 8.880 8.940 8.950 -35.030 -61.600   265.300 266.000 264.600 9.410 95.400 8.713 0.543 265.300 267.900 321.400 0.1680 73.000 0.532 75.740 353.10 338.70 1.34 -2.38
DSCMET_COMPS 2017-09-28 03:10:00   8.900 8.900 8.950 8.930 -34.890 -61.530   265.300 266.000 264.600 9.510 94.900 8.734 0.606 265.300 267.400 318.600   0.000 0.505 75.880 353.20 338.70 0.83 -2.19
DSCMET_COMPS 2017-09-28 03:05:00   8.980 8.960 9.010 9.010 -34.720 -61.470   265.300 265.900 264.600 9.580 95.100 8.835 0.585 265.300 267.100 316.100   0.000 0.564 72.530 353.40 338.80 1.11 -2.33
DSCMET_COMPS 2017-09-28 03:00:00   9.060 9.050 9.100 9.200 -34.570 -61.410   265.300 266.000 264.600 9.590 94.500 8.751 0.657 265.300 266.900 313.500 0.1660 64.810 0.343 72.120 353.60 338.90 1.07 -2.28
DSCMET_COMPS 2017-09-28 02:55:00   9.060 9.050 9.130 9.180 -34.400 -61.350   265.300 266.000 264.600 9.590 95.200 8.860 0.573 265.300 266.900 311.800 0.2200 75.500 1.036 62.970 353.60 339.00 0.91 -2.35
DSCMET_COMPS 2017-09-28 02:50:00   9.020 9.020 9.080 9.090 -34.270 -61.290   265.300 266.000 264.600 9.530 95.700 8.878 0.512 265.300 266.600 309.200 0.1630 47.810 0.612 55.690 353.90 339.20 1.17 -2.40
DSCMET_COMPS 2017-09-28 02:45:00   9.130 9.210 9.300 9.390 -34.130 -61.240   265.300 266.000 264.600 9.600 94.900 8.824 0.610 265.300 266.300 306.800 0.2550 76.990 0.444 64.910 354.50 339.10 1.19 -2.42
DSCMET_COMPS 2017-09-28 02:40:00   9.130 9.120 9.220 9.290 -33.980 -61.210   265.300 266.000 264.600 9.670 94.900 8.893 0.613 265.300 266.900 305.500 0.2310 78.460 0.854 60.140 354.40 338.90 1.08 -2.38
DSCMET_COMPS 2017-09-28 02:35:00   9.220 9.200 9.300 9.360 -33.810 -61.160   265.300 266.000 264.600 9.720 95.000 8.959 0.603 265.300 266.900 304.200 0.2610 81.500 1.091 63.600 354.60 338.70 1.25 -2.64
DSCMET_COMPS 2017-09-28 02:30:00   9.230 9.200 9.240 9.270 -33.680 -61.120   265.300 266.000 264.600 9.800 94.900 9.023 0.618 265.300 266.800 302.700 0.1400 72.830 0.986 63.750 354.90 338.80 1.18 -2.51
DSCMET_COMPS 2017-09-28 02:25:00   9.250 9.250 9.350 9.360 -33.520 -61.090   265.300 266.000 264.600 9.720 95.000 8.959 0.603 265.300 266.600 300.300 0.1300 76.470 0.314 60.570 355.30 339.00 0.94 -2.61
DSCMET_COMPS 2017-09-28 02:20:00   9.270 9.280 9.410 9.440 -33.360 -61.060   265.300 266.000 264.600 9.830 95.300 9.115 0.571 265.300 266.300 298.600 0.2070 76.740 0.769 70.700 355.90 339.20 1.07 -2.43
DSCMET_COMPS 2017-09-28 02:15:00   9.330 9.340 9.450 9.480 -33.210 -61.030   265.300 266.000 264.600 9.720 95.500 9.036 0.542 265.300 266.200 296.500 0.2810 64.580 0.978 52.540 355.60 339.00 0.96 -2.34
DSCMET_COMPS 2017-09-28 02:10:00   9.390 9.470 9.660 9.740 -33.090 -61.010   265.300 266.000 264.600 10.040 93.800 9.088 0.763 265.300 266.100 294.900 0.2660 78.960 0.940 58.920 356.00 339.00 1.35 -2.40
DSCMET_COMPS 2017-09-28 02:05:00   9.460 9.440 9.530 9.660 -32.940 -60.990   265.300 266.000 264.600 10.040 94.500 9.198 0.677 265.300 266.300 294.300 3.5580 76.050 0.681 63.010 355.90 339.20 1.12 -2.40
DSCMET_COMPS 2017-09-28 02:00:00   9.470 9.450 9.530 9.730 -32.780 -60.970   265.300 266.000 264.600 10.170 93.600 9.186 0.795 265.300 266.300 292.700   0.000 0.572 55.070 356.10 339.20 0.80 -2.28
DSCMET_COMPS 2017-09-28 01:55:00   9.470 9.500 9.580 9.730 -32.590 -60.970   265.300 266.000 264.600 10.170 93.800 9.217 0.770 265.300 266.300 291.600 0.2210 80.100 0.398 74.950 356.20 339.20 1.08 -2.25
DSCMET_COMPS 2017-09-28 01:50:00   9.520 9.520 9.590 9.610 -32.450 -60.960   265.300 266.000 264.600 10.100 94.600 9.274 0.668 265.300 266.600 290.700 0.2280 81.800 1.203 59.760 356.30 339.40 1.02 -2.55
DSCMET_COMPS 2017-09-28 01:45:00   9.600 9.580 9.660 9.680 -32.300 -60.950   265.300 266.000 264.600 10.140 94.800 9.345 0.645 265.300 266.400 288.700 0.1880 87.600 0.698 60.130 356.50 339.40 0.96 -2.37
DSCMET_COMPS 2017-09-28 01:40:00   9.630 9.600 9.680 9.680 -32.190 -60.940   265.300 266.000 264.600 10.040 95.000 9.277 0.616 265.300 266.300 286.500 0.1900 69.430 0.431 48.940 356.60 339.30 1.15 -2.48
DSCMET_COMPS 2017-09-28 01:35:00   9.650 9.630 9.740 9.740 -32.040 -60.940   265.300 265.900 264.600 10.050 95.300 9.333 0.579 265.300 266.400 284.900 0.2570 77.650 0.844 59.830 357.10 339.60 1.02 -2.55
DSCMET_COMPS 2017-09-28 01:30:00   9.640 9.610 9.680 9.680 -31.850 -60.950   265.300 266.000 264.600 10.090 95.200 9.358 0.593 265.300 266.300 282.900 0.0960 49.060 0.677 48.290 357.30 339.40 1.02 -2.20
DSCMET_COMPS 2017-09-28 01:25:00   9.650 9.640 9.730 9.730 -31.650 -60.970   265.300 266.000 264.600 10.110 95.000 9.346 0.618 265.300 266.200 281.000 0.2380 66.290 0.281 80.200 356.90 339.30 1.18 -2.24
DSCMET_COMPS 2017-09-28 01:20:00   9.720 9.740 9.860 9.860 -31.450 -60.990   265.300 265.900 264.600 10.260 94.400 9.401 0.700 265.300 265.900 279.800 0.3070 69.110 0.800 68.600 357.20 339.40 1.23 -2.40
DSCMET_COMPS 2017-09-28 01:15:00   9.780 9.800 9.950 10.040 -31.270 -61.010   265.300 265.900 264.600 10.430 94.000 9.507 0.758 265.300 265.900 279.100 0.2440 86.200 0.997 62.440 357.00 339.30 1.12 -2.44
DSCMET_COMPS 2017-09-28 01:10:00   9.790 9.800 9.940 10.190 -31.080 -61.030   265.300 266.000 264.600 10.530 93.700 9.559 0.801 265.300 266.000 278.900 0.1880 84.300 1.276 69.700 357.30 339.30 0.97 -2.38
DSCMET_COMPS 2017-09-28 01:05:00   9.850 9.820 9.940 10.010 -30.900 -61.060   265.300 265.900 264.600 10.380 94.500 9.536 0.693 265.300 265.900 278.300 0.2800 75.850 0.377 75.660 357.70 339.70 1.18 -2.54
DSCMET_COMPS 2017-09-28 01:00:00   9.910 9.880 10.050 10.220 -30.700 -61.100   265.300 265.900 264.600 10.610 93.300 9.574 0.857 265.300 265.900 277.500 0.2400 82.500 0.843 62.140 358.00 339.90 0.98 -2.57
DSCMET_COMPS 2017-09-28 00:55:00   9.910 9.870 10.030 10.120 -30.500 -61.130   265.300 265.900 264.600 10.890 92.100 9.659 1.029 265.300 265.900 277.300   0.000 0.857 57.850 358.50 340.20 0.95 -2.47
DSCMET_COMPS 2017-09-28 00:50:00   10.020 9.960 10.100 10.210 -30.330 -61.170   265.300 265.900 264.600 10.660 93.700 9.688 0.808 265.300 265.900 277.400   0.000 0.470 83.800 358.70 340.00 0.97 -2.37
DSCMET_COMPS 2017-09-28 00:45:00   10.050 10.010 10.130 10.230 -30.150 -61.210   265.300 265.900 264.600 10.710 93.400 9.689 0.850 265.300 265.900 277.100 0.3050 49.970 0.946 60.550 358.70 339.90 1.20 -2.31
DSCMET_COMPS 2017-09-28 00:40:00   10.100 10.090 10.200 10.190 -29.960 -61.260   265.300 265.900 264.600 10.700 94.000 9.775 0.772 265.300 265.900 276.300 0.1980 94.900 0.634 64.010 358.60 340.00 1.09 -2.51
DSCMET_COMPS 2017-09-28 00:35:00   10.110 10.150 10.250 10.310 -29.760 -61.310   265.300 265.900 264.600 10.760 93.200 9.707 0.878 265.200 265.900 275.100 0.1860 78.210 0.249 70.130 358.90 340.00 1.21 -2.45
DSCMET_COMPS 2017-09-28 00:30:00   10.210 10.230 10.330 10.430 -29.540 -61.370   265.300 265.900 264.600 10.820 93.600 9.830 0.830 265.200 265.900 275.000 0.2560 89.700 0.738 73.970 359.30 340.00 1.20 -2.32
DSCMET_COMPS 2017-09-28 00:25:00   10.260 10.280 10.410 10.520 -29.380 -61.420   265.300 265.900 264.600 10.960 92.700 9.825 0.956 265.300 265.900 274.500 0.2550 84.300 0.728 67.410 359.20 340.00 1.13 -2.33
DSCMET_COMPS 2017-09-28 00:20:00   10.290 10.300 10.420 10.440 -29.200 -61.480   265.300 265.900 264.600 10.990 92.900 9.887 0.931 265.200 265.900 274.400 0.2240 81.000 0.961 60.900 359.10 340.10 1.30 -2.50
DSCMET_COMPS 2017-09-28 00:15:00   10.310 10.330 10.440 10.500 -29.000 -61.550   265.300 265.900 264.600 10.890 93.600 9.900 0.834 265.200 265.900 273.500 0.1810 87.700 0.440 64.400 359.40 340.40 0.93 -2.36
DSCMET_COMPS 2017-09-28 00:10:00   10.340 10.390 10.470 10.490 -28.810 -61.620   265.300 265.900 264.600 10.910 93.700 9.936 0.822 265.300 265.900 272.600 0.2400 87.300 0.256 78.840 359.90 340.50 0.96 -2.45
DSCMET_COMPS 2017-09-28 00:05:00   10.340 10.380 10.460 10.470 -28.610 -61.690   265.300 265.900 264.600 10.920 93.900 9.977 0.796 265.200 265.900 272.100 0.1760 91.700 0.608 67.530 360.00 340.50 1.32 -2.54
DSCMET_COMPS 2017-09-28 00:00:00   10.400 10.400 10.490 10.470 -28.420 -61.760   265.300 265.900 264.600 10.950 93.700 9.975 0.824 265.100 265.900 271.200 0.1480 90.000 0.491 67.660 360.20 340.60 1.03 -2.55
DSCMET_COMPS 2017-09-27 23:55:00   10.540 10.540 10.650 10.760 -28.200 -61.850   265.300 265.900 264.600 11.140 92.700 10.004 0.967 265.200 265.900 270.400 0.1940 88.700 0.414 64.120 360.60 340.70 1.18 -2.56
DSCMET_COMPS 2017-09-27 23:50:00   10.570 10.540 10.590 10.670 -28.010 -61.930   265.300 265.900 264.600 11.020 94.000 10.092 0.789 265.200 265.900 270.400 0.1870 90.500 0.624 63.640 360.90 340.80 0.98 -2.50
DSCMET_COMPS 2017-09-27 23:45:00   10.570 10.560 10.600 10.640 -27.770 -62.030   265.300 265.900 264.600 10.890 94.600 10.058 0.704 265.200 265.900 269.500   0.000 0.423 50.440 360.90 341.00 0.96 -2.56
DSCMET_COMPS 2017-09-27 23:40:00   10.590 10.570 10.620 10.670 -27.550 -62.130   265.300 265.900 264.600 11.000 94.000 10.073 0.788 265.000 265.900 268.300 0.1100 95.700 0.296 59.240 361.20 341.00 1.17 -2.48
DSCMET_COMPS 2017-09-27 23:35:00   10.640 10.650 10.720 10.760 -27.330 -62.220   265.300 265.900 264.600 11.090 93.800 10.130 0.819 265.000 265.900 267.600 0.2280 88.300 0.420 65.390 361.20 341.10 0.95 -2.46
DSCMET_COMPS 2017-09-27 23:30:00   10.670 10.680 10.770 10.780 -27.110 -62.330   265.300 265.900 264.600 11.120 93.600 10.128 0.847 264.900 265.700 266.900 0.1380 83.700 0.357 69.760 361.70 341.30 1.08 -2.44
DSCMET_COMPS 2017-09-27 23:25:00   10.780 10.790 10.900 11.070 -26.870 -62.450   265.300 265.900 264.600 11.390 92.500 10.219 1.010 264.900 265.600 266.600 0.2450 95.300 0.506 81.000 362.00 341.30 1.21 -2.67
DSCMET_COMPS 2017-09-27 23:20:00   10.840 10.840 10.980 11.030 -26.640 -62.560   265.300 265.900 264.600 11.390 92.500 10.219 1.010 264.900 265.600 266.700 0.2030 90.800 0.529 56.720 362.80 341.30 1.33 -2.47
DSCMET_COMPS 2017-09-27 23:15:00   10.870 10.870 10.990 11.180 -26.410 -62.680   265.300 265.900 264.600 11.610 91.700 10.307 1.134 265.100 265.900 266.900 0.2870 86.900 0.599 63.970 362.50 341.30 1.16 -2.44
DSCMET_COMPS 2017-09-27 23:10:00   10.860 10.840 10.910 10.920 -26.190 -62.790   265.300 265.900 264.600 11.470 92.400 10.282 1.029 265.000 265.900 267.100 0.1850 72.990 0.531 59.940 362.40 341.40 0.86 -2.48
DSCMET_COMPS 2017-09-27 23:05:00   10.930 10.890 10.960 10.980 -25.960 -62.920   265.300 265.900 264.600 11.550 92.200 10.329 1.062 264.900 265.800 267.000 0.1850 86.300 0.383 81.700 362.60 341.60 0.90 -2.56
DSCMET_COMPS 2017-09-27 23:00:00   11.010 10.950 11.020 11.010 -25.740 -63.040   265.300 265.900 264.600 11.430 92.900 10.323 0.959 264.900 265.800 266.900 0.1580 98.500 0.296 71.450 363.20 341.80 1.29 -2.68
DSCMET_COMPS 2017-09-27 22:55:00   11.020 10.960 11.020 11.030 -25.510 -63.180   265.300 265.900 264.600 11.500 93.000 10.409 0.950 264.900 265.800 266.900 0.2170 70.450 0.736 52.970 363.50 341.60 1.20 -2.45
DSCMET_COMPS 2017-09-27 22:50:00   11.050 11.020 11.060 11.070 -25.270 -63.320   265.300 265.900 264.600 11.490 93.100 10.415 0.936 264.900 265.600 266.700 0.1440 91.100 0.366 74.060 363.40 341.60 0.63 -2.44
DSCMET_COMPS 2017-09-27 22:45:00   11.140 11.130 11.160 11.120 -25.020 -63.460   265.300 265.900 264.600 11.470 93.200 10.411 0.921 264.900 265.500 266.100 0.1550 86.400 0.284 69.950 364.00 341.70 0.94 -2.55
DSCMET_COMPS 2017-09-27 22:40:00   11.250 11.230 11.300 11.380 -24.770 -63.610   265.300 265.900 264.600 11.710 92.100 10.471 1.087 264.900 265.500 265.600 0.1750 92.900 0.390 58.380 364.40 341.50 1.08 -2.45
DSCMET_COMPS 2017-09-27 22:35:00   11.210 11.190 11.240 11.250 -24.560 -63.750   265.300 265.900 264.600 11.620 93.200 10.560 0.930 264.900 265.600 266.000   0.000 0.465 59.580 364.10 341.20 1.01 -2.41
DSCMET_COMPS 2017-09-27 22:30:00   11.200 11.180 11.240 11.240 -24.340 -63.900   265.300 265.900 264.600 11.690 92.800 10.565 0.989 264.900 265.500 265.600 0.1130 55.490 0.302 64.450 364.10 341.30 0.84 -2.38
DSCMET_COMPS 2017-09-27 22:25:00   11.310 11.290 11.360 11.340 -24.080 -64.060   265.300 265.900 264.600 11.850 91.800 10.561 1.139 264.900 265.500 265.500 0.2130 89.900 0.428 83.100 364.30 341.20 0.91 -2.48
DSCMET_COMPS 2017-09-27 22:20:00   11.390 11.370 11.420 11.430 -23.810 -64.230   265.300 265.900 264.600 11.970 91.600 10.647 1.176 264.900 265.500 265.500 0.1310 104.500 0.398 77.840 364.60 341.20 0.94 -2.46
DSCMET_COMPS 2017-09-27 22:15:00   11.420 11.440 11.510 11.570 -23.550 -64.400   265.300 265.900 264.600 12.060 91.100 10.654 1.253 264.900 265.500 265.400 0.1370 88.100 0.440 80.200 365.00 341.20 0.73 -2.40
DSCMET_COMPS 2017-09-27 22:10:00   11.510 11.480 11.540 11.520 -23.280 -64.580   265.300 265.900 264.600 11.950 91.900 10.676 1.132 264.900 265.500 265.500 0.1570 93.500 0.549 80.600 365.50 341.20 0.70 -2.51
DSCMET_COMPS 2017-09-27 22:05:00   11.560 11.560 11.620 11.590 -23.050 -64.750   265.300 265.900 264.600 12.000 91.000 10.578 1.262 264.900 265.500 265.200 0.1390 97.000 0.371 73.500 365.70 341.10 1.19 -2.59
DSCMET_COMPS 2017-09-27 22:00:00   11.640 11.660 11.730 11.690 -22.770 -64.940   265.300 265.900 264.600 12.220 90.400 10.696 1.366 264.900 265.500 265.200 0.1600 87.000 0.333 83.500 365.90 341.00 1.02 -2.48
DSCMET_COMPS 2017-09-27 21:55:00   11.760 11.770 11.860 11.830 -22.520 -65.130   265.300 265.900 264.600 12.310 90.200 10.752 1.403 264.900 265.500 265.200 0.2320 86.700 0.582 76.880 366.00 340.80 0.87 -2.53
DSCMET_COMPS 2017-09-27 21:50:00   11.810 11.800 11.870 11.840 -22.270 -65.320   265.300 265.900 264.600 12.250 90.700 10.775 1.326 264.900 265.500 265.200 0.2030 84.700 0.467 56.050 366.20 340.70 1.06 -2.46
DSCMET_COMPS 2017-09-27 21:45:00   11.890 11.880 11.960 11.950 -22.010 -65.520   265.300 265.900 264.600 12.300 90.900 10.858 1.302 264.900 265.500 265.200 0.1650 87.300 0.229 72.240 366.60 340.50 0.82 -2.40
DSCMET_COMPS 2017-09-27 21:40:00   11.910 11.950 12.080 12.030 -21.720 -65.720   265.300 265.900 264.600 12.560 90.300 11.015 1.411 264.900 265.500 265.200 0.1730 90.700 0.874 59.060 366.50 340.00 0.53 -2.38
DSCMET_COMPS 2017-09-27 21:35:00   11.960 11.950 12.020 11.940 -21.480 -65.920   265.300 265.900 264.600 12.280 91.700 10.970 1.186 264.800 265.500 265.300 0.1920 84.900 0.437 65.770 367.00 339.80 0.47 -2.46
DSCMET_COMPS 2017-09-27 21:30:00   12.050 12.030 12.080 12.050 -21.240 -66.110   265.300 265.900 264.600 12.300 91.600 10.973 1.202 264.800 265.500 265.200   0.000 0.323 51.910 367.50 339.50 0.38 -2.35
DSCMET_COMPS 2017-09-27 21:25:00   12.090 12.090 12.170 12.200 -20.990 -66.310   265.300 265.900 264.600 12.490 90.900 11.046 1.318 264.800 265.500 265.200 0.1510 80.000 0.433 58.550 367.90 339.30 0.57 -2.43
DSCMET_COMPS 2017-09-27 21:20:00   12.150 12.130 12.170 12.150 -20.740 -66.520   265.300 265.900 264.600 12.560 90.800 11.098 1.339 264.800 265.500 265.200 0.1310 80.400 0.347 74.910 368.20 338.90 0.57 -2.50
DSCMET_COMPS 2017-09-27 21:15:00   12.190 12.190 12.230 12.260 -20.500 -66.730   265.300 265.900 264.600 12.680 90.700 11.200 1.364 264.800 265.500 265.100 0.1810 57.710 0.436 54.250 368.40 338.60 0.78 -2.63
DSCMET_COMPS 2017-09-27 21:10:00   12.250 12.280 12.330 12.340 -20.220 -66.960   265.300 265.900 264.600 12.790 90.200 11.226 1.448 264.800 265.400 265.000 0.1440 80.800 0.335 79.170 368.90 338.30 1.04 -2.80
DSCMET_COMPS 2017-09-27 21:05:00   12.370 12.410 12.450 12.440 -19.970 -67.180   265.300 265.900 264.600 12.810 90.400 11.279 1.420 264.800 265.300 264.900 0.1800 83.500 0.391 76.980 369.30 338.40 1.13 -2.71
DSCMET_COMPS 2017-09-27 21:00:00   12.440 12.480 12.530 12.540 -19.710 -67.400   265.300 265.900 264.600 12.980 90.000 11.380 1.496 264.800 265.200 264.800 0.1450 72.520 0.340 61.340 369.30 338.30 0.48 -2.54
DSCMET_COMPS 2017-09-27 20:55:00   12.520 12.560 12.600 12.590 -19.460 -67.630   265.300 265.900 264.600 13.160 89.100 11.406 1.650 264.800 265.100 264.800 0.1420 67.540 0.676 67.410 370.00 338.10 0.53 -2.56
DSCMET_COMPS 2017-09-27 20:50:00   12.660 12.690 12.740 12.770 -19.210 -67.860   265.300 265.900 264.600 13.190 89.300 11.469 1.623 264.800 265.100 264.800 0.1980 85.600 0.453 77.790 370.30 337.80 0.37 -2.46
DSCMET_COMPS 2017-09-27 20:45:00   12.730 12.760 12.830 12.830 -18.930 -68.110   265.300 265.900 264.600 13.370 88.600 11.528 1.749 264.800 265.100 264.800 0.2080 81.900 0.548 76.560 370.70 337.50 0.35 -2.69
DSCMET_COMPS 2017-09-27 20:40:00   12.840 12.900 12.970 12.940 -18.660 -68.370   265.300 265.900 264.600 13.410 88.000 11.464 1.846 264.800 265.100 264.800 0.2300 78.770 0.405 83.600 371.40 337.30 0.43 -2.68
DSCMET_COMPS 2017-09-27 20:35:00   12.990 13.030 13.140 13.140 -18.410 -68.620   265.300 265.900 264.600 13.530 87.400 11.479 1.953 264.800 265.100 264.700 0.2280 79.340 0.390 81.600 372.40 337.10 0.89 -2.79
DSCMET_COMPS 2017-09-27 20:30:00   13.070 13.130 13.280 13.340 -18.130 -68.880   265.300 265.900 264.600 13.700 86.700 11.525 2.085 264.800 265.100 264.500 0.3010 84.400 0.569 68.160 372.30 336.80 0.50 -2.64
DSCMET_COMPS 2017-09-27 20:25:00   13.080 13.100 13.290 13.360 -17.870 -69.140   265.300 265.900 264.600 13.730 87.600 11.711 1.948 264.800 265.100 264.600 0.2340 73.990 0.770 61.780 372.50 336.50 0.60 -2.80
DSCMET_COMPS 2017-09-27 20:20:00   13.160 13.180 13.230 13.300 -17.590 -69.410   265.300 265.900 264.600 13.810 87.100 11.703 2.037 264.800 265.100 264.500   0.000 0.474 78.780 373.10 336.30 0.96 -2.85
DSCMET_COMPS 2017-09-27 20:15:00   13.260 13.310 13.380 13.440 -17.290 -69.710   265.300 265.900 264.600 13.870 87.100 11.762 2.045 264.800 265.100 264.500 0.2570 70.640 0.570 70.690 373.70 336.10 0.72 -2.71
DSCMET_COMPS 2017-09-27 20:10:00   13.340 13.380 13.440 13.430 -17.040 -69.970   265.300 265.900 264.600 13.880 87.500 11.841 1.983 264.800 265.100 264.400 0.2260 75.830 0.275 75.720 373.30 335.60 0.34 -2.60
DSCMET_COMPS 2017-09-27 20:05:00   13.370 13.390 13.460 13.500 -16.760 -70.260   265.300 265.900 264.600 14.030 87.500 11.988 2.002 264.800 265.100 264.400 0.1520 68.910 0.362 71.900 373.80 335.10 0.41 -2.86
DSCMET_COMPS 2017-09-27 20:00:00   13.470 13.570 13.630 13.650 -16.470 -70.580   265.300 265.900 264.600 14.360 85.400 11.944 2.389 264.800 265.100 264.400 0.2770 66.540 0.736 74.720 374.50 334.80 0.70 -2.76
DSCMET_COMPS 2017-09-27 19:55:00   13.640 13.770 13.900 14.020 -16.210 -70.870   265.300 265.900 264.600 14.330 86.400 12.091 2.221 264.600 265.100 264.400 0.3160 83.300 0.517 80.200 375.50 334.40 1.00 -2.89
DSCMET_COMPS 2017-09-27 19:50:00   13.770 13.840 13.980 14.150 -15.940 -71.170   265.300 265.900 264.600 14.460 86.300 12.202 2.256 264.700 265.100 264.400 0.3420 77.930 1.091 65.380 375.10 333.90 0.46 -2.68
DSCMET_COMPS 2017-09-27 19:45:00   13.790 13.860 14.010 14.110 -15.680 -71.470   265.300 265.900 264.600 14.540 86.000 12.227 2.317 264.500 265.100 264.100 0.1440 60.460 0.311 70.270 375.20 333.10 0.25 -2.65
DSCMET_COMPS 2017-09-27 19:40:00   13.930 14.020 14.170 14.350 -15.410 -71.770   265.300 265.900 264.600 14.910 83.600 12.160 2.780 264.400 265.000 264.100 0.2780 76.060 0.394 85.700 375.80 332.40 0.57 -3.00
DSCMET_COMPS 2017-09-27 19:35:00   14.060 14.150 14.370 14.460 -15.150 -72.080   265.300 265.900 264.600 15.080 83.100 12.235 2.897 264.400 265.000 264.100 0.3090 77.670 1.056 68.970 376.40 332.30 0.58 -3.03
DSCMET_COMPS 2017-09-27 19:30:00   14.140 14.270 14.450 14.630 -14.880 -72.390   265.300 265.900 264.600 15.190 83.100 12.342 2.917 264.400 265.000 264.100 0.2780 74.040 0.698 73.690 377.30 332.40 0.95 -3.10
DSCMET_COMPS 2017-09-27 19:25:00   14.260 14.310 14.610 14.710 -14.660 -72.690   265.300 265.900 264.600 15.500 81.400 12.331 3.275 264.400 264.900 264.100 0.2540 82.900 0.682 69.710 378.10 332.00 0.70 -2.91
DSCMET_COMPS 2017-09-27 19:20:00   14.370 14.400 14.630 14.740 -14.410 -73.010   265.300 265.900 264.500 15.850 78.830 12.184 3.812 264.400 264.900 264.100 0.1500 74.640 1.616 55.930 377.50 331.40 0.42 -2.99
DSCMET_COMPS 2017-09-27 19:15:00   14.440 14.580 14.840 14.920 -14.150 -73.350   265.300 265.900 264.600 15.710 80.600 12.385 3.462 264.400 264.700 264.100 0.2600 76.880 1.140 69.820 378.60 331.20 0.44 -2.95
DSCMET_COMPS 2017-09-27 19:10:00   14.510 14.740 14.970 15.110 -13.870 -73.710   265.300 265.900 264.600 15.710 81.200 12.498 3.355 264.400 264.800 264.100   0.000 0.908 67.220 379.30 331.20 0.79 -3.01
DSCMET_COMPS 2017-09-27 19:05:00   14.640 14.790 14.950 15.110 -13.600 -74.080   265.300 265.900 264.600 15.460 84.500 12.861 2.722 264.400 264.800 264.000 0.2820 77.020 1.051 53.100 379.50 331.10 0.39 -2.89
DSCMET_COMPS 2017-09-27 19:00:00   14.750 14.860 14.990 15.050 -13.340 -74.430   265.300 265.900 264.600 15.730 83.100 12.870 3.020 264.400 264.700 263.900 0.2500 77.390 0.731 65.930 380.20 330.90 0.60 -2.95
DSCMET_COMPS 2017-09-27 18:55:00   14.850 14.970 15.130 15.230 -13.070 -74.820   265.300 265.900 264.500 16.140 80.800 12.842 3.522 264.400 264.700 263.700 0.2930 74.610 0.412 74.150 380.50 330.80 0.44 -2.91
DSCMET_COMPS 2017-09-27 18:50:00   14.950 15.120 15.340 15.430 -12.810 -75.190   265.300 265.900 264.400 16.390 78.720 12.687 3.966 264.400 264.700 263.700 0.3020 76.410 0.641 77.450 381.30 330.90 0.58 -2.97
DSCMET_COMPS 2017-09-27 18:45:00   15.050 15.250 15.510 15.660 -12.530 -75.580   265.300 265.900 264.400 16.280 80.700 12.959 3.572 264.400 264.700 263.700 0.2910 75.010 0.521 75.630 381.50 330.90 0.41 -2.91
DSCMET_COMPS 2017-09-27 18:40:00   15.110 15.310 15.560 15.750 -12.270 -75.980   265.300 265.900 264.300 16.540 79.980 13.075 3.767 264.400 264.700 263.700 0.3260 76.750 0.385 68.650 382.30 330.60 0.24 -2.94
DSCMET_COMPS 2017-09-27 18:35:00   15.210 15.410 15.640 16.010 -12.010 -76.360   265.300 265.900 263.900 17.120 75.090 12.674 4.863 264.300 264.700 263.700 0.2930 78.500 1.492 64.390 383.20 330.50 0.42 -2.99
DSCMET_COMPS 2017-09-27 18:30:00   15.350 15.560 15.820 16.360 -11.780 -76.750   265.300 265.900 263.900 17.140 75.460 12.768 4.797 264.300 264.700 263.700 0.3070 80.500 1.247 59.450 383.50 330.60 0.26 -3.06
DSCMET_COMPS 2017-09-27 18:25:00   15.470 15.640 16.010 16.500 -11.550 -77.140   265.300 265.900 263.900 16.990 78.650 13.256 4.134 264.300 264.700 263.700 0.2570 79.300 0.943 57.270 383.90 330.70 0.37 -3.08
DSCMET_COMPS 2017-09-27 18:20:00   15.600 15.770 16.180 16.640 -11.330 -77.530   265.300 265.900 263.900 17.100 78.410 13.316 4.210 264.300 264.700 263.500 0.3080 79.820 0.664 55.280 384.60 330.90 0.44 -3.23
DSCMET_COMPS 2017-09-27 18:15:00   15.650 15.910 16.260 16.400 -11.110 -77.940   265.300 265.900 263.900 16.880 81.300 13.657 3.596 264.300 264.600 263.300 0.1380 80.300 0.304 21.060 385.60 331.30 0.60 -3.16
DSCMET_COMPS 2017-09-27 18:10:00   15.790 16.080 16.390 16.500 -10.850 -78.410   265.300 265.900 263.900 17.370 78.530 13.601 4.258 264.300 264.600 263.200 0.1360 86.600 0.378 53.600 385.40 331.80 0.56 -2.84
DSCMET_COMPS 2017-09-27 18:05:00   15.940 16.230 16.550 16.740 -10.600 -78.850   265.300 265.900 263.900 17.780 75.060 13.305 5.076 264.300 264.600 263.000   0.000 0.670 70.600 386.80 332.60 0.46 -1.98
DSCMET_COMPS 2017-09-27 18:00:00   16.040 16.330 16.570 16.750 -10.370 -79.310   265.300 265.900 263.900 18.180 72.950 13.253 5.646 264.300 264.500 263.000   0.000 0.649 65.970 387.70 333.30 0.42 -1.05
DSCMET_COMPS 2017-09-27 17:55:00   16.140 16.540 16.780 16.850 -10.110 -79.790   265.300 265.900 263.900 18.350 71.750 13.163 5.960 264.000 264.300 263.000 0.2360 83.600 0.955 70.100 388.70 333.80 0.76 -0.24
DSCMET_COMPS 2017-09-27 17:50:00   16.320 16.760 17.040 17.100 -9.850 -80.300   265.300 265.900 263.900 18.470 72.810 13.503 5.779 263.900 264.300 262.900 0.3460 82.700 0.709 63.770 389.90 334.40 0.73 0.95
DSCMET_COMPS 2017-09-27 17:45:00   16.450 16.850 17.130 17.200 -9.620 -80.800   265.300 265.800 263.900 18.950 69.580 13.267 6.663 263.900 264.300 262.800 0.3150 85.300 0.820 65.800 391.20 335.10 0.83 2.08
DSCMET_COMPS 2017-09-27 17:40:00   16.560 17.020 17.290 17.400 -9.390 -81.200   265.300 265.400 263.900 19.450 67.010 13.168 7.454 263.900 264.200 262.700 0.3160 85.200 1.202 67.050 391.80 335.90 0.65 3.44
DSCMET_COMPS 2017-09-27 17:35:00   16.690 17.220 17.610 17.680 -9.160 -81.800   265.500 265.300 263.900 19.510 67.320 13.296 7.412 263.900 264.200 262.800 0.3240 84.200 0.840 71.190 392.80 336.60 0.71 5.14
DSCMET_COMPS 2017-09-27 17:30:00   16.800 17.390 17.750 17.780 -8.940 -82.300   265.500 265.300 263.900 19.580 68.290 13.582 7.223 263.900 264.000 262.600 0.2870 85.500 0.828 60.170 393.80 337.30 0.86 6.77
DSCMET_COMPS 2017-09-27 17:25:00   16.930 17.570 18.060 18.230 -8.720 -82.800   265.500 265.300 263.900 19.870 66.670 13.489 7.730 263.900 263.900 262.600 0.3060 85.700 0.951 70.900 394.60 338.10 0.87 8.06
DSCMET_COMPS 2017-09-27 17:20:00   17.090 17.720 18.260 18.390 -8.520 -83.300   265.500 265.300 263.700 20.010 67.260 13.758 7.659 263.700 263.900 262.600 0.2710 85.900 0.651 36.730 395.50 338.90 0.86 9.26
DSCMET_COMPS 2017-09-27 17:15:00   17.230 17.880 18.500 18.650 -8.340 -83.700   265.700 265.300 263.300 20.520 64.730 13.653 8.515 263.500 263.900 262.500 0.2750 87.500 0.936 56.190 396.30 339.50 0.89 10.33
DSCMET_COMPS 2017-09-27 17:10:00   17.390 18.110 18.840 19.010 -8.150 -84.300   265.600 265.300 263.200 20.590 64.890 13.757 8.513 263.500 263.900 262.500 0.3080 87.700 0.854 61.410 397.10 339.90 0.87 11.35
DSCMET_COMPS 2017-09-27 17:05:00   17.520 18.360 19.050 19.220 -7.968 -84.800   265.500 265.300 263.200 21.060 62.830 13.706 9.277 263.500 263.600 262.500 0.2550 87.600 0.599 67.670 398.10 340.80 0.84 12.40
DSCMET_COMPS 2017-09-27 17:00:00   17.660 18.520 19.280 19.500 -7.802 -85.400   265.500 265.300 263.200 21.060 64.290 14.059 8.913 263.500 263.500 262.500 0.2920 87.300 0.973 53.490 399.30 341.60 0.78 13.44
DSCMET_COMPS 2017-09-27 16:55:00   17.770 18.600 19.570 19.870 -7.626 -85.900   265.800 265.300 263.200 21.180 67.180 14.853 8.252 263.500 263.500 262.300   0.000 0.368 68.440 400.70 342.60 0.72 14.35
DSCMET_COMPS 2017-09-27 16:50:00   17.890 18.810 20.010 20.450 -7.463 -86.500   265.300 265.300 263.200 21.610 64.350 14.594 9.203 263.500 263.500 262.200 0.2810 88.000 0.398 68.520 401.60 343.40 0.63 15.33
DSCMET_COMPS 2017-09-27 16:45:00   18.010 18.980 20.150 20.770 -7.293 -87.100   265.300 265.300 263.200 21.890 61.760 14.223 10.042 263.500 263.300 262.200 0.2610 84.800 0.806 58.790 403.10 344.30 0.43 16.16
DSCMET_COMPS 2017-09-27 16:40:00   18.130 19.080 20.260 20.950 -7.154 -87.700   265.300 265.300 263.200 22.150 59.160 13.805 10.896 263.400 263.200 262.200 0.3100 86.900 0.765 61.880 404.30 345.60 0.27 16.90
DSCMET_COMPS 2017-09-27 16:35:00   18.210 19.230 20.390 21.170 -6.988 -88.400   265.300 265.300 263.200 22.420 60.910 14.508 10.601 263.200 263.200 262.100 0.2140 87.700 0.424 67.310 405.30 346.30 0.04 17.50
DSCMET_COMPS 2017-09-27 16:30:00   18.320 19.400 20.620 21.490 -6.818 -89.100   265.300 265.300 263.200 22.820 58.410 14.235 11.556 263.200 263.200 261.800 0.3140 87.300 0.580 72.430 406.50 347.40 -0.36 18.17
DSCMET_COMPS 2017-09-27 16:25:00   18.460 19.560 20.850 21.640 -6.682 -89.800   265.300 265.300 263.200 23.140 55.120 13.640 12.714 263.200 263.200 261.800 0.1920 98.300 0.327 48.820 408.20 348.50 -0.13 18.96
DSCMET_COMPS 2017-09-27 16:20:00   18.540 19.710 20.990 21.870 -6.520 -90.600   265.300 265.300 263.200 23.310 55.180 13.815 12.828 263.200 263.100 261.700 0.1950 95.200 0.386 57.980 409.60 349.70 -0.78 20.00
DSCMET_COMPS 2017-09-27 16:15:00   18.620 19.810 21.140 22.160 -6.360 -91.500   265.300 265.300 263.200 23.680 53.850 13.782 13.507 263.200 263.000 261.700 0.2250 87.900 0.356 51.800 411.20 351.00 -1.14 21.06
DSCMET_COMPS 2017-09-27 16:10:00   18.720 19.920 21.350 22.420 -6.208 -92.400   265.300 265.300 263.200 23.890 50.630 13.030 14.633 263.200 262.800 261.500 0.3230 91.300 0.292 63.940 413.00 352.10 -1.56 22.12
DSCMET_COMPS 2017-09-27 16:05:00   18.780 20.040 21.510 22.480 -6.038 -93.600   265.300 265.300 263.200 23.790 49.250 12.517 14.952 263.100 262.800 261.500 0.2930 88.800 0.645 58.280 415.10 353.60 -1.70 23.57